<?xml version='1.0' encoding='UTF-8'?><gpx version="1.1" creator="JPX - https://github.com/jenetics/jpx" xmlns="http://www.topografix.com/GPX/1/1"><trk><trkseg><trkpt lat="45.59456626861636" lon="10.13457422812471"><ele>164.0</ele><time>2026-04-23T15:08:54Z</time></trkpt><trkpt lat="45.59450992689113" lon="10.134635361224074"><ele>164.0</ele><time>2026-04-23T15:10:15.001Z</time></trkpt><trkpt lat="45.59449766970817" lon="10.134757035820089"><ele>164.0</ele><time>2026-04-23T15:10:19.001Z</time></trkpt><trkpt lat="45.594476677420055" lon="10.134875482064245"><ele>164.0</ele><time>2026-04-23T15:10:24.001Z</time></trkpt><trkpt lat="45.594455015904025" lon="10.13497636928017"><ele>164.0</ele><time>2026-04-23T15:10:27.001Z</time></trkpt><trkpt lat="45.59443935959985" lon="10.135074973766777"><ele>164.0</ele><time>2026-04-23T15:10:30.001Z</time></trkpt><trkpt lat="45.5944506196057" lon="10.135177531362828"><ele>163.99999999999997</ele><time>2026-04-23T15:10:33.001Z</time></trkpt><trkpt lat="45.594476915672175" lon="10.13525952760244"><ele>164.0</ele><time>2026-04-23T15:10:36.001Z</time></trkpt><trkpt lat="45.594487785829806" lon="10.1353498006971"><ele>164.0</ele><time>2026-04-23T15:10:39.001Z</time></trkpt><trkpt lat="45.59450505278209" lon="10.135438689676615"><ele>164.0</ele><time>2026-04-23T15:10:42.001Z</time></trkpt><trkpt lat="45.59452062012474" lon="10.135540743007592"><ele>164.0</ele><time>2026-04-23T15:10:46.002Z</time></trkpt><trkpt lat="45.594549121898574" lon="10.135649773862566"><ele>163.99999999999997</ele><time>2026-04-23T15:10:50.002Z</time></trkpt><trkpt lat="45.59457808610461" lon="10.135752245356056"><ele>164.0</ele><time>2026-04-23T15:10:54.002Z</time></trkpt><trkpt lat="45.59459205436953" lon="10.135846641267678"><ele>163.99999999999997</ele><time>2026-04-23T15:10:57.002Z</time></trkpt><trkpt lat="45.59460438627243" lon="10.135958358172813"><ele>164.0</ele><time>2026-04-23T15:11:00.002Z</time></trkpt><trkpt lat="45.59461309823484" lon="10.136070574779659"><ele>164.0</ele><time>2026-04-23T15:11:03.002Z</time></trkpt><trkpt lat="45.59463374776944" lon="10.136159509027369"><ele>164.0</ele><time>2026-04-23T15:11:06.002Z</time></trkpt><trkpt lat="45.59465477011679" lon="10.13626855292926"><ele>164.0</ele><time>2026-04-23T15:11:09.002Z</time></trkpt><trkpt lat="45.59465578782827" lon="10.136366832965622"><ele>163.99999999999997</ele><time>2026-04-23T15:11:12.002Z</time></trkpt><trkpt lat="45.59466374997852" lon="10.136471826328354"><ele>164.0</ele><time>2026-04-23T15:11:15.002Z</time></trkpt><trkpt lat="45.594677285066474" lon="10.136572266204514"><ele>163.7142857142857</ele><time>2026-04-23T15:11:18.002Z</time></trkpt><trkpt lat="45.594737770988885" lon="10.136645450264597"><ele>163.42857142857142</ele><time>2026-04-23T15:11:21.002Z</time></trkpt><trkpt lat="45.594799783852196" lon="10.1366953616619"><ele>163.14285714285714</ele><time>2026-04-23T15:11:24.002Z</time></trkpt><trkpt lat="45.5948640057823" lon="10.13670292658"><ele>162.85714285714283</ele><time>2026-04-23T15:11:27.002Z</time></trkpt><trkpt lat="45.59493157246187" lon="10.136713155727794"><ele>162.57142857142856</ele><time>2026-04-23T15:11:30.002Z</time></trkpt><trkpt lat="45.59501585308801" lon="10.136720495849676"><ele>162.28571428571428</ele><time>2026-04-23T15:11:34.002Z</time></trkpt><trkpt lat="45.59508671037353" lon="10.136724519795026"><ele>162.0</ele><time>2026-04-23T15:11:37.002Z</time></trkpt><trkpt lat="45.59515589591558" lon="10.136722934444347"><ele>162.0</ele><time>2026-04-23T15:11:40.002Z</time></trkpt><trkpt lat="45.59522588778538" lon="10.136727390842799"><ele>162.0</ele><time>2026-04-23T15:11:43.002Z</time></trkpt><trkpt lat="45.595268890922036" lon="10.136805516555043"><ele>162.0</ele><time>2026-04-23T15:11:46.002Z</time></trkpt><trkpt lat="45.59525794855337" lon="10.1369075165922"><ele>162.0</ele><time>2026-04-23T15:11:49.002Z</time></trkpt><trkpt lat="45.59525439255033" lon="10.137014263381788"><ele>162.0</ele><time>2026-04-23T15:11:52.002Z</time></trkpt><trkpt lat="45.595250522060184" lon="10.137121483430178"><ele>162.0</ele><time>2026-04-23T15:11:55.002Z</time></trkpt><trkpt lat="45.595240735537345" lon="10.137217054421127"><ele>162.0</ele><time>2026-04-23T15:11:58.003Z</time></trkpt><trkpt lat="45.59523401127736" lon="10.137309891042738"><ele>162.0</ele><time>2026-04-23T15:12:01.003Z</time></trkpt><trkpt lat="45.59522967551828" lon="10.137416756185665"><ele>162.0</ele><time>2026-04-23T15:12:04.003Z</time></trkpt><trkpt lat="45.595219727531244" lon="10.137534662436535"><ele>162.0</ele><time>2026-04-23T15:12:07.003Z</time></trkpt><trkpt lat="45.595223031611766" lon="10.137653429153191"><ele>162.0</ele><time>2026-04-23T15:12:10.003Z</time></trkpt><trkpt lat="45.59522186625863" lon="10.137767843467007"><ele>162.0</ele><time>2026-04-23T15:12:13.003Z</time></trkpt><trkpt lat="45.59522074543544" lon="10.137880958216911"><ele>162.0</ele><time>2026-04-23T15:12:16.003Z</time></trkpt><trkpt lat="45.59522642949018" lon="10.137987739162531"><ele>162.0</ele><time>2026-04-23T15:12:19.003Z</time></trkpt><trkpt lat="45.59524112393654" lon="10.138104951502626"><ele>162.0</ele><time>2026-04-23T15:12:22.003Z</time></trkpt><trkpt lat="45.59524568743711" lon="10.138232984856744"><ele>162.0</ele><time>2026-04-23T15:12:25.003Z</time></trkpt><trkpt lat="45.59526182743374" lon="10.13833680945091"><ele>162.0</ele><time>2026-04-23T15:12:28.003Z</time></trkpt><trkpt lat="45.59527306379324" lon="10.138439872590965"><ele>162.0</ele><time>2026-04-23T15:12:31.003Z</time></trkpt><trkpt lat="45.59529849375537" lon="10.138530121383287"><ele>162.0</ele><time>2026-04-23T15:12:37.003Z</time></trkpt><trkpt lat="45.59532406937297" lon="10.138620653773712"><ele>162.5</ele><time>2026-04-23T15:12:41.003Z</time></trkpt><trkpt lat="45.595343274858" lon="10.138731063901146"><ele>163.0</ele><time>2026-04-23T15:12:44.003Z</time></trkpt><trkpt lat="45.59537036799387" lon="10.13883026405294"><ele>163.5</ele><time>2026-04-23T15:12:47.003Z</time></trkpt><trkpt lat="45.59537656849957" lon="10.138928316079436"><ele>164.0</ele><time>2026-04-23T15:12:50.003Z</time></trkpt><trkpt lat="45.59539015085006" lon="10.139036336271921"><ele>164.5</ele><time>2026-04-23T15:12:53.003Z</time></trkpt><trkpt lat="45.59539835270321" lon="10.139164577443204"><ele>165.0</ele><time>2026-04-23T15:12:56.003Z</time></trkpt><trkpt lat="45.59540602007678" lon="10.139297094180513"><ele>165.0</ele><time>2026-04-23T15:12:59.003Z</time></trkpt><trkpt lat="45.595407506471695" lon="10.139417695897771"><ele>165.0</ele><time>2026-04-23T15:13:02.003Z</time></trkpt><trkpt lat="45.595410652283654" lon="10.139520019612808"><ele>165.0</ele><time>2026-04-23T15:13:05.003Z</time></trkpt><trkpt lat="45.59537324102114" lon="10.13962062753946"><ele>165.0</ele><time>2026-04-23T15:13:08.003Z</time></trkpt><trkpt lat="45.5953433069784" lon="10.139726280172408"><ele>165.0</ele><time>2026-04-23T15:13:11.004Z</time></trkpt><trkpt lat="45.59534044713454" lon="10.13984267626209"><ele>165.0</ele><time>2026-04-23T15:13:14.004Z</time></trkpt><trkpt lat="45.59534472362743" lon="10.139960390404566"><ele>164.83333333333334</ele><time>2026-04-23T15:13:17.004Z</time></trkpt><trkpt lat="45.59534491961333" lon="10.140072439163374"><ele>164.66666666666666</ele><time>2026-04-23T15:13:20.004Z</time></trkpt><trkpt lat="45.595352122637834" lon="10.14019057581024"><ele>164.5</ele><time>2026-04-23T15:13:23.004Z</time></trkpt><trkpt lat="45.59536199017359" lon="10.140300496279297"><ele>164.33333333333331</ele><time>2026-04-23T15:13:26.004Z</time></trkpt><trkpt lat="45.59537147782688" lon="10.140404857686686"><ele>164.16666666666666</ele><time>2026-04-23T15:13:29.004Z</time></trkpt><trkpt lat="45.59538349173359" lon="10.140517760187214"><ele>164.0</ele><time>2026-04-23T15:13:32.004Z</time></trkpt><trkpt lat="45.59540173106267" lon="10.140623814681874"><ele>164.0</ele><time>2026-04-23T15:13:35.004Z</time></trkpt><trkpt lat="45.59542190264429" lon="10.140715948352536"><ele>164.0</ele><time>2026-04-23T15:13:38.004Z</time></trkpt><trkpt lat="45.595441205951154" lon="10.14082596405944"><ele>164.0</ele><time>2026-04-23T15:13:41.004Z</time></trkpt><trkpt lat="45.595470269792216" lon="10.140927074659961"><ele>164.0</ele><time>2026-04-23T15:13:44.004Z</time></trkpt><trkpt lat="45.595502376831156" lon="10.141019942953772"><ele>164.0</ele><time>2026-04-23T15:13:47.004Z</time></trkpt><trkpt lat="45.59553914772843" lon="10.141123374491967"><ele>164.0</ele><time>2026-04-23T15:13:50.004Z</time></trkpt><trkpt lat="45.595579346672665" lon="10.141224088116909"><ele>164.33333333333331</ele><time>2026-04-23T15:13:53.004Z</time></trkpt><trkpt lat="45.59561194269576" lon="10.141331224140663"><ele>164.66666666666666</ele><time>2026-04-23T15:13:56.004Z</time></trkpt><trkpt lat="45.59564938934412" lon="10.141427735176123"><ele>165.0</ele><time>2026-04-23T15:13:59.004Z</time></trkpt><trkpt lat="45.59566277555976" lon="10.14152901659398"><ele>165.33333333333334</ele><time>2026-04-23T15:14:02.004Z</time></trkpt><trkpt lat="45.59568920242132" lon="10.141629772613562"><ele>165.66666666666669</ele><time>2026-04-23T15:14:05.004Z</time></trkpt><trkpt lat="45.59570268887656" lon="10.141734215622236"><ele>166.0</ele><time>2026-04-23T15:14:08.004Z</time></trkpt><trkpt lat="45.59571252972771" lon="10.141835470247525"><ele>166.14285714285714</ele><time>2026-04-23T15:14:11.004Z</time></trkpt><trkpt lat="45.59570364856151" lon="10.141925927703186"><ele>166.2857142857143</ele><time>2026-04-23T15:14:15.004Z</time></trkpt><trkpt lat="45.59570756372759" lon="10.142031743739013"><ele>166.42857142857144</ele><time>2026-04-23T15:14:19.004Z</time></trkpt><trkpt lat="45.59570231432949" lon="10.142123434403304"><ele>166.57142857142856</ele><time>2026-04-23T15:14:22.005Z</time></trkpt><trkpt lat="45.59570409419048" lon="10.142247019406376"><ele>166.71428571428572</ele><time>2026-04-23T15:14:26.005Z</time></trkpt><trkpt lat="45.59570494781502" lon="10.142347563527068"><ele>166.85714285714286</ele><time>2026-04-23T15:14:29.005Z</time></trkpt><trkpt lat="45.59566245074894" lon="10.142423895148637"><ele>167.0</ele><time>2026-04-23T15:14:33.005Z</time></trkpt><trkpt lat="45.5956111665918" lon="10.142496841232068"><ele>167.33333333333331</ele><time>2026-04-23T15:14:36.005Z</time></trkpt><trkpt lat="45.59562496595517" lon="10.14261872449106"><ele>167.66666666666666</ele><time>2026-04-23T15:14:39.005Z</time></trkpt><trkpt lat="45.59567388671047" lon="10.142706180296175"><ele>168.0</ele><time>2026-04-23T15:14:41.005Z</time></trkpt><trkpt lat="45.59568341007108" lon="10.142818307306904"><ele>168.33333333333334</ele><time>2026-04-23T15:14:44.005Z</time></trkpt><trkpt lat="45.59566686931946" lon="10.142917917556098"><ele>168.66666666666669</ele><time>2026-04-23T15:14:47.005Z</time></trkpt><trkpt lat="45.595678741252755" lon="10.143043708229643"><ele>169.0</ele><time>2026-04-23T15:14:50.005Z</time></trkpt><trkpt lat="45.59566248850645" lon="10.143141510156696"><ele>169.85714285714286</ele><time>2026-04-23T15:14:53.005Z</time></trkpt><trkpt lat="45.595625378379715" lon="10.143225298464431"><ele>170.71428571428572</ele><time>2026-04-23T15:14:56.005Z</time></trkpt><trkpt lat="45.59560161669626" lon="10.14331223530839"><ele>171.57142857142856</ele><time>2026-04-23T15:14:59.005Z</time></trkpt><trkpt lat="45.59556177661627" lon="10.143413697002835"><ele>172.42857142857144</ele><time>2026-04-23T15:15:03.005Z</time></trkpt><trkpt lat="45.595542755362146" lon="10.143510600314476"><ele>173.28571428571428</ele><time>2026-04-23T15:15:06.005Z</time></trkpt><trkpt lat="45.59551855129505" lon="10.143609430603158"><ele>174.14285714285714</ele><time>2026-04-23T15:15:09.005Z</time></trkpt><trkpt lat="45.59551392411036" lon="10.143727339545311"><ele>175.0</ele><time>2026-04-23T15:15:12.005Z</time></trkpt><trkpt lat="45.595486067820076" lon="10.143832465676779"><ele>175.0</ele><time>2026-04-23T15:15:15.005Z</time></trkpt><trkpt lat="45.595463151497746" lon="10.143941389619886"><ele>175.0</ele><time>2026-04-23T15:15:18.005Z</time></trkpt><trkpt lat="45.595441664945625" lon="10.144056027770334"><ele>175.0</ele><time>2026-04-23T15:15:21.005Z</time></trkpt><trkpt lat="45.59540925161081" lon="10.144166087086901"><ele>175.0</ele><time>2026-04-23T15:15:24.005Z</time></trkpt><trkpt lat="45.595383302071035" lon="10.144251381973621"><ele>175.0</ele><time>2026-04-23T15:15:26.005Z</time></trkpt><trkpt lat="45.59535009522181" lon="10.144365158281984"><ele>175.0</ele><time>2026-04-23T15:15:29.005Z</time></trkpt><trkpt lat="45.595325604855546" lon="10.144476270032888"><ele>174.5</ele><time>2026-04-23T15:15:32.005Z</time></trkpt><trkpt lat="45.59530468708094" lon="10.144584552888825"><ele>174.0</ele><time>2026-04-23T15:15:35.006Z</time></trkpt><trkpt lat="45.59528259899605" lon="10.144694173672995"><ele>173.5</ele><time>2026-04-23T15:15:38.006Z</time></trkpt><trkpt lat="45.59526522381556" lon="10.144784916861486"><ele>173.0</ele><time>2026-04-23T15:15:41.006Z</time></trkpt><trkpt lat="45.59524873429969" lon="10.144896509142246"><ele>172.5</ele><time>2026-04-23T15:15:44.006Z</time></trkpt><trkpt lat="45.59523304815635" lon="10.145012746689398"><ele>172.0</ele><time>2026-04-23T15:15:47.006Z</time></trkpt><trkpt lat="45.595222971619094" lon="10.145118363217232"><ele>172.00000000000003</ele><time>2026-04-23T15:15:50.006Z</time></trkpt><trkpt lat="45.59521454384764" lon="10.145224473512233"><ele>172.0</ele><time>2026-04-23T15:15:53.006Z</time></trkpt><trkpt lat="45.59520804699377" lon="10.145331135015878"><ele>172.0</ele><time>2026-04-23T15:15:56.006Z</time></trkpt><trkpt lat="45.59519769404757" lon="10.145437235146638"><ele>172.0</ele><time>2026-04-23T15:15:59.006Z</time></trkpt><trkpt lat="45.595185949375185" lon="10.145538365031815"><ele>172.0</ele><time>2026-04-23T15:16:02.006Z</time></trkpt><trkpt lat="45.59519202534414" lon="10.145645193801112"><ele>172.00000000000003</ele><time>2026-04-23T15:16:05.006Z</time></trkpt><trkpt lat="45.595196267838716" lon="10.145740401996951"><ele>172.0</ele><time>2026-04-23T15:16:08.006Z</time></trkpt><trkpt lat="45.595193479500836" lon="10.145840584006642"><ele>172.57142857142858</ele><time>2026-04-23T15:16:11.006Z</time></trkpt><trkpt lat="45.595198598291546" lon="10.145938725044257"><ele>173.14285714285714</ele><time>2026-04-23T15:16:14.006Z</time></trkpt><trkpt lat="45.59519854638767" lon="10.14603341982128"><ele>173.71428571428572</ele><time>2026-04-23T15:16:17.006Z</time></trkpt><trkpt lat="45.59520121179164" lon="10.146138242893137"><ele>174.28571428571428</ele><time>2026-04-23T15:16:21.006Z</time></trkpt><trkpt lat="45.595204897054735" lon="10.146231143412704"><ele>174.85714285714286</ele><time>2026-04-23T15:16:24.006Z</time></trkpt><trkpt lat="45.595206773441724" lon="10.14634219085023"><ele>175.42857142857144</ele><time>2026-04-23T15:16:28.006Z</time></trkpt><trkpt lat="45.5952105160409" lon="10.146449353239795"><ele>176.0</ele><time>2026-04-23T15:16:31.006Z</time></trkpt><trkpt lat="45.59521454173656" lon="10.146554521944596"><ele>177.0</ele><time>2026-04-23T15:16:35.006Z</time></trkpt><trkpt lat="45.59522950850343" lon="10.14665372177949"><ele>178.0</ele><time>2026-04-23T15:16:39.006Z</time></trkpt><trkpt lat="45.59523688195969" lon="10.14677101309798"><ele>179.0</ele><time>2026-04-23T15:16:43.006Z</time></trkpt><trkpt lat="45.595252430024026" lon="10.146866085583445"><ele>180.0</ele><time>2026-04-23T15:16:46.007Z</time></trkpt><trkpt lat="45.59526173655796" lon="10.1469768382193"><ele>181.0</ele><time>2026-04-23T15:16:50.007Z</time></trkpt><trkpt lat="45.59527096971539" lon="10.147087426868968"><ele>182.0</ele><time>2026-04-23T15:16:53.007Z</time></trkpt><trkpt lat="45.59525562424413" lon="10.147196269428074"><ele>182.0</ele><time>2026-04-23T15:16:56.007Z</time></trkpt><trkpt lat="45.59518184980735" lon="10.147260240980904"><ele>182.0</ele><time>2026-04-23T15:17:00.007Z</time></trkpt><trkpt lat="45.59510038238499" lon="10.147282991545863"><ele>182.0</ele><time>2026-04-23T15:17:03.007Z</time></trkpt><trkpt lat="45.59502560816082" lon="10.147276581263545"><ele>182.0</ele><time>2026-04-23T15:17:06.007Z</time></trkpt><trkpt lat="45.594944546161976" lon="10.147279323706673"><ele>182.0</ele><time>2026-04-23T15:17:09.007Z</time></trkpt><trkpt lat="45.594870408743354" lon="10.147284471125566"><ele>182.0</ele><time>2026-04-23T15:17:12.007Z</time></trkpt><trkpt lat="45.594788600887625" lon="10.147296998139423"><ele>182.0</ele><time>2026-04-23T15:17:15.007Z</time></trkpt><trkpt lat="45.59470784337148" lon="10.147295920901989"><ele>182.0</ele><time>2026-04-23T15:17:18.007Z</time></trkpt><trkpt lat="45.59463639997662" lon="10.147281639754944"><ele>182.0</ele><time>2026-04-23T15:17:21.007Z</time></trkpt><trkpt lat="45.594567038618834" lon="10.147271654783241"><ele>182.0</ele><time>2026-04-23T15:17:24.007Z</time></trkpt><trkpt lat="45.59449350317766" lon="10.147268779361841"><ele>182.0</ele><time>2026-04-23T15:17:27.007Z</time></trkpt><trkpt lat="45.59443061535704" lon="10.14728007795788"><ele>182.0</ele><time>2026-04-23T15:17:30.007Z</time></trkpt><trkpt lat="45.59439648604823" lon="10.147356931572542"><ele>182.0</ele><time>2026-04-23T15:17:33.007Z</time></trkpt><trkpt lat="45.59439260879021" lon="10.147462654568521"><ele>183.28571428571428</ele><time>2026-04-23T15:17:36.007Z</time></trkpt><trkpt lat="45.5943819422185" lon="10.147559296280692"><ele>184.57142857142856</ele><time>2026-04-23T15:17:39.007Z</time></trkpt><trkpt lat="45.594376856365514" lon="10.147655002275947"><ele>185.85714285714286</ele><time>2026-04-23T15:17:42.007Z</time></trkpt><trkpt lat="45.59437097006972" lon="10.147759635827365"><ele>187.14285714285714</ele><time>2026-04-23T15:17:45.007Z</time></trkpt><trkpt lat="45.59436758709923" lon="10.147864228614221"><ele>188.42857142857142</ele><time>2026-04-23T15:17:48.007Z</time></trkpt><trkpt lat="45.594364719114196" lon="10.147963727537634"><ele>189.71428571428572</ele><time>2026-04-23T15:17:51.007Z</time></trkpt><trkpt lat="45.59435554390261" lon="10.148068861179533"><ele>191.0</ele><time>2026-04-23T15:17:54.007Z</time></trkpt><trkpt lat="45.59434918355057" lon="10.148178374001045"><ele>190.2857142857143</ele><time>2026-04-23T15:17:57.008Z</time></trkpt><trkpt lat="45.59434105222601" lon="10.148286135497347"><ele>189.57142857142856</ele><time>2026-04-23T15:18:00.008Z</time></trkpt><trkpt lat="45.59433598585877" lon="10.148391260363885"><ele>188.85714285714286</ele><time>2026-04-23T15:18:03.008Z</time></trkpt><trkpt lat="45.59432152048152" lon="10.148497428348856"><ele>188.14285714285717</ele><time>2026-04-23T15:18:06.008Z</time></trkpt><trkpt lat="45.5943219436414" lon="10.148616554989443"><ele>187.42857142857144</ele><time>2026-04-23T15:18:10.008Z</time></trkpt><trkpt lat="45.5943087973178" lon="10.148712201667378"><ele>186.71428571428572</ele><time>2026-04-23T15:18:13.008Z</time></trkpt><trkpt lat="45.59429978343065" lon="10.148805674345219"><ele>186.0</ele><time>2026-04-23T15:18:16.008Z</time></trkpt><trkpt lat="45.59428752092409" lon="10.148908729011701"><ele>186.00000000000003</ele><time>2026-04-23T15:18:19.008Z</time></trkpt><trkpt lat="45.59427711173798" lon="10.149004217364562"><ele>186.0</ele><time>2026-04-23T15:18:22.008Z</time></trkpt><trkpt lat="45.59425624933785" lon="10.149101393820713"><ele>186.0</ele><time>2026-04-23T15:18:25.008Z</time></trkpt><trkpt lat="45.59421243747797" lon="10.149179393452696"><ele>186.0</ele><time>2026-04-23T15:18:28.008Z</time></trkpt><trkpt lat="45.59416323837711" lon="10.149251856337758"><ele>186.0</ele><time>2026-04-23T15:18:31.008Z</time></trkpt><trkpt lat="45.5941194349781" lon="10.149324851164513"><ele>186.00000000000003</ele><time>2026-04-23T15:18:34.008Z</time></trkpt><trkpt lat="45.59407663906027" lon="10.149412814668478"><ele>186.0</ele><time>2026-04-23T15:18:37.008Z</time></trkpt><trkpt lat="45.59403751196838" lon="10.149511505879108"><ele>185.71428571428572</ele><time>2026-04-23T15:18:40.008Z</time></trkpt><trkpt lat="45.5940062013502" lon="10.149599018301979"><ele>185.42857142857144</ele><time>2026-04-23T15:18:43.008Z</time></trkpt><trkpt lat="45.59397564938938" lon="10.14968996449501"><ele>185.14285714285717</ele><time>2026-04-23T15:18:46.008Z</time></trkpt><trkpt lat="45.59396088902443" lon="10.149796064914767"><ele>184.85714285714286</ele><time>2026-04-23T15:18:49.008Z</time></trkpt><trkpt lat="45.59393092695772" lon="10.149877606289175"><ele>184.57142857142856</ele><time>2026-04-23T15:18:52.008Z</time></trkpt><trkpt lat="45.593901592324514" lon="10.149967501083205"><ele>184.2857142857143</ele><time>2026-04-23T15:18:55.008Z</time></trkpt><trkpt lat="45.59387888022857" lon="10.150054393859113"><ele>184.0</ele><time>2026-04-23T15:18:58.008Z</time></trkpt><trkpt lat="45.5938692479641" lon="10.150150548608558"><ele>183.71428571428572</ele><time>2026-04-23T15:19:01.008Z</time></trkpt><trkpt lat="45.59385438562224" lon="10.150253224683963"><ele>183.42857142857142</ele><time>2026-04-23T15:19:04.008Z</time></trkpt><trkpt lat="45.59383797822993" lon="10.150348231974727"><ele>183.14285714285714</ele><time>2026-04-23T15:19:07.008Z</time></trkpt><trkpt lat="45.59380978663107" lon="10.150436040617016"><ele>182.85714285714286</ele><time>2026-04-23T15:19:10.009Z</time></trkpt><trkpt lat="45.59379103890997" lon="10.150530356212835"><ele>182.57142857142856</ele><time>2026-04-23T15:19:13.009Z</time></trkpt><trkpt lat="45.59377350771169" lon="10.15064178124323"><ele>182.28571428571428</ele><time>2026-04-23T15:19:16.009Z</time></trkpt><trkpt lat="45.59375015927536" lon="10.150737014510261"><ele>182.0</ele><time>2026-04-23T15:19:19.009Z</time></trkpt><trkpt lat="45.59372039503418" lon="10.150830888352562"><ele>181.71428571428572</ele><time>2026-04-23T15:19:22.009Z</time></trkpt><trkpt lat="45.59369113426016" lon="10.150928133127097"><ele>181.42857142857144</ele><time>2026-04-23T15:19:25.009Z</time></trkpt><trkpt lat="45.593657549721215" lon="10.151016351854345"><ele>181.14285714285714</ele><time>2026-04-23T15:19:28.009Z</time></trkpt><trkpt lat="45.59363226088914" lon="10.151119111119455"><ele>180.85714285714286</ele><time>2026-04-23T15:19:31.009Z</time></trkpt><trkpt lat="45.59360517395596" lon="10.151215118834184"><ele>180.57142857142858</ele><time>2026-04-23T15:19:34.009Z</time></trkpt><trkpt lat="45.593592403514656" lon="10.151307932722391"><ele>180.28571428571428</ele><time>2026-04-23T15:19:37.009Z</time></trkpt><trkpt lat="45.593577887403825" lon="10.151410464983778"><ele>180.0</ele><time>2026-04-23T15:19:40.009Z</time></trkpt><trkpt lat="45.59357014392439" lon="10.151501752708278"><ele>180.0</ele><time>2026-04-23T15:19:43.009Z</time></trkpt><trkpt lat="45.59353645824855" lon="10.151606078850584"><ele>180.0</ele><time>2026-04-23T15:19:47.009Z</time></trkpt><trkpt lat="45.59348489985571" lon="10.151664900564974"><ele>180.0</ele><time>2026-04-23T15:19:50.009Z</time></trkpt><trkpt lat="45.59344580584686" lon="10.151736546501217"><ele>180.0</ele><time>2026-04-23T15:19:53.009Z</time></trkpt><trkpt lat="45.59341303839715" lon="10.151845145617543"><ele>180.0</ele><time>2026-04-23T15:19:56.009Z</time></trkpt><trkpt lat="45.593385036961884" lon="10.151932599627596"><ele>180.0</ele><time>2026-04-23T15:19:59.009Z</time></trkpt><trkpt lat="45.59333727485102" lon="10.152001084655245"><ele>180.0</ele><time>2026-04-23T15:20:03.009Z</time></trkpt><trkpt lat="45.593292774914424" lon="10.152072813422828"><ele>180.0</ele><time>2026-04-23T15:20:06.009Z</time></trkpt><trkpt lat="45.59324403717644" lon="10.152160975726629"><ele>180.0</ele><time>2026-04-23T15:20:09.009Z</time></trkpt><trkpt lat="45.59320489508862" lon="10.152248858864926"><ele>180.0</ele><time>2026-04-23T15:20:12.009Z</time></trkpt><trkpt lat="45.59314428548204" lon="10.15231407135357"><ele>180.0</ele><time>2026-04-23T15:20:15.009Z</time></trkpt><trkpt lat="45.59313175627843" lon="10.152408517239113"><ele>180.0</ele><time>2026-04-23T15:20:17.009Z</time></trkpt><trkpt lat="45.59309591016387" lon="10.152512868668014"><ele>180.0</ele><time>2026-04-23T15:20:21.009Z</time></trkpt><trkpt lat="45.59302965050206" lon="10.152550323650816"><ele>180.0</ele><time>2026-04-23T15:20:25.01Z</time></trkpt><trkpt lat="45.59296647349796" lon="10.152585148490353"><ele>180.14285714285714</ele><time>2026-04-23T15:20:28.01Z</time></trkpt><trkpt lat="45.592897807146876" lon="10.152599613347283"><ele>180.2857142857143</ele><time>2026-04-23T15:20:31.01Z</time></trkpt><trkpt lat="45.59283403399106" lon="10.152606964463649"><ele>180.42857142857144</ele><time>2026-04-23T15:20:34.01Z</time></trkpt><trkpt lat="45.59276782607865" lon="10.152605634571792"><ele>180.57142857142856</ele><time>2026-04-23T15:20:37.01Z</time></trkpt><trkpt lat="45.59270446312362" lon="10.152605421747744"><ele>180.71428571428572</ele><time>2026-04-23T15:20:40.01Z</time></trkpt><trkpt lat="45.59262648890519" lon="10.15257945555801"><ele>180.85714285714286</ele><time>2026-04-23T15:20:44.01Z</time></trkpt><trkpt lat="45.592543797868636" lon="10.152576026849479"><ele>181.0</ele><time>2026-04-23T15:20:48.01Z</time></trkpt><trkpt lat="45.59247993525909" lon="10.152577345093214"><ele>181.0</ele><time>2026-04-23T15:20:51.01Z</time></trkpt><trkpt lat="45.59241195727557" lon="10.152593462917649"><ele>181.0</ele><time>2026-04-23T15:20:54.01Z</time></trkpt><trkpt lat="45.5923573842632" lon="10.152532626388815"><ele>181.0</ele><time>2026-04-23T15:20:57.01Z</time></trkpt><trkpt lat="45.59234692123715" lon="10.152438671204575"><ele>181.0</ele><time>2026-04-23T15:21:00.01Z</time></trkpt><trkpt lat="45.5923118981312" lon="10.152360565325642"><ele>181.0</ele><time>2026-04-23T15:21:03.01Z</time></trkpt><trkpt lat="45.5922276026345" lon="10.152324714093464"><ele>181.0</ele><time>2026-04-23T15:21:06.01Z</time></trkpt><trkpt lat="45.592140011344824" lon="10.152304511154982"><ele>181.0</ele><time>2026-04-23T15:21:09.01Z</time></trkpt><trkpt lat="45.592066100867456" lon="10.152262318639913"><ele>182.0</ele><time>2026-04-23T15:21:12.01Z</time></trkpt><trkpt lat="45.59199807943673" lon="10.152207074544542"><ele>183.0</ele><time>2026-04-23T15:21:15.01Z</time></trkpt><trkpt lat="45.591924452209966" lon="10.152165549958696"><ele>184.0</ele><time>2026-04-23T15:21:18.01Z</time></trkpt><trkpt lat="45.59185237148322" lon="10.152107227262935"><ele>185.0</ele><time>2026-04-23T15:21:21.01Z</time></trkpt><trkpt lat="45.591774971996934" lon="10.15205313216109"><ele>186.0</ele><time>2026-04-23T15:21:24.01Z</time></trkpt><trkpt lat="45.59169961654636" lon="10.151993587851285"><ele>187.0</ele><time>2026-04-23T15:21:27.01Z</time></trkpt><trkpt lat="45.59161954124693" lon="10.151955727227866"><ele>187.0</ele><time>2026-04-23T15:21:30.01Z</time></trkpt><trkpt lat="45.59154977650253" lon="10.151936574331792"><ele>187.0</ele><time>2026-04-23T15:21:33.01Z</time></trkpt><trkpt lat="45.59148121348162" lon="10.151932815018855"><ele>187.0</ele><time>2026-04-23T15:21:36.011Z</time></trkpt><trkpt lat="45.591411010400044" lon="10.151959961177475"><ele>187.0</ele><time>2026-04-23T15:21:39.011Z</time></trkpt><trkpt lat="45.59134309730024" lon="10.151943378356478"><ele>187.0</ele><time>2026-04-23T15:21:42.011Z</time></trkpt><trkpt lat="45.591277323972314" lon="10.151894343645045"><ele>187.0</ele><time>2026-04-23T15:21:45.011Z</time></trkpt><trkpt lat="45.59120016605716" lon="10.151859420399894"><ele>187.0</ele><time>2026-04-23T15:21:48.011Z</time></trkpt><trkpt lat="45.5911330394088" lon="10.151842973457306"><ele>186.57142857142856</ele><time>2026-04-23T15:21:51.011Z</time></trkpt><trkpt lat="45.59105752778599" lon="10.151838665093315"><ele>186.14285714285717</ele><time>2026-04-23T15:21:54.011Z</time></trkpt><trkpt lat="45.59099626124525" lon="10.151792363489783"><ele>185.71428571428572</ele><time>2026-04-23T15:21:57.011Z</time></trkpt><trkpt lat="45.59093578597528" lon="10.151765263606748"><ele>185.28571428571428</ele><time>2026-04-23T15:22:00.011Z</time></trkpt><trkpt lat="45.59085719689329" lon="10.151752093011124"><ele>184.85714285714283</ele><time>2026-04-23T15:22:03.011Z</time></trkpt><trkpt lat="45.59078011997127" lon="10.151724134663606"><ele>184.42857142857144</ele><time>2026-04-23T15:22:06.011Z</time></trkpt><trkpt lat="45.59070490958173" lon="10.151689119832811"><ele>184.0</ele><time>2026-04-23T15:22:09.011Z</time></trkpt><trkpt lat="45.590634615061624" lon="10.151655771617035"><ele>184.0</ele><time>2026-04-23T15:22:12.011Z</time></trkpt><trkpt lat="45.59056337146329" lon="10.151613481446848"><ele>184.0</ele><time>2026-04-23T15:22:15.011Z</time></trkpt><trkpt lat="45.59048761049289" lon="10.151574582163693"><ele>184.0</ele><time>2026-04-23T15:22:18.011Z</time></trkpt><trkpt lat="45.590409967499866" lon="10.151529698199447"><ele>184.0</ele><time>2026-04-23T15:22:21.011Z</time></trkpt><trkpt lat="45.590345485824166" lon="10.151492408601232"><ele>184.0</ele><time>2026-04-23T15:22:24.011Z</time></trkpt><trkpt lat="45.59027969309664" lon="10.151448312812901"><ele>184.0</ele><time>2026-04-23T15:22:27.011Z</time></trkpt><trkpt lat="45.59021487036109" lon="10.151398056726128"><ele>183.71428571428572</ele><time>2026-04-23T15:22:30.011Z</time></trkpt><trkpt lat="45.590156902202686" lon="10.151346702579126"><ele>183.42857142857142</ele><time>2026-04-23T15:22:33.011Z</time></trkpt><trkpt lat="45.59011039001804" lon="10.151282597891397"><ele>183.14285714285714</ele><time>2026-04-23T15:22:36.011Z</time></trkpt><trkpt lat="45.590049396274615" lon="10.151229062513245"><ele>182.85714285714286</ele><time>2026-04-23T15:22:39.011Z</time></trkpt><trkpt lat="45.58999005975666" lon="10.151147309389879"><ele>182.57142857142856</ele><time>2026-04-23T15:22:43.011Z</time></trkpt><trkpt lat="45.58995077744571" lon="10.151076204646923"><ele>182.28571428571428</ele><time>2026-04-23T15:22:46.012Z</time></trkpt><trkpt lat="45.58990194569956" lon="10.151014960454852"><ele>182.0</ele><time>2026-04-23T15:22:49.012Z</time></trkpt><trkpt lat="45.58987040821214" lon="10.150930803933996"><ele>182.0</ele><time>2026-04-23T15:22:52.012Z</time></trkpt><trkpt lat="45.58985212974396" lon="10.150827966370466"><ele>182.0</ele><time>2026-04-23T15:22:55.012Z</time></trkpt><trkpt lat="45.58982663001037" lon="10.150738032988345"><ele>182.0</ele><time>2026-04-23T15:22:58.012Z</time></trkpt><trkpt lat="45.58974550743705" lon="10.150676287621899"><ele>182.0</ele><time>2026-04-23T15:23:01.012Z</time></trkpt><trkpt lat="45.58969198010703" lon="10.150622621872998"><ele>182.0</ele><time>2026-04-23T15:23:04.012Z</time></trkpt><trkpt lat="45.589625656464385" lon="10.150579145857579"><ele>182.0</ele><time>2026-04-23T15:23:07.012Z</time></trkpt><trkpt lat="45.58954400994774" lon="10.150575778562429"><ele>180.0</ele><time>2026-04-23T15:23:10.012Z</time></trkpt><trkpt lat="45.58949109531025" lon="10.150641130298899"><ele>178.0</ele><time>2026-04-23T15:23:12.012Z</time></trkpt><trkpt lat="45.58944631548289" lon="10.150717634386059"><ele>176.0</ele><time>2026-04-23T15:23:14.012Z</time></trkpt><trkpt lat="45.58938828923371" lon="10.150789056310076"><ele>174.0</ele><time>2026-04-23T15:23:17.012Z</time></trkpt><trkpt lat="45.58934316172637" lon="10.150875904423968"><ele>172.0</ele><time>2026-04-23T15:23:20.012Z</time></trkpt><trkpt lat="45.589298739163674" lon="10.150942150303255"><ele>170.0</ele><time>2026-04-23T15:23:23.012Z</time></trkpt><trkpt lat="45.58924923718089" lon="10.151022471986769"><ele>168.0</ele><time>2026-04-23T15:23:26.012Z</time></trkpt><trkpt lat="45.58918895354535" lon="10.15107700472773"><ele>168.0</ele><time>2026-04-23T15:23:29.012Z</time></trkpt><trkpt lat="45.58912474341396" lon="10.151124204480102"><ele>168.0</ele><time>2026-04-23T15:23:32.012Z</time></trkpt><trkpt lat="45.58909041709094" lon="10.151201646870126"><ele>168.0</ele><time>2026-04-23T15:23:35.012Z</time></trkpt><trkpt lat="45.58907131518763" lon="10.15130898553428"><ele>168.0</ele><time>2026-04-23T15:23:38.012Z</time></trkpt><trkpt lat="45.58904646412175" lon="10.15140594169045"><ele>168.0</ele><time>2026-04-23T15:23:41.012Z</time></trkpt><trkpt lat="45.589027317719484" lon="10.151495454788474"><ele>168.0</ele><time>2026-04-23T15:23:44.012Z</time></trkpt><trkpt lat="45.588997541733995" lon="10.151580362866554"><ele>168.0</ele><time>2026-04-23T15:23:47.012Z</time></trkpt><trkpt lat="45.58891609941623" lon="10.151618793604317"><ele>168.14285714285714</ele><time>2026-04-23T15:23:50.012Z</time></trkpt><trkpt lat="45.58884899838538" lon="10.151662919322035"><ele>168.28571428571428</ele><time>2026-04-23T15:23:53.012Z</time></trkpt><trkpt lat="45.588782997488174" lon="10.151681201619764"><ele>168.42857142857144</ele><time>2026-04-23T15:23:56.012Z</time></trkpt><trkpt lat="45.588719709980076" lon="10.15167543441377"><ele>168.57142857142856</ele><time>2026-04-23T15:23:59.013Z</time></trkpt><trkpt lat="45.58863254779297" lon="10.1516517660644"><ele>168.71428571428572</ele><time>2026-04-23T15:24:03.013Z</time></trkpt><trkpt lat="45.58855905654403" lon="10.15163912012385"><ele>168.85714285714286</ele><time>2026-04-23T15:24:06.013Z</time></trkpt><trkpt lat="45.58848566331709" lon="10.151626882057538"><ele>169.0</ele><time>2026-04-23T15:24:09.013Z</time></trkpt><trkpt lat="45.58842764912331" lon="10.151591657118994"><ele>168.57142857142858</ele><time>2026-04-23T15:24:12.013Z</time></trkpt><trkpt lat="45.5883672340545" lon="10.151566307883131"><ele>168.14285714285714</ele><time>2026-04-23T15:24:15.013Z</time></trkpt><trkpt lat="45.58829443203776" lon="10.15154161333467"><ele>167.71428571428572</ele><time>2026-04-23T15:24:18.013Z</time></trkpt><trkpt lat="45.58822075460615" lon="10.151546967685443"><ele>167.28571428571428</ele><time>2026-04-23T15:24:21.013Z</time></trkpt><trkpt lat="45.58815777653362" lon="10.151596886589331"><ele>166.85714285714286</ele><time>2026-04-23T15:24:23.013Z</time></trkpt><trkpt lat="45.58809504390884" lon="10.151650191353909"><ele>166.42857142857142</ele><time>2026-04-23T15:24:25.013Z</time></trkpt><trkpt lat="45.58802586983296" lon="10.151690225370741"><ele>166.0</ele><time>2026-04-23T15:24:28.013Z</time></trkpt><trkpt lat="45.58795910765967" lon="10.151731318035958"><ele>166.0</ele><time>2026-04-23T15:24:31.013Z</time></trkpt><trkpt lat="45.58788733929379" lon="10.151749086950037"><ele>166.0</ele><time>2026-04-23T15:24:34.013Z</time></trkpt><trkpt lat="45.58781688993031" lon="10.151771373255587"><ele>166.0</ele><time>2026-04-23T15:24:37.013Z</time></trkpt><trkpt lat="45.58774621408552" lon="10.15177925934454"><ele>166.0</ele><time>2026-04-23T15:24:40.013Z</time></trkpt><trkpt lat="45.58766513455772" lon="10.151779907636676"><ele>166.0</ele><time>2026-04-23T15:24:43.013Z</time></trkpt><trkpt lat="45.58759065561174" lon="10.15176163722526"><ele>166.0</ele><time>2026-04-23T15:24:46.013Z</time></trkpt><trkpt lat="45.58752262749452" lon="10.151753955380556"><ele>166.0</ele><time>2026-04-23T15:24:49.013Z</time></trkpt><trkpt lat="45.587459214359605" lon="10.15171648886019"><ele>166.0</ele><time>2026-04-23T15:24:52.013Z</time></trkpt><trkpt lat="45.58740366071371" lon="10.151672402162236"><ele>166.0</ele><time>2026-04-23T15:24:55.013Z</time></trkpt><trkpt lat="45.58733746525932" lon="10.151627751062806"><ele>166.0</ele><time>2026-04-23T15:24:58.013Z</time></trkpt><trkpt lat="45.58726314008958" lon="10.15159732286238"><ele>166.0</ele><time>2026-04-23T15:25:01.013Z</time></trkpt><trkpt lat="45.587183029208234" lon="10.151600083883078"><ele>166.0</ele><time>2026-04-23T15:25:04.013Z</time></trkpt><trkpt lat="45.58710403074284" lon="10.151608547927435"><ele>166.0</ele><time>2026-04-23T15:25:07.013Z</time></trkpt><trkpt lat="45.587021599581924" lon="10.151607754753561"><ele>165.7142857142857</ele><time>2026-04-23T15:25:10.013Z</time></trkpt><trkpt lat="45.58694561131456" lon="10.151604433912242"><ele>165.42857142857144</ele><time>2026-04-23T15:25:13.014Z</time></trkpt><trkpt lat="45.58687275744181" lon="10.151621931074896"><ele>165.14285714285714</ele><time>2026-04-23T15:25:16.014Z</time></trkpt><trkpt lat="45.58680610763792" lon="10.151634288039872"><ele>164.85714285714283</ele><time>2026-04-23T15:25:19.014Z</time></trkpt><trkpt lat="45.586743204796115" lon="10.151620713461945"><ele>164.57142857142856</ele><time>2026-04-23T15:25:22.014Z</time></trkpt><trkpt lat="45.58667531389733" lon="10.151623228415001"><ele>164.28571428571428</ele><time>2026-04-23T15:25:25.014Z</time></trkpt><trkpt lat="45.58660369356133" lon="10.151663440102428"><ele>164.0</ele><time>2026-04-23T15:25:28.014Z</time></trkpt><trkpt lat="45.586531372759595" lon="10.151732502434204"><ele>164.0</ele><time>2026-04-23T15:25:31.014Z</time></trkpt><trkpt lat="45.58645311279064" lon="10.151755435695565"><ele>164.0</ele><time>2026-04-23T15:25:34.014Z</time></trkpt><trkpt lat="45.586381816192336" lon="10.151782778467757"><ele>164.0</ele><time>2026-04-23T15:25:37.014Z</time></trkpt><trkpt lat="45.586310194250956" lon="10.151773312331606"><ele>164.0</ele><time>2026-04-23T15:25:40.014Z</time></trkpt><trkpt lat="45.58624514458049" lon="10.151749216477263"><ele>164.0</ele><time>2026-04-23T15:25:43.014Z</time></trkpt><trkpt lat="45.58616688998514" lon="10.151747933772176"><ele>164.0</ele><time>2026-04-23T15:25:46.014Z</time></trkpt><trkpt lat="45.586083858557295" lon="10.15176575599812"><ele>163.5</ele><time>2026-04-23T15:25:49.014Z</time></trkpt><trkpt lat="45.58600341963768" lon="10.151763422450376"><ele>163.0</ele><time>2026-04-23T15:25:52.014Z</time></trkpt><trkpt lat="45.58592531515114" lon="10.151749915333637"><ele>162.5</ele><time>2026-04-23T15:25:55.014Z</time></trkpt><trkpt lat="45.58586178116239" lon="10.151721020303595"><ele>162.0</ele><time>2026-04-23T15:25:58.014Z</time></trkpt><trkpt lat="45.58580144667589" lon="10.151673204620725"><ele>161.5</ele><time>2026-04-23T15:26:01.014Z</time></trkpt><trkpt lat="45.585734163989095" lon="10.151598460131375"><ele>161.0</ele><time>2026-04-23T15:26:04.014Z</time></trkpt><trkpt lat="45.58567228178802" lon="10.151536282967774"><ele>160.66666666666666</ele><time>2026-04-23T15:26:07.014Z</time></trkpt><trkpt lat="45.585585968284036" lon="10.151506427000879"><ele>160.33333333333331</ele><time>2026-04-23T15:26:10.014Z</time></trkpt><trkpt lat="45.585519411567184" lon="10.151464773286692"><ele>160.0</ele><time>2026-04-23T15:26:13.014Z</time></trkpt><trkpt lat="45.585440838477005" lon="10.151445246954781"><ele>159.66666666666666</ele><time>2026-04-23T15:26:16.014Z</time></trkpt><trkpt lat="45.585367885286345" lon="10.151426429168097"><ele>159.33333333333334</ele><time>2026-04-23T15:26:19.014Z</time></trkpt><trkpt lat="45.58530258639645" lon="10.15139988039449"><ele>159.0</ele><time>2026-04-23T15:26:22.014Z</time></trkpt><trkpt lat="45.58523309509965" lon="10.151374866015017"><ele>158.7142857142857</ele><time>2026-04-23T15:26:25.015Z</time></trkpt><trkpt lat="45.585164280592956" lon="10.151373335659008"><ele>158.42857142857144</ele><time>2026-04-23T15:26:28.015Z</time></trkpt><trkpt lat="45.58509464437252" lon="10.151365358545103"><ele>158.14285714285714</ele><time>2026-04-23T15:26:31.015Z</time></trkpt><trkpt lat="45.58502837563841" lon="10.151387107035832"><ele>157.85714285714283</ele><time>2026-04-23T15:26:34.015Z</time></trkpt><trkpt lat="45.58494522028687" lon="10.151387436192545"><ele>157.57142857142856</ele><time>2026-04-23T15:26:38.015Z</time></trkpt><trkpt lat="45.58486077237163" lon="10.15140548503407"><ele>157.28571428571428</ele><time>2026-04-23T15:26:42.015Z</time></trkpt><trkpt lat="45.58479270122761" lon="10.151444012179278"><ele>157.0</ele><time>2026-04-23T15:26:45.015Z</time></trkpt><trkpt lat="45.58472732148323" lon="10.151464384526712"><ele>156.99999999999997</ele><time>2026-04-23T15:26:48.015Z</time></trkpt><trkpt lat="45.58466019350734" lon="10.15148950473689"><ele>157.0</ele><time>2026-04-23T15:26:51.015Z</time></trkpt><trkpt lat="45.58459347594949" lon="10.151518717450205"><ele>157.0</ele><time>2026-04-23T15:26:54.015Z</time></trkpt><trkpt lat="45.584516515297025" lon="10.15156697227866"><ele>157.0</ele><time>2026-04-23T15:26:58.015Z</time></trkpt><trkpt lat="45.584449631207065" lon="10.151627979119834"><ele>157.0</ele><time>2026-04-23T15:27:01.015Z</time></trkpt><trkpt lat="45.58438070300914" lon="10.151632234390972"><ele>156.99999999999997</ele><time>2026-04-23T15:27:04.015Z</time></trkpt><trkpt lat="45.584317331702984" lon="10.1516201053092"><ele>157.0</ele><time>2026-04-23T15:27:07.015Z</time></trkpt><trkpt lat="45.58425351351222" lon="10.151631946889726"><ele>156.83333333333334</ele><time>2026-04-23T15:27:10.015Z</time></trkpt><trkpt lat="45.58418996928093" lon="10.151734362912928"><ele>156.66666666666669</ele><time>2026-04-23T15:27:13.015Z</time></trkpt><trkpt lat="45.58414232110916" lon="10.151854763837681"><ele>156.5</ele><time>2026-04-23T15:27:15.015Z</time></trkpt><trkpt lat="45.58409116359385" lon="10.151912156962709"><ele>156.33333333333334</ele><time>2026-04-23T15:27:17.015Z</time></trkpt><trkpt lat="45.58402520183153" lon="10.151912788671627"><ele>156.16666666666666</ele><time>2026-04-23T15:27:20.015Z</time></trkpt><trkpt lat="45.5839517480121" lon="10.151880487894672"><ele>156.0</ele><time>2026-04-23T15:27:23.015Z</time></trkpt><trkpt lat="45.58388930353977" lon="10.151839023539159"><ele>156.0</ele><time>2026-04-23T15:27:26.015Z</time></trkpt><trkpt lat="45.58381697835301" lon="10.151806010690612"><ele>156.0</ele><time>2026-04-23T15:27:29.015Z</time></trkpt><trkpt lat="45.58374395872642" lon="10.151794843481843"><ele>156.0</ele><time>2026-04-23T15:27:32.015Z</time></trkpt><trkpt lat="45.58367282189253" lon="10.151774695061322"><ele>156.0</ele><time>2026-04-23T15:27:35.016Z</time></trkpt><trkpt lat="45.583599841537385" lon="10.151776534439083"><ele>156.0</ele><time>2026-04-23T15:27:38.016Z</time></trkpt><trkpt lat="45.58351393819027" lon="10.151780247096532"><ele>156.0</ele><time>2026-04-23T15:27:41.016Z</time></trkpt><trkpt lat="45.58344457478475" lon="10.151763970158967"><ele>156.0</ele><time>2026-04-23T15:27:44.016Z</time></trkpt><trkpt lat="45.58337770050168" lon="10.151739596883099"><ele>156.0</ele><time>2026-04-23T15:27:47.016Z</time></trkpt><trkpt lat="45.58331386742576" lon="10.151708345339385"><ele>156.0</ele><time>2026-04-23T15:27:50.016Z</time></trkpt><trkpt lat="45.5832431360593" lon="10.151693998438338"><ele>156.0</ele><time>2026-04-23T15:27:53.016Z</time></trkpt><trkpt lat="45.58318035126074" lon="10.151640935128192"><ele>156.0</ele><time>2026-04-23T15:27:56.016Z</time></trkpt><trkpt lat="45.58311247224461" lon="10.151592426086163"><ele>156.0</ele><time>2026-04-23T15:27:59.016Z</time></trkpt><trkpt lat="45.58304895136234" lon="10.151534203236084"><ele>156.0</ele><time>2026-04-23T15:28:02.016Z</time></trkpt><trkpt lat="45.582984816477015" lon="10.15150198346495"><ele>155.71428571428572</ele><time>2026-04-23T15:28:05.016Z</time></trkpt><trkpt lat="45.582915850073185" lon="10.151467784142413"><ele>155.42857142857142</ele><time>2026-04-23T15:28:08.016Z</time></trkpt><trkpt lat="45.58285256518248" lon="10.151443402437945"><ele>155.14285714285714</ele><time>2026-04-23T15:28:11.016Z</time></trkpt><trkpt lat="45.58278697646299" lon="10.151406880815918"><ele>154.85714285714286</ele><time>2026-04-23T15:28:14.016Z</time></trkpt><trkpt lat="45.58272233423621" lon="10.151376157536818"><ele>154.57142857142856</ele><time>2026-04-23T15:28:17.016Z</time></trkpt><trkpt lat="45.582659609207504" lon="10.151327478362688"><ele>154.28571428571428</ele><time>2026-04-23T15:28:20.016Z</time></trkpt><trkpt lat="45.58259313167104" lon="10.151255799197743"><ele>154.0</ele><time>2026-04-23T15:28:24.016Z</time></trkpt><trkpt lat="45.582531790540706" lon="10.151199041768761"><ele>153.85714285714286</ele><time>2026-04-23T15:28:27.016Z</time></trkpt><trkpt lat="45.582477954629255" lon="10.15113775912537"><ele>153.71428571428572</ele><time>2026-04-23T15:28:29.996Z</time></trkpt><trkpt lat="45.582424148567235" lon="10.151082554832813"><ele>153.57142857142856</ele><time>2026-04-23T15:28:32.996Z</time></trkpt><trkpt lat="45.58235587330103" lon="10.151000585233003"><ele>153.42857142857144</ele><time>2026-04-23T15:28:36.996Z</time></trkpt><trkpt lat="45.582304350325444" lon="10.150939818788974"><ele>153.28571428571428</ele><time>2026-04-23T15:28:39.996Z</time></trkpt><trkpt lat="45.58224995692336" lon="10.150881774445102"><ele>153.14285714285714</ele><time>2026-04-23T15:28:42.996Z</time></trkpt><trkpt lat="45.58219387014451" lon="10.150821279241047"><ele>153.0</ele><time>2026-04-23T15:28:45.996Z</time></trkpt><trkpt lat="45.58214282055144" lon="10.150756591358295"><ele>152.85714285714286</ele><time>2026-04-23T15:28:48.996Z</time></trkpt><trkpt lat="45.58209560728805" lon="10.150686507894273"><ele>152.71428571428572</ele><time>2026-04-23T15:28:51.996Z</time></trkpt><trkpt lat="45.58204774543023" lon="10.150612254367001"><ele>152.57142857142856</ele><time>2026-04-23T15:28:54.996Z</time></trkpt><trkpt lat="45.58198973966371" lon="10.150518901027251"><ele>152.42857142857144</ele><time>2026-04-23T15:28:58.996Z</time></trkpt><trkpt lat="45.5819385922376" lon="10.15045382543182"><ele>152.2857142857143</ele><time>2026-04-23T15:29:01.996Z</time></trkpt><trkpt lat="45.58188302727615" lon="10.150392956568567"><ele>152.14285714285714</ele><time>2026-04-23T15:29:04.996Z</time></trkpt><trkpt lat="45.581834290443396" lon="10.150329660683559"><ele>152.0</ele><time>2026-04-23T15:29:07.996Z</time></trkpt><trkpt lat="45.58179281370896" lon="10.15025607501524"><ele>151.42857142857142</ele><time>2026-04-23T15:29:10.996Z</time></trkpt><trkpt lat="45.581807707998266" lon="10.150164208204936"><ele>150.85714285714286</ele><time>2026-04-23T15:29:13.996Z</time></trkpt><trkpt lat="45.58181479387579" lon="10.150068864268976"><ele>150.28571428571428</ele><time>2026-04-23T15:29:16.994Z</time></trkpt><trkpt lat="45.5818138727279" lon="10.149967918395788"><ele>149.71428571428572</ele><time>2026-04-23T15:29:19.994Z</time></trkpt><trkpt lat="45.58181184625642" lon="10.149868108106912"><ele>149.14285714285714</ele><time>2026-04-23T15:29:22.993Z</time></trkpt><trkpt lat="45.58180653898517" lon="10.149748119042748"><ele>148.57142857142858</ele><time>2026-04-23T15:29:26.992Z</time></trkpt><trkpt lat="45.581806053769235" lon="10.149653403748115"><ele>148.0</ele><time>2026-04-23T15:29:29.99Z</time></trkpt><trkpt lat="45.581803061357725" lon="10.149548294259128"><ele>147.85714285714286</ele><time>2026-04-23T15:29:32.989Z</time></trkpt><trkpt lat="45.58180555769067" lon="10.14943415304656"><ele>147.71428571428572</ele><time>2026-04-23T15:29:35.988Z</time></trkpt><trkpt lat="45.58180488524496" lon="10.14931948202654"><ele>147.57142857142856</ele><time>2026-04-23T15:29:38.988Z</time></trkpt><trkpt lat="45.58179910462968" lon="10.149213258393429"><ele>147.42857142857144</ele><time>2026-04-23T15:29:41.987Z</time></trkpt><trkpt lat="45.5818028294948" lon="10.149116287730878"><ele>147.28571428571428</ele><time>2026-04-23T15:29:44.987Z</time></trkpt><trkpt lat="45.581801600109834" lon="10.149017962793293"><ele>147.14285714285714</ele><time>2026-04-23T15:29:47.987Z</time></trkpt><trkpt lat="45.58179402455602" lon="10.148921382618568"><ele>147.0</ele><time>2026-04-23T15:29:50.986Z</time></trkpt><trkpt lat="45.58179577827807" lon="10.1488184671702"><ele>146.85714285714286</ele><time>2026-04-23T15:29:54.986Z</time></trkpt><trkpt lat="45.581807863487185" lon="10.148705032281626"><ele>146.71428571428572</ele><time>2026-04-23T15:29:58.986Z</time></trkpt><trkpt lat="45.58180274588508" lon="10.148607134404381"><ele>146.57142857142856</ele><time>2026-04-23T15:30:02.986Z</time></trkpt><trkpt lat="45.58180936367439" lon="10.148505149321533"><ele>146.42857142857144</ele><time>2026-04-23T15:30:06.985Z</time></trkpt><trkpt lat="45.58181041815158" lon="10.148399774441128"><ele>146.28571428571428</ele><time>2026-04-23T15:30:11.985Z</time></trkpt><trkpt lat="45.58181888003297" lon="10.14830049822485"><ele>146.14285714285714</ele><time>2026-04-23T15:30:18.985Z</time></trkpt><trkpt lat="45.581809448935346" lon="10.14821112264558"><ele>146.0</ele><time>2026-04-23T15:30:24.985Z</time></trkpt><trkpt lat="45.58180837057006" lon="10.148115375602469"><ele>146.0</ele><time>2026-04-23T15:30:30.985Z</time></trkpt><trkpt lat="45.58180859624527" lon="10.148020262022872"><ele>146.0</ele><time>2026-04-23T15:30:35.985Z</time></trkpt><trkpt lat="45.58181809315629" lon="10.147925552598997"><ele>146.0</ele><time>2026-04-23T15:30:41.985Z</time></trkpt><trkpt lat="45.581833821945565" lon="10.147826335913841"><ele>146.0</ele><time>2026-04-23T15:30:47.985Z</time></trkpt><trkpt lat="45.58184267433918" lon="10.147726372036574"><ele>146.0</ele><time>2026-04-23T15:30:53.985Z</time></trkpt><trkpt lat="45.581862534644046" lon="10.147624887684625"><ele>146.0</ele><time>2026-04-23T15:30:59.985Z</time></trkpt><trkpt lat="45.58188107803586" lon="10.147527954819951"><ele>146.0</ele><time>2026-04-23T15:31:04.985Z</time></trkpt><trkpt lat="45.58189525991554" lon="10.147423711692037"><ele>146.0</ele><time>2026-04-23T15:31:09.985Z</time></trkpt><trkpt lat="45.581911821123924" lon="10.147335907246275"><ele>146.0</ele><time>2026-04-23T15:31:13.985Z</time></trkpt><trkpt lat="45.58197487773156" lon="10.1472961584615"><ele>146.0</ele><time>2026-04-23T15:31:19.985Z</time></trkpt><trkpt lat="45.582045885724234" lon="10.147306676542502"><ele>146.0</ele><time>2026-04-23T15:31:24.983Z</time></trkpt><trkpt lat="45.582119467075984" lon="10.147318003458325"><ele>146.0</ele><time>2026-04-23T15:31:28.983Z</time></trkpt><trkpt lat="45.58218498907605" lon="10.147319599705925"><ele>146.0</ele><time>2026-04-23T15:31:31.982Z</time></trkpt><trkpt lat="45.582249981258656" lon="10.147234808108214"><ele>146.0</ele><time>2026-04-23T15:31:34.983Z</time></trkpt><trkpt lat="45.58226668459338" lon="10.147117799411301"><ele>146.0</ele><time>2026-04-23T15:31:37.983Z</time></trkpt><trkpt lat="45.582280886288636" lon="10.14701497768385"><ele>146.0</ele><time>2026-04-23T15:31:40.983Z</time></trkpt><trkpt lat="45.582298092739435" lon="10.14690767377623"><ele>146.0</ele><time>2026-04-23T15:31:43.983Z</time></trkpt><trkpt lat="45.58229944921691" lon="10.146794009686532"><ele>146.0</ele><time>2026-04-23T15:31:46.983Z</time></trkpt><trkpt lat="45.58230335135407" lon="10.14670158279426"><ele>146.0</ele><time>2026-04-23T15:31:48.983Z</time></trkpt><trkpt lat="45.58228548150814" lon="10.146588580342428"><ele>146.0</ele><time>2026-04-23T15:31:51.983Z</time></trkpt><trkpt lat="45.58228204212944" lon="10.146463453842356"><ele>146.16666666666666</ele><time>2026-04-23T15:31:54.983Z</time></trkpt><trkpt lat="45.58229439578568" lon="10.146330883821635"><ele>146.33333333333331</ele><time>2026-04-23T15:31:57.983Z</time></trkpt><trkpt lat="45.582288023517755" lon="10.146240542013771"><ele>146.5</ele><time>2026-04-23T15:31:59.983Z</time></trkpt><trkpt lat="45.58227475715725" lon="10.146119995022973"><ele>146.66666666666666</ele><time>2026-04-23T15:32:02.983Z</time></trkpt><trkpt lat="45.58228807890255" lon="10.145984735281248"><ele>146.83333333333334</ele><time>2026-04-23T15:32:05.983Z</time></trkpt><trkpt lat="45.58227939368076" lon="10.145892321462222"><ele>147.0</ele><time>2026-04-23T15:32:07.983Z</time></trkpt><trkpt lat="45.58224793333113" lon="10.14580202903279"><ele>147.0</ele><time>2026-04-23T15:32:09.983Z</time></trkpt><trkpt lat="45.58220824601113" lon="10.145728572665982"><ele>147.0</ele><time>2026-04-23T15:32:11.983Z</time></trkpt><trkpt lat="45.58214112746079" lon="10.145635271034175"><ele>147.0</ele><time>2026-04-23T15:32:14.983Z</time></trkpt><trkpt lat="45.58206864285178" lon="10.145553485171009"><ele>147.0</ele><time>2026-04-23T15:32:17.983Z</time></trkpt><trkpt lat="45.58202277051368" lon="10.145458335766241"><ele>147.0</ele><time>2026-04-23T15:32:20.983Z</time></trkpt><trkpt lat="45.58203791617416" lon="10.14535688842889"><ele>147.0</ele><time>2026-04-23T15:32:23.983Z</time></trkpt><trkpt lat="45.58209020817145" lon="10.145260854173486"><ele>147.16666666666666</ele><time>2026-04-23T15:32:26.983Z</time></trkpt><trkpt lat="45.58208272796197" lon="10.145139780328964"><ele>147.33333333333334</ele><time>2026-04-23T15:32:29.983Z</time></trkpt><trkpt lat="45.582072420274656" lon="10.145028233822813"><ele>147.5</ele><time>2026-04-23T15:32:32.983Z</time></trkpt><trkpt lat="45.58206222177794" lon="10.144916773303155"><ele>147.66666666666669</ele><time>2026-04-23T15:32:35.983Z</time></trkpt><trkpt lat="45.582052954624274" lon="10.144808179513685"><ele>147.83333333333334</ele><time>2026-04-23T15:32:38.984Z</time></trkpt><trkpt lat="45.58203812820308" lon="10.1446902393924"><ele>148.0</ele><time>2026-04-23T15:32:41.984Z</time></trkpt><trkpt lat="45.58203174550033" lon="10.144589650764535"><ele>147.5</ele><time>2026-04-23T15:32:44.984Z</time></trkpt><trkpt lat="45.58202827446677" lon="10.144465618976774"><ele>147.0</ele><time>2026-04-23T15:32:48.984Z</time></trkpt><trkpt lat="45.582021270743894" lon="10.144369411171565"><ele>146.5</ele><time>2026-04-23T15:32:50.984Z</time></trkpt><trkpt lat="45.582021877280624" lon="10.144277486167667"><ele>146.0</ele><time>2026-04-23T15:32:52.984Z</time></trkpt><trkpt lat="45.58201732764321" lon="10.144177857238097"><ele>145.5</ele><time>2026-04-23T15:32:54.984Z</time></trkpt><trkpt lat="45.582019359993986" lon="10.144074800568607"><ele>145.0</ele><time>2026-04-23T15:32:56.984Z</time></trkpt><trkpt lat="45.58204023045351" lon="10.143931120808348"><ele>144.85714285714286</ele><time>2026-04-23T15:32:59.984Z</time></trkpt><trkpt lat="45.5820498950504" lon="10.143824730567413"><ele>144.71428571428572</ele><time>2026-04-23T15:33:01.984Z</time></trkpt><trkpt lat="45.58206112204995" lon="10.143733253156483"><ele>144.57142857142858</ele><time>2026-04-23T15:33:03.984Z</time></trkpt><trkpt lat="45.58207175407382" lon="10.143631963533913"><ele>144.42857142857144</ele><time>2026-04-23T15:33:05.984Z</time></trkpt><trkpt lat="45.58207209132936" lon="10.143524490886985"><ele>144.28571428571428</ele><time>2026-04-23T15:33:07.984Z</time></trkpt><trkpt lat="45.5820824072108" lon="10.143421840628088"><ele>144.14285714285717</ele><time>2026-04-23T15:33:09.984Z</time></trkpt><trkpt lat="45.5820914428467" lon="10.143327778076388"><ele>144.0</ele><time>2026-04-23T15:33:11.984Z</time></trkpt><trkpt lat="45.582096597682586" lon="10.143228516106081"><ele>144.33333333333334</ele><time>2026-04-23T15:33:13.984Z</time></trkpt><trkpt lat="45.58209899205277" lon="10.143137049907214"><ele>144.66666666666666</ele><time>2026-04-23T15:33:15.984Z</time></trkpt><trkpt lat="45.582110392484" lon="10.143047717217279"><ele>145.0</ele><time>2026-04-23T15:33:17.984Z</time></trkpt><trkpt lat="45.582119153117986" lon="10.14291545572621"><ele>145.33333333333331</ele><time>2026-04-23T15:33:20.984Z</time></trkpt><trkpt lat="45.582140036018686" lon="10.142785646194461"><ele>145.66666666666666</ele><time>2026-04-23T15:33:23.984Z</time></trkpt><trkpt lat="45.5821516351109" lon="10.142694282605595"><ele>146.0</ele><time>2026-04-23T15:33:25.984Z</time></trkpt><trkpt lat="45.582158108386004" lon="10.142568389741543"><ele>146.0</ele><time>2026-04-23T15:33:28.981Z</time></trkpt><trkpt lat="45.58217180360628" lon="10.142441115944516"><ele>146.0</ele><time>2026-04-23T15:33:31.981Z</time></trkpt><trkpt lat="45.58218613227598" lon="10.142314381373028"><ele>146.0</ele><time>2026-04-23T15:33:34.981Z</time></trkpt><trkpt lat="45.582212338416376" lon="10.14219858817214"><ele>146.0</ele><time>2026-04-23T15:33:37.98Z</time></trkpt><trkpt lat="45.582230758668395" lon="10.14207944509155"><ele>146.0</ele><time>2026-04-23T15:33:40.981Z</time></trkpt><trkpt lat="45.58224096493218" lon="10.141959241569555"><ele>146.0</ele><time>2026-04-23T15:33:43.981Z</time></trkpt><trkpt lat="45.58223457581678" lon="10.14183045395993"><ele>146.14285714285714</ele><time>2026-04-23T15:33:46.981Z</time></trkpt><trkpt lat="45.582224238876286" lon="10.141733536639633"><ele>146.28571428571428</ele><time>2026-04-23T15:33:48.981Z</time></trkpt><trkpt lat="45.58221700782693" lon="10.141643984362338"><ele>146.42857142857144</ele><time>2026-04-23T15:33:50.981Z</time></trkpt><trkpt lat="45.58222007479811" lon="10.14151733449499"><ele>146.57142857142856</ele><time>2026-04-23T15:33:53.981Z</time></trkpt><trkpt lat="45.58221014929031" lon="10.141396800886683"><ele>146.71428571428572</ele><time>2026-04-23T15:33:56.981Z</time></trkpt><trkpt lat="45.58220778352874" lon="10.141305272106152"><ele>146.85714285714286</ele><time>2026-04-23T15:33:58.981Z</time></trkpt><trkpt lat="45.58220748976357" lon="10.14121073281452"><ele>147.0</ele><time>2026-04-23T15:34:00.981Z</time></trkpt><trkpt lat="45.58221223309884" lon="10.141117894892828"><ele>147.0</ele><time>2026-04-23T15:34:02.981Z</time></trkpt><trkpt lat="45.58221059447128" lon="10.141018148625667"><ele>147.0</ele><time>2026-04-23T15:34:04.981Z</time></trkpt><trkpt lat="45.5822260493913" lon="10.140905122578154"><ele>147.0</ele><time>2026-04-23T15:34:07.981Z</time></trkpt><trkpt lat="45.58223230360579" lon="10.140815124435942"><ele>147.0</ele><time>2026-04-23T15:34:09.981Z</time></trkpt><trkpt lat="45.58224972562393" lon="10.140689073621768"><ele>147.0</ele><time>2026-04-23T15:34:12.981Z</time></trkpt><trkpt lat="45.58227552408034" lon="10.140568264713048"><ele>147.0</ele><time>2026-04-23T15:34:15.981Z</time></trkpt><trkpt lat="45.58229106413182" lon="10.140435626317299"><ele>147.0</ele><time>2026-04-23T15:34:18.981Z</time></trkpt><trkpt lat="45.58230638185242" lon="10.140306690002431"><ele>147.0</ele><time>2026-04-23T15:34:21.981Z</time></trkpt><trkpt lat="45.58233497121666" lon="10.14019242650147"><ele>147.0</ele><time>2026-04-23T15:34:24.981Z</time></trkpt><trkpt lat="45.58236123480844" lon="10.14007787036454"><ele>147.0</ele><time>2026-04-23T15:34:27.981Z</time></trkpt><trkpt lat="45.582379661363746" lon="10.139953305706875"><ele>147.0</ele><time>2026-04-23T15:34:30.981Z</time></trkpt><trkpt lat="45.582411746535755" lon="10.139849356759516"><ele>147.0</ele><time>2026-04-23T15:34:33.981Z</time></trkpt><trkpt lat="45.58243412135499" lon="10.139724354037506"><ele>147.16666666666666</ele><time>2026-04-23T15:34:36.981Z</time></trkpt><trkpt lat="45.58246301779318" lon="10.139609620332578"><ele>147.33333333333334</ele><time>2026-04-23T15:34:39.981Z</time></trkpt><trkpt lat="45.5824773554871" lon="10.13949840753923"><ele>147.5</ele><time>2026-04-23T15:34:42.981Z</time></trkpt><trkpt lat="45.58249187796829" lon="10.139383523309716"><ele>147.66666666666669</ele><time>2026-04-23T15:34:45.981Z</time></trkpt><trkpt lat="45.58251723075847" lon="10.139278966559248"><ele>147.83333333333334</ele><time>2026-04-23T15:34:48.981Z</time></trkpt><trkpt lat="45.58255211111772" lon="10.139184742844785"><ele>148.0</ele><time>2026-04-23T15:34:51.981Z</time></trkpt><trkpt lat="45.58258293878279" lon="10.139095049851687"><ele>147.83333333333334</ele><time>2026-04-23T15:34:54.981Z</time></trkpt><trkpt lat="45.58260823923991" lon="10.138986777349267"><ele>147.66666666666669</ele><time>2026-04-23T15:34:57.981Z</time></trkpt><trkpt lat="45.58264475868084" lon="10.138877200253802"><ele>147.5</ele><time>2026-04-23T15:35:00.981Z</time></trkpt><trkpt lat="45.582691041158434" lon="10.138782484731927"><ele>147.33333333333334</ele><time>2026-04-23T15:35:03.981Z</time></trkpt><trkpt lat="45.58272891738156" lon="10.138671319515094"><ele>147.16666666666666</ele><time>2026-04-23T15:35:06.981Z</time></trkpt><trkpt lat="45.58277694586381" lon="10.138563707996779"><ele>147.0</ele><time>2026-04-23T15:35:09.981Z</time></trkpt><trkpt lat="45.5828369482512" lon="10.138462191564042"><ele>146.83333333333334</ele><time>2026-04-23T15:35:12.981Z</time></trkpt><trkpt lat="45.58288846524478" lon="10.138350536043763"><ele>146.66666666666666</ele><time>2026-04-23T15:35:15.981Z</time></trkpt><trkpt lat="45.582923030393864" lon="10.13827371491995"><ele>146.5</ele><time>2026-04-23T15:35:17.981Z</time></trkpt><trkpt lat="45.58296849000475" lon="10.138160161832166"><ele>146.33333333333331</ele><time>2026-04-23T15:35:20.981Z</time></trkpt><trkpt lat="45.583008837248585" lon="10.138082493867753"><ele>146.16666666666666</ele><time>2026-04-23T15:35:22.981Z</time></trkpt><trkpt lat="45.58304705865996" lon="10.137956229265011"><ele>146.0</ele><time>2026-04-23T15:35:25.981Z</time></trkpt><trkpt lat="45.583055389250354" lon="10.137860163799209"><ele>146.33333333333331</ele><time>2026-04-23T15:35:27.981Z</time></trkpt><trkpt lat="45.58309627723398" lon="10.137753806371748"><ele>146.66666666666666</ele><time>2026-04-23T15:35:30.981Z</time></trkpt><trkpt lat="45.58314009186522" lon="10.137643423493405"><ele>147.0</ele><time>2026-04-23T15:35:33.979Z</time></trkpt><trkpt lat="45.58317191322818" lon="10.137563257100364"><ele>147.33333333333334</ele><time>2026-04-23T15:35:35.979Z</time></trkpt><trkpt lat="45.583215133554766" lon="10.137458101843558"><ele>147.66666666666669</ele><time>2026-04-23T15:35:38.979Z</time></trkpt><trkpt lat="45.58324965779611" lon="10.137349236799842"><ele>148.0</ele><time>2026-04-23T15:35:41.978Z</time></trkpt><trkpt lat="45.58327974487531" lon="10.137240279158599"><ele>148.0</ele><time>2026-04-23T15:35:44.978Z</time></trkpt><trkpt lat="45.58331944470657" lon="10.137140240377327"><ele>148.0</ele><time>2026-04-23T15:35:47.978Z</time></trkpt><trkpt lat="45.58334558479088" lon="10.137047401896234"><ele>148.0</ele><time>2026-04-23T15:35:50.978Z</time></trkpt><trkpt lat="45.58336964056933" lon="10.136928003399436"><ele>148.0</ele><time>2026-04-23T15:35:53.979Z</time></trkpt><trkpt lat="45.583394331817736" lon="10.136830262396067"><ele>148.0</ele><time>2026-04-23T15:35:56.979Z</time></trkpt><trkpt lat="45.58340257116439" lon="10.136730515440737"><ele>148.0</ele><time>2026-04-23T15:35:58.979Z</time></trkpt><trkpt lat="45.5834218277419" lon="10.136617697917023"><ele>148.16666666666669</ele><time>2026-04-23T15:36:01.979Z</time></trkpt><trkpt lat="45.58342806379311" lon="10.136501515392625"><ele>148.33333333333334</ele><time>2026-04-23T15:36:04.979Z</time></trkpt><trkpt lat="45.58344057169545" lon="10.136377550783104"><ele>148.5</ele><time>2026-04-23T15:36:07.979Z</time></trkpt><trkpt lat="45.58345871154001" lon="10.13627125924477"><ele>148.66666666666666</ele><time>2026-04-23T15:36:10.979Z</time></trkpt><trkpt lat="45.58347537222591" lon="10.136159159418492"><ele>148.83333333333331</ele><time>2026-04-23T15:36:13.979Z</time></trkpt><trkpt lat="45.5834942557987" lon="10.136055084454513"><ele>149.0</ele><time>2026-04-23T15:36:16.979Z</time></trkpt><trkpt lat="45.583511184123054" lon="10.135951245771235"><ele>149.0</ele><time>2026-04-23T15:36:19.979Z</time></trkpt><trkpt lat="45.583533340448476" lon="10.135844656690551"><ele>149.0</ele><time>2026-04-23T15:36:22.979Z</time></trkpt><trkpt lat="45.583566510191666" lon="10.135737217361173"><ele>149.0</ele><time>2026-04-23T15:36:25.979Z</time></trkpt><trkpt lat="45.58358829785107" lon="10.13562506261259"><ele>149.0</ele><time>2026-04-23T15:36:28.979Z</time></trkpt><trkpt lat="45.58360597329329" lon="10.135508774494394"><ele>149.0</ele><time>2026-04-23T15:36:31.979Z</time></trkpt><trkpt lat="45.58363911809681" lon="10.135394178714355"><ele>149.0</ele><time>2026-04-23T15:36:34.979Z</time></trkpt><trkpt lat="45.58365430919594" lon="10.135300494684682"><ele>149.14285714285714</ele><time>2026-04-23T15:36:36.979Z</time></trkpt><trkpt lat="45.58367527472487" lon="10.135207951737453"><ele>149.28571428571428</ele><time>2026-04-23T15:36:38.979Z</time></trkpt><trkpt lat="45.583688811663656" lon="10.135111077778461"><ele>149.42857142857142</ele><time>2026-04-23T15:36:40.979Z</time></trkpt><trkpt lat="45.583719196106166" lon="10.134995100775338"><ele>149.57142857142856</ele><time>2026-04-23T15:36:43.979Z</time></trkpt><trkpt lat="45.583732211254464" lon="10.134906755201925"><ele>149.71428571428572</ele><time>2026-04-23T15:36:45.979Z</time></trkpt><trkpt lat="45.58373934968971" lon="10.134810055436876"><ele>149.85714285714283</ele><time>2026-04-23T15:36:47.979Z</time></trkpt><trkpt lat="45.583764333491104" lon="10.134694877390723"><ele>150.0</ele><time>2026-04-23T15:36:50.979Z</time></trkpt><trkpt lat="45.58377388308373" lon="10.134600454094326"><ele>150.0</ele><time>2026-04-23T15:36:52.979Z</time></trkpt><trkpt lat="45.5837824653559" lon="10.134473679470384"><ele>150.0</ele><time>2026-04-23T15:36:55.979Z</time></trkpt><trkpt lat="45.58379604842519" lon="10.134346462552463"><ele>150.0</ele><time>2026-04-23T15:36:58.979Z</time></trkpt><trkpt lat="45.583806862093795" lon="10.134235896503887"><ele>150.0</ele><time>2026-04-23T15:37:01.979Z</time></trkpt><trkpt lat="45.58382395158393" lon="10.134127546459712"><ele>150.0</ele><time>2026-04-23T15:37:04.979Z</time></trkpt><trkpt lat="45.58383325275718" lon="10.13402392305971"><ele>150.0</ele><time>2026-04-23T15:37:07.979Z</time></trkpt><trkpt lat="45.58384483026549" lon="10.133918820875724"><ele>150.33333333333334</ele><time>2026-04-23T15:37:10.979Z</time></trkpt><trkpt lat="45.583866897039144" lon="10.133812158097408"><ele>150.66666666666666</ele><time>2026-04-23T15:37:13.979Z</time></trkpt><trkpt lat="45.58389000150978" lon="10.133699642926846"><ele>151.0</ele><time>2026-04-23T15:37:16.979Z</time></trkpt><trkpt lat="45.58391322383217" lon="10.133590720861156"><ele>151.33333333333331</ele><time>2026-04-23T15:37:19.979Z</time></trkpt><trkpt lat="45.58392540542429" lon="10.13346525304132"><ele>151.66666666666666</ele><time>2026-04-23T15:37:22.979Z</time></trkpt><trkpt lat="45.5839514306369" lon="10.133352663416279"><ele>152.0</ele><time>2026-04-23T15:37:25.979Z</time></trkpt><trkpt lat="45.583975889010624" lon="10.133266934933873"><ele>152.16666666666666</ele><time>2026-04-23T15:37:27.979Z</time></trkpt><trkpt lat="45.58400510798418" lon="10.133140339845253"><ele>152.33333333333331</ele><time>2026-04-23T15:37:30.979Z</time></trkpt><trkpt lat="45.58402273741184" lon="10.133012340543536"><ele>152.5</ele><time>2026-04-23T15:37:33.979Z</time></trkpt><trkpt lat="45.584025603852126" lon="10.132888328252832"><ele>152.66666666666666</ele><time>2026-04-23T15:37:36.979Z</time></trkpt><trkpt lat="45.58401546785261" lon="10.132766598951216"><ele>152.83333333333334</ele><time>2026-04-23T15:37:39.976Z</time></trkpt><trkpt lat="45.58400517537877" lon="10.132674104735234"><ele>153.0</ele><time>2026-04-23T15:37:43.976Z</time></trkpt><trkpt lat="45.58399703423499" lon="10.132579698070504"><ele>153.0</ele><time>2026-04-23T15:37:48.976Z</time></trkpt><trkpt lat="45.583987783385616" lon="10.13248758699958"><ele>153.0</ele><time>2026-04-23T15:37:53.976Z</time></trkpt><trkpt lat="45.58397544873603" lon="10.132396345733556"><ele>153.0</ele><time>2026-04-23T15:37:58.976Z</time></trkpt><trkpt lat="45.58397300849191" lon="10.13229318784014"><ele>153.0</ele><time>2026-04-23T15:38:04.976Z</time></trkpt><trkpt lat="45.58396368583544" lon="10.132201817152248"><ele>153.0</ele><time>2026-04-23T15:38:09.976Z</time></trkpt><trkpt lat="45.583964321856236" lon="10.13208712852764"><ele>153.0</ele><time>2026-04-23T15:38:15.976Z</time></trkpt><trkpt lat="45.58395836171591" lon="10.13199708337594"><ele>153.0</ele><time>2026-04-23T15:38:20.976Z</time></trkpt><trkpt lat="45.583956476477375" lon="10.131903987435678"><ele>152.85714285714286</ele><time>2026-04-23T15:38:25.976Z</time></trkpt><trkpt lat="45.58395313292049" lon="10.131807393375036"><ele>152.71428571428572</ele><time>2026-04-23T15:38:30.976Z</time></trkpt><trkpt lat="45.58396006385746" lon="10.131711552836581"><ele>152.57142857142856</ele><time>2026-04-23T15:38:36.976Z</time></trkpt><trkpt lat="45.58395805008274" lon="10.13161407141189"><ele>152.42857142857144</ele><time>2026-04-23T15:38:41.976Z</time></trkpt><trkpt lat="45.58396359290159" lon="10.131519053817128"><ele>152.2857142857143</ele><time>2026-04-23T15:38:46.976Z</time></trkpt><trkpt lat="45.58396367603988" lon="10.131427415092304"><ele>152.14285714285714</ele><time>2026-04-23T15:38:50.976Z</time></trkpt><trkpt lat="45.58396693836553" lon="10.131327419410157"><ele>152.0</ele><time>2026-04-23T15:38:56.976Z</time></trkpt><trkpt lat="45.583963686010435" lon="10.131225251819973"><ele>152.0</ele><time>2026-04-23T15:39:02.976Z</time></trkpt><trkpt lat="45.58396776944262" lon="10.131120701270435"><ele>152.0</ele><time>2026-04-23T15:39:08.976Z</time></trkpt><trkpt lat="45.583966645361244" lon="10.131018379238157"><ele>152.0</ele><time>2026-04-23T15:39:13.976Z</time></trkpt><trkpt lat="45.583965099659935" lon="10.130928357551767"><ele>152.0</ele><time>2026-04-23T15:39:18.976Z</time></trkpt><trkpt lat="45.58396789855178" lon="10.130836051468037"><ele>152.0</ele><time>2026-04-23T15:39:23.976Z</time></trkpt><trkpt lat="45.583962285205985" lon="10.130743618455892"><ele>152.0</ele><time>2026-04-23T15:39:28.976Z</time></trkpt><trkpt lat="45.583962741361475" lon="10.130650881671496"><ele>152.0</ele><time>2026-04-23T15:39:33.976Z</time></trkpt><trkpt lat="45.583965691741255" lon="10.130551462122469"><ele>152.0</ele><time>2026-04-23T15:39:38.976Z</time></trkpt><trkpt lat="45.58396908795411" lon="10.130461483691178"><ele>152.0</ele><time>2026-04-23T15:39:41.976Z</time></trkpt><trkpt lat="45.5840070398072" lon="10.130376742487416"><ele>152.0</ele><time>2026-04-23T15:39:44.974Z</time></trkpt><trkpt lat="45.58410869698394" lon="10.130330518822177"><ele>152.0</ele><time>2026-04-23T15:39:48.974Z</time></trkpt><trkpt lat="45.584178237070276" lon="10.130323866465742"><ele>152.0</ele><time>2026-04-23T15:39:50.974Z</time></trkpt><trkpt lat="45.584269747159055" lon="10.13030643512937"><ele>152.0</ele><time>2026-04-23T15:39:53.973Z</time></trkpt><trkpt lat="45.58436549173893" lon="10.130314455364013"><ele>152.0</ele><time>2026-04-23T15:39:56.974Z</time></trkpt><trkpt lat="45.58443205539011" lon="10.130323004065241"><ele>152.0</ele><time>2026-04-23T15:39:58.974Z</time></trkpt><trkpt lat="45.58449700921393" lon="10.130319811074315"><ele>152.0</ele><time>2026-04-23T15:40:00.974Z</time></trkpt><trkpt lat="45.584567253673114" lon="10.130311520316983"><ele>152.0</ele><time>2026-04-23T15:40:02.974Z</time></trkpt><trkpt lat="45.58463666788399" lon="10.130312958995914"><ele>152.0</ele><time>2026-04-23T15:40:04.974Z</time></trkpt><trkpt lat="45.58470081479064" lon="10.130326514825022"><ele>152.0</ele><time>2026-04-23T15:40:06.974Z</time></trkpt><trkpt lat="45.58476685561389" lon="10.130319606186346"><ele>152.0</ele><time>2026-04-23T15:40:08.974Z</time></trkpt><trkpt lat="45.58483023816999" lon="10.130325973463428"><ele>152.28571428571428</ele><time>2026-04-23T15:40:10.974Z</time></trkpt><trkpt lat="45.58489596330771" lon="10.130330237124374"><ele>152.57142857142858</ele><time>2026-04-23T15:40:12.974Z</time></trkpt><trkpt lat="45.58496247874105" lon="10.130341449678514"><ele>152.85714285714286</ele><time>2026-04-23T15:40:14.974Z</time></trkpt><trkpt lat="45.58502997563988" lon="10.13034969123412"><ele>153.14285714285714</ele><time>2026-04-23T15:40:16.974Z</time></trkpt><trkpt lat="45.58509804048656" lon="10.130357910169913"><ele>153.42857142857144</ele><time>2026-04-23T15:40:18.974Z</time></trkpt><trkpt lat="45.58518989705652" lon="10.130366533508678"><ele>153.71428571428572</ele><time>2026-04-23T15:40:21.974Z</time></trkpt><trkpt lat="45.585277241790024" lon="10.13037247768183"><ele>154.0</ele><time>2026-04-23T15:40:24.974Z</time></trkpt><trkpt lat="45.58534265042208" lon="10.13038022166"><ele>154.33333333333334</ele><time>2026-04-23T15:40:26.974Z</time></trkpt><trkpt lat="45.5854068067309" lon="10.130375949371365"><ele>154.66666666666669</ele><time>2026-04-23T15:40:28.974Z</time></trkpt><trkpt lat="45.585480990377846" lon="10.130373266362836"><ele>155.0</ele><time>2026-04-23T15:40:31.974Z</time></trkpt><trkpt lat="45.585553212530954" lon="10.130353340883536"><ele>155.33333333333334</ele><time>2026-04-23T15:40:34.974Z</time></trkpt><trkpt lat="45.58563702563886" lon="10.130388788677589"><ele>155.66666666666666</ele><time>2026-04-23T15:40:37.974Z</time></trkpt><trkpt lat="45.585698551578616" lon="10.130309788962405"><ele>156.0</ele><time>2026-04-23T15:40:40.974Z</time></trkpt><trkpt lat="45.58573119744646" lon="10.130224454964814"><ele>156.0</ele><time>2026-04-23T15:40:43.974Z</time></trkpt><trkpt lat="45.58576851899693" lon="10.130141395670211"><ele>156.0</ele><time>2026-04-23T15:40:46.974Z</time></trkpt><trkpt lat="45.58583150572411" lon="10.130052898019361"><ele>156.0</ele><time>2026-04-23T15:40:48.974Z</time></trkpt><trkpt lat="45.58588360902404" lon="10.129984390865854"><ele>156.0</ele><time>2026-04-23T15:40:50.974Z</time></trkpt><trkpt lat="45.58592134437259" lon="10.129911306387887"><ele>156.0</ele><time>2026-04-23T15:40:52.974Z</time></trkpt><trkpt lat="45.585981676056996" lon="10.12979945622985"><ele>156.0</ele><time>2026-04-23T15:40:55.974Z</time></trkpt><trkpt lat="45.58601478961072" lon="10.129718908612643"><ele>156.0</ele><time>2026-04-23T15:40:57.974Z</time></trkpt><trkpt lat="45.586054653702384" lon="10.129640086787246"><ele>156.0</ele><time>2026-04-23T15:40:59.974Z</time></trkpt><trkpt lat="45.586100568262225" lon="10.129533799796995"><ele>156.0</ele><time>2026-04-23T15:41:02.974Z</time></trkpt><trkpt lat="45.5861534770956" lon="10.129429191966798"><ele>156.0</ele><time>2026-04-23T15:41:05.974Z</time></trkpt><trkpt lat="45.58621542952416" lon="10.129332177832472"><ele>156.0</ele><time>2026-04-23T15:41:08.974Z</time></trkpt><trkpt lat="45.58626115659532" lon="10.12922262345939"><ele>156.0</ele><time>2026-04-23T15:41:11.974Z</time></trkpt><trkpt lat="45.586290473790605" lon="10.129142016817912"><ele>155.83333333333334</ele><time>2026-04-23T15:41:13.974Z</time></trkpt><trkpt lat="45.58633408328212" lon="10.129029827297986"><ele>155.66666666666666</ele><time>2026-04-23T15:41:16.974Z</time></trkpt><trkpt lat="45.586393208211376" lon="10.12894301953028"><ele>155.5</ele><time>2026-04-23T15:41:19.974Z</time></trkpt><trkpt lat="45.5864531702835" lon="10.128847096801982"><ele>155.33333333333331</ele><time>2026-04-23T15:41:22.974Z</time></trkpt><trkpt lat="45.58651347528843" lon="10.128754637757536"><ele>155.16666666666666</ele><time>2026-04-23T15:41:25.974Z</time></trkpt><trkpt lat="45.58657400789847" lon="10.1286632958872"><ele>155.0</ele><time>2026-04-23T15:41:28.974Z</time></trkpt><trkpt lat="45.586635783905024" lon="10.128577575848977"><ele>155.0</ele><time>2026-04-23T15:41:31.974Z</time></trkpt><trkpt lat="45.586678217172405" lon="10.128510824644485"><ele>155.0</ele><time>2026-04-23T15:41:33.974Z</time></trkpt><trkpt lat="45.586737996714206" lon="10.128434834268155"><ele>155.0</ele><time>2026-04-23T15:41:36.974Z</time></trkpt><trkpt lat="45.58678864116595" lon="10.128377944040437"><ele>155.0</ele><time>2026-04-23T15:41:42.974Z</time></trkpt><trkpt lat="45.586831228267094" lon="10.128310148195794"><ele>155.0</ele><time>2026-04-23T15:41:47.974Z</time></trkpt><trkpt lat="45.58688048606413" lon="10.128249550153846"><ele>155.0</ele><time>2026-04-23T15:41:52.971Z</time></trkpt><trkpt lat="45.586932572265646" lon="10.128191671877506"><ele>155.0</ele><time>2026-04-23T15:41:57.971Z</time></trkpt><trkpt lat="45.58697697984758" lon="10.128111338673152"><ele>155.14285714285714</ele><time>2026-04-23T15:42:02.971Z</time></trkpt><trkpt lat="45.587024687054715" lon="10.128030688350634"><ele>155.28571428571428</ele><time>2026-04-23T15:42:07.971Z</time></trkpt><trkpt lat="45.58706853343522" lon="10.127962242500756"><ele>155.42857142857144</ele><time>2026-04-23T15:42:12.971Z</time></trkpt><trkpt lat="45.58710325205483" lon="10.127870810502213"><ele>155.57142857142856</ele><time>2026-04-23T15:42:17.971Z</time></trkpt><trkpt lat="45.58714250702508" lon="10.12779007244491"><ele>155.7142857142857</ele><time>2026-04-23T15:42:22.972Z</time></trkpt><trkpt lat="45.587175912914944" lon="10.127703816039597"><ele>155.85714285714286</ele><time>2026-04-23T15:42:27.972Z</time></trkpt><trkpt lat="45.58720861020968" lon="10.127614624371384"><ele>156.0</ele><time>2026-04-23T15:42:32.972Z</time></trkpt><trkpt lat="45.58725017851044" lon="10.127526507492307"><ele>156.0</ele><time>2026-04-23T15:42:37.972Z</time></trkpt><trkpt lat="45.58728519194528" lon="10.127450865838183"><ele>156.0</ele><time>2026-04-23T15:42:40.972Z</time></trkpt><trkpt lat="45.58731067544494" lon="10.127366395661571"><ele>156.0</ele><time>2026-04-23T15:42:43.972Z</time></trkpt><trkpt lat="45.58734032579771" lon="10.127249792607445"><ele>156.0</ele><time>2026-04-23T15:42:46.972Z</time></trkpt><trkpt lat="45.58735040277407" lon="10.127151954947214"><ele>156.0</ele><time>2026-04-23T15:42:48.972Z</time></trkpt><trkpt lat="45.587356385558856" lon="10.12706092279024"><ele>156.0</ele><time>2026-04-23T15:42:50.972Z</time></trkpt><trkpt lat="45.58736874809982" lon="10.126934311688723"><ele>156.0</ele><time>2026-04-23T15:42:53.972Z</time></trkpt><trkpt lat="45.58737698927514" lon="10.126844316577934"><ele>155.83333333333334</ele><time>2026-04-23T15:42:55.972Z</time></trkpt><trkpt lat="45.5873809556529" lon="10.126711369142061"><ele>155.66666666666666</ele><time>2026-04-23T15:42:58.972Z</time></trkpt><trkpt lat="45.587377274042105" lon="10.126619419831018"><ele>155.5</ele><time>2026-04-23T15:43:00.972Z</time></trkpt><trkpt lat="45.5873784896577" lon="10.12648997562391"><ele>155.33333333333331</ele><time>2026-04-23T15:43:03.972Z</time></trkpt><trkpt lat="45.58737423642436" lon="10.126360354117185"><ele>155.16666666666666</ele><time>2026-04-23T15:43:06.972Z</time></trkpt><trkpt lat="45.58737149211781" lon="10.126230182109163"><ele>155.0</ele><time>2026-04-23T15:43:09.972Z</time></trkpt><trkpt lat="45.58737487823371" lon="10.1261058556419"><ele>155.0</ele><time>2026-04-23T15:43:12.972Z</time></trkpt><trkpt lat="45.587375163773736" lon="10.125979540847252"><ele>155.0</ele><time>2026-04-23T15:43:15.972Z</time></trkpt><trkpt lat="45.58737733802604" lon="10.125842726040968"><ele>155.0</ele><time>2026-04-23T15:43:18.972Z</time></trkpt><trkpt lat="45.58737835869449" lon="10.125717307056751"><ele>155.0</ele><time>2026-04-23T15:43:21.972Z</time></trkpt><trkpt lat="45.587387732099614" lon="10.12559022029364"><ele>155.0</ele><time>2026-04-23T15:43:24.972Z</time></trkpt><trkpt lat="45.587383463131225" lon="10.125458976549913"><ele>155.16666666666666</ele><time>2026-04-23T15:43:27.972Z</time></trkpt><trkpt lat="45.58738225476886" lon="10.125328680650918"><ele>155.33333333333331</ele><time>2026-04-23T15:43:30.972Z</time></trkpt><trkpt lat="45.58738671452666" lon="10.1252033680272"><ele>155.5</ele><time>2026-04-23T15:43:33.972Z</time></trkpt><trkpt lat="45.58738827723915" lon="10.12510949314794"><ele>155.66666666666666</ele><time>2026-04-23T15:43:35.972Z</time></trkpt><trkpt lat="45.58739526415402" lon="10.124992147852584"><ele>155.83333333333334</ele><time>2026-04-23T15:43:38.972Z</time></trkpt><trkpt lat="45.58739870794551" lon="10.124901606053694"><ele>156.0</ele><time>2026-04-23T15:43:40.972Z</time></trkpt><trkpt lat="45.58739477812286" lon="10.124784260906921"><ele>155.66666666666666</ele><time>2026-04-23T15:43:43.972Z</time></trkpt><trkpt lat="45.58741049528552" lon="10.124654284336053"><ele>155.33333333333334</ele><time>2026-04-23T15:43:46.972Z</time></trkpt><trkpt lat="45.587412556708266" lon="10.124562623853135"><ele>155.0</ele><time>2026-04-23T15:43:48.972Z</time></trkpt><trkpt lat="45.58742231015402" lon="10.124433996138702"><ele>154.66666666666669</ele><time>2026-04-23T15:43:51.972Z</time></trkpt><trkpt lat="45.5874377226826" lon="10.124316541153751"><ele>154.33333333333334</ele><time>2026-04-23T15:43:54.972Z</time></trkpt><trkpt lat="45.58745113245404" lon="10.124190924209275"><ele>154.0</ele><time>2026-04-23T15:43:57.969Z</time></trkpt><trkpt lat="45.5874788864973" lon="10.124068466636503"><ele>154.5</ele><time>2026-04-23T15:44:00.968Z</time></trkpt><trkpt lat="45.58751165689527" lon="10.123951557428803"><ele>155.0</ele><time>2026-04-23T15:44:03.968Z</time></trkpt><trkpt lat="45.58755110345197" lon="10.123881283927933"><ele>155.5</ele><time>2026-04-23T15:44:05.968Z</time></trkpt><trkpt lat="45.58761451383876" lon="10.123791766534193"><ele>156.0</ele><time>2026-04-23T15:44:08.968Z</time></trkpt><trkpt lat="45.587682977332406" lon="10.123708228125151"><ele>156.5</ele><time>2026-04-23T15:44:11.968Z</time></trkpt><trkpt lat="45.58774401627927" lon="10.123634583433795"><ele>157.0</ele><time>2026-04-23T15:44:14.968Z</time></trkpt><trkpt lat="45.587796121698744" lon="10.123540997466852"><ele>156.99999999999997</ele><time>2026-04-23T15:44:17.968Z</time></trkpt><trkpt lat="45.58783111745149" lon="10.12344626692326"><ele>157.0</ele><time>2026-04-23T15:44:20.968Z</time></trkpt><trkpt lat="45.58786890860368" lon="10.123369989835423"><ele>157.0</ele><time>2026-04-23T15:44:23.968Z</time></trkpt><trkpt lat="45.58790142618588" lon="10.123274170512481"><ele>157.0</ele><time>2026-04-23T15:44:26.968Z</time></trkpt><trkpt lat="45.587934824301506" lon="10.123188253836824"><ele>157.0</ele><time>2026-04-23T15:44:28.968Z</time></trkpt><trkpt lat="45.58795726606391" lon="10.123051685212596"><ele>156.99999999999997</ele><time>2026-04-23T15:44:31.968Z</time></trkpt><trkpt lat="45.587970484682295" lon="10.122960172245692"><ele>157.0</ele><time>2026-04-23T15:44:33.968Z</time></trkpt><trkpt lat="45.587959927396135" lon="10.122827766663326"><ele>157.0</ele><time>2026-04-23T15:44:36.968Z</time></trkpt><trkpt lat="45.58794607692262" lon="10.122695348660537"><ele>157.0</ele><time>2026-04-23T15:44:39.968Z</time></trkpt><trkpt lat="45.587931325867075" lon="10.122560346765361"><ele>157.0</ele><time>2026-04-23T15:44:42.968Z</time></trkpt><trkpt lat="45.58789266072792" lon="10.122485381479573"><ele>157.0</ele><time>2026-04-23T15:44:44.968Z</time></trkpt><trkpt lat="45.58784999618986" lon="10.12241796822309"><ele>157.0</ele><time>2026-04-23T15:44:46.968Z</time></trkpt><trkpt lat="45.58778272214432" lon="10.122331557713421"><ele>157.0</ele><time>2026-04-23T15:44:49.968Z</time></trkpt><trkpt lat="45.58772096832389" lon="10.122237527580218"><ele>157.33333333333334</ele><time>2026-04-23T15:44:52.968Z</time></trkpt><trkpt lat="45.58766776886818" lon="10.122148208667355"><ele>157.66666666666669</ele><time>2026-04-23T15:44:55.968Z</time></trkpt><trkpt lat="45.58761074199752" lon="10.122057629136615"><ele>158.0</ele><time>2026-04-23T15:44:58.968Z</time></trkpt><trkpt lat="45.587567029872915" lon="10.121963682117938"><ele>158.33333333333334</ele><time>2026-04-23T15:45:01.968Z</time></trkpt><trkpt lat="45.58752647499494" lon="10.121861844561579"><ele>158.66666666666666</ele><time>2026-04-23T15:45:04.968Z</time></trkpt><trkpt lat="45.58747862655098" lon="10.12175610187608"><ele>159.0</ele><time>2026-04-23T15:45:07.968Z</time></trkpt><trkpt lat="45.5874529633794" lon="10.12165209747132"><ele>159.16666666666666</ele><time>2026-04-23T15:45:10.968Z</time></trkpt><trkpt lat="45.58743411882569" lon="10.121545704102816"><ele>159.33333333333334</ele><time>2026-04-23T15:45:13.968Z</time></trkpt><trkpt lat="45.587420530527694" lon="10.121431946018076"><ele>159.5</ele><time>2026-04-23T15:45:16.968Z</time></trkpt><trkpt lat="45.58741515982427" lon="10.121317618665413"><ele>159.66666666666669</ele><time>2026-04-23T15:45:19.968Z</time></trkpt><trkpt lat="45.58741821795614" lon="10.121198909876416"><ele>159.83333333333334</ele><time>2026-04-23T15:45:22.968Z</time></trkpt><trkpt lat="45.58743363796073" lon="10.12108619267046"><ele>160.0</ele><time>2026-04-23T15:45:25.969Z</time></trkpt><trkpt lat="45.58744750880219" lon="10.12096391015299"><ele>160.0</ele><time>2026-04-23T15:45:28.969Z</time></trkpt><trkpt lat="45.58746688874371" lon="10.120846136026556"><ele>160.0</ele><time>2026-04-23T15:45:31.969Z</time></trkpt><trkpt lat="45.587488189251246" lon="10.120729774381113"><ele>160.0</ele><time>2026-04-23T15:45:34.969Z</time></trkpt><trkpt lat="45.587517169254475" lon="10.120614487196164"><ele>160.0</ele><time>2026-04-23T15:45:37.969Z</time></trkpt><trkpt lat="45.587551358395" lon="10.1204984294261"><ele>160.0</ele><time>2026-04-23T15:45:40.969Z</time></trkpt><trkpt lat="45.587592833597405" lon="10.120399898813961"><ele>160.0</ele><time>2026-04-23T15:45:43.969Z</time></trkpt><trkpt lat="45.587646527879045" lon="10.120320157428583"><ele>160.0</ele><time>2026-04-23T15:45:46.969Z</time></trkpt><trkpt lat="45.58769263532128" lon="10.120245063000835"><ele>160.0</ele><time>2026-04-23T15:45:49.969Z</time></trkpt><trkpt lat="45.5877338335132" lon="10.12017419279124"><ele>160.0</ele><time>2026-04-23T15:45:52.969Z</time></trkpt><trkpt lat="45.58778285437081" lon="10.120083280126249"><ele>160.0</ele><time>2026-04-23T15:45:55.969Z</time></trkpt><trkpt lat="45.58783873550624" lon="10.120006408056364"><ele>160.0</ele><time>2026-04-23T15:45:58.969Z</time></trkpt><trkpt lat="45.58788309040099" lon="10.119906323624747"><ele>160.0</ele><time>2026-04-23T15:46:01.969Z</time></trkpt><trkpt lat="45.58794271841479" lon="10.119824596899809"><ele>160.33333333333334</ele><time>2026-04-23T15:46:04.965Z</time></trkpt><trkpt lat="45.5879733757872" lon="10.119729066808562"><ele>160.66666666666669</ele><time>2026-04-23T15:46:07.965Z</time></trkpt><trkpt lat="45.588018756470625" lon="10.119633573034303"><ele>161.0</ele><time>2026-04-23T15:46:10.965Z</time></trkpt><trkpt lat="45.588057292708356" lon="10.11951150550662"><ele>161.33333333333334</ele><time>2026-04-23T15:46:13.965Z</time></trkpt><trkpt lat="45.588081352119794" lon="10.119423461578572"><ele>161.66666666666666</ele><time>2026-04-23T15:46:15.965Z</time></trkpt><trkpt lat="45.588116252734125" lon="10.119304426308545"><ele>162.0</ele><time>2026-04-23T15:46:18.965Z</time></trkpt><trkpt lat="45.58814184868074" lon="10.119183311128616"><ele>162.0</ele><time>2026-04-23T15:46:21.965Z</time></trkpt><trkpt lat="45.5881663547038" lon="10.119096907579587"><ele>162.0</ele><time>2026-04-23T15:46:23.965Z</time></trkpt><trkpt lat="45.58819922134861" lon="10.118978957543755"><ele>162.0</ele><time>2026-04-23T15:46:26.965Z</time></trkpt><trkpt lat="45.58823347049387" lon="10.118870329381187"><ele>162.0</ele><time>2026-04-23T15:46:29.965Z</time></trkpt><trkpt lat="45.58824827111164" lon="10.118779084300314"><ele>162.0</ele><time>2026-04-23T15:46:31.965Z</time></trkpt><trkpt lat="45.5882886412153" lon="10.118665208402057"><ele>162.0</ele><time>2026-04-23T15:46:34.965Z</time></trkpt><trkpt lat="45.58833067294531" lon="10.118564867016742"><ele>162.0</ele><time>2026-04-23T15:46:37.965Z</time></trkpt><trkpt lat="45.588369915308974" lon="10.118461336801202"><ele>162.0</ele><time>2026-04-23T15:46:40.965Z</time></trkpt><trkpt lat="45.588405423959856" lon="10.118341161005912"><ele>162.0</ele><time>2026-04-23T15:46:43.965Z</time></trkpt><trkpt lat="45.588432176643" lon="10.118216968254062"><ele>162.0</ele><time>2026-04-23T15:46:46.965Z</time></trkpt><trkpt lat="45.5884429779191" lon="10.118106176997905"><ele>162.0</ele><time>2026-04-23T15:46:49.965Z</time></trkpt><trkpt lat="45.58845089949876" lon="10.117987777561193"><ele>162.0</ele><time>2026-04-23T15:46:52.965Z</time></trkpt><trkpt lat="45.58847897940438" lon="10.117882458109255"><ele>162.0</ele><time>2026-04-23T15:46:55.965Z</time></trkpt><trkpt lat="45.58849628768546" lon="10.117767813431838"><ele>162.0</ele><time>2026-04-23T15:46:58.965Z</time></trkpt><trkpt lat="45.5885184107957" lon="10.1176496729898"><ele>162.0</ele><time>2026-04-23T15:47:01.965Z</time></trkpt><trkpt lat="45.58852651215425" lon="10.117529141310305"><ele>162.0</ele><time>2026-04-23T15:47:04.965Z</time></trkpt><trkpt lat="45.58852680388128" lon="10.11739163552044"><ele>162.0</ele><time>2026-04-23T15:47:07.965Z</time></trkpt><trkpt lat="45.58852750393732" lon="10.117296344004032"><ele>162.0</ele><time>2026-04-23T15:47:09.965Z</time></trkpt><trkpt lat="45.58854177670932" lon="10.117184074855569"><ele>162.16666666666666</ele><time>2026-04-23T15:47:12.965Z</time></trkpt><trkpt lat="45.58856299023709" lon="10.117066390050207"><ele>162.33333333333334</ele><time>2026-04-23T15:47:15.965Z</time></trkpt><trkpt lat="45.588565194607504" lon="10.116936599232076"><ele>162.5</ele><time>2026-04-23T15:47:18.965Z</time></trkpt><trkpt lat="45.58858067239934" lon="10.116808487651078"><ele>162.66666666666669</ele><time>2026-04-23T15:47:21.965Z</time></trkpt><trkpt lat="45.58857925535348" lon="10.11671470372514"><ele>162.83333333333334</ele><time>2026-04-23T15:47:23.965Z</time></trkpt><trkpt lat="45.58858720642581" lon="10.116578138561378"><ele>163.0</ele><time>2026-04-23T15:47:26.965Z</time></trkpt><trkpt lat="45.58859888541986" lon="10.11646034155606"><ele>163.0</ele><time>2026-04-23T15:47:29.965Z</time></trkpt><trkpt lat="45.58860405606495" lon="10.116335629413127"><ele>163.0</ele><time>2026-04-23T15:47:32.965Z</time></trkpt><trkpt lat="45.58861738389112" lon="10.116223036829219"><ele>163.0</ele><time>2026-04-23T15:47:35.965Z</time></trkpt><trkpt lat="45.58861630239816" lon="10.116099130730117"><ele>163.0</ele><time>2026-04-23T15:47:38.965Z</time></trkpt><trkpt lat="45.5886203366428" lon="10.115969941124552"><ele>163.0</ele><time>2026-04-23T15:47:41.965Z</time></trkpt><trkpt lat="45.58862143516093" lon="10.115844278386952"><ele>163.0</ele><time>2026-04-23T15:47:44.965Z</time></trkpt><trkpt lat="45.58864098282226" lon="10.115721328962739"><ele>163.33333333333334</ele><time>2026-04-23T15:47:47.965Z</time></trkpt><trkpt lat="45.58865979672584" lon="10.115604129622833"><ele>163.66666666666669</ele><time>2026-04-23T15:47:50.965Z</time></trkpt><trkpt lat="45.588654555781766" lon="10.115471205200482"><ele>164.0</ele><time>2026-04-23T15:47:53.965Z</time></trkpt><trkpt lat="45.58865138645749" lon="10.115378846102717"><ele>164.33333333333334</ele><time>2026-04-23T15:47:55.965Z</time></trkpt><trkpt lat="45.588653739376205" lon="10.115284302130675"><ele>164.66666666666666</ele><time>2026-04-23T15:47:57.965Z</time></trkpt><trkpt lat="45.588664286648104" lon="10.115155080941413"><ele>165.0</ele><time>2026-04-23T15:48:00.965Z</time></trkpt><trkpt lat="45.58867471055907" lon="10.115033037084407"><ele>164.83333333333334</ele><time>2026-04-23T15:48:03.965Z</time></trkpt><trkpt lat="45.588682538498375" lon="10.114907723828573"><ele>164.66666666666666</ele><time>2026-04-23T15:48:06.966Z</time></trkpt><trkpt lat="45.5886874854771" lon="10.114785107995797"><ele>164.5</ele><time>2026-04-23T15:48:09.963Z</time></trkpt><trkpt lat="45.58868651529673" lon="10.114654470191416"><ele>164.33333333333331</ele><time>2026-04-23T15:48:12.963Z</time></trkpt><trkpt lat="45.5886894558781" lon="10.114530804314969"><ele>164.16666666666666</ele><time>2026-04-23T15:48:15.962Z</time></trkpt><trkpt lat="45.588693699195694" lon="10.114405329330683"><ele>164.0</ele><time>2026-04-23T15:48:18.962Z</time></trkpt><trkpt lat="45.58871672402348" lon="10.11429868225123"><ele>164.0</ele><time>2026-04-23T15:48:21.963Z</time></trkpt><trkpt lat="45.58875091131366" lon="10.11419057979766"><ele>164.0</ele><time>2026-04-23T15:48:24.963Z</time></trkpt><trkpt lat="45.58877035306214" lon="10.114079046485859"><ele>164.0</ele><time>2026-04-23T15:48:27.963Z</time></trkpt><trkpt lat="45.58878918767648" lon="10.11396390111586"><ele>164.0</ele><time>2026-04-23T15:48:30.963Z</time></trkpt><trkpt lat="45.5888051321781" lon="10.113848294511623"><ele>164.0</ele><time>2026-04-23T15:48:33.963Z</time></trkpt><trkpt lat="45.58881003799666" lon="10.113728489074294"><ele>164.0</ele><time>2026-04-23T15:48:36.963Z</time></trkpt><trkpt lat="45.588818429866436" lon="10.113611124408125"><ele>164.16666666666666</ele><time>2026-04-23T15:48:39.963Z</time></trkpt><trkpt lat="45.5888321832872" lon="10.113505633682081"><ele>164.33333333333331</ele><time>2026-04-23T15:48:42.963Z</time></trkpt><trkpt lat="45.588862042976" lon="10.113401382969421"><ele>164.5</ele><time>2026-04-23T15:48:45.963Z</time></trkpt><trkpt lat="45.58887427569435" lon="10.113299215131555"><ele>164.66666666666666</ele><time>2026-04-23T15:48:48.963Z</time></trkpt><trkpt lat="45.58888153721185" lon="10.113174025586922"><ele>164.83333333333334</ele><time>2026-04-23T15:48:51.963Z</time></trkpt><trkpt lat="45.588890356035876" lon="10.113057261719332"><ele>165.0</ele><time>2026-04-23T15:48:54.963Z</time></trkpt><trkpt lat="45.588867477123344" lon="10.112956284051414"><ele>165.14285714285717</ele><time>2026-04-23T15:48:57.963Z</time></trkpt><trkpt lat="45.588845804082354" lon="10.112839689444462"><ele>165.28571428571428</ele><time>2026-04-23T15:49:01.963Z</time></trkpt><trkpt lat="45.588836472407024" lon="10.112740080566065"><ele>165.42857142857144</ele><time>2026-04-23T15:49:06.963Z</time></trkpt><trkpt lat="45.58884039215808" lon="10.11264272464952"><ele>165.57142857142858</ele><time>2026-04-23T15:49:11.963Z</time></trkpt><trkpt lat="45.588838390606824" lon="10.112542214902161"><ele>165.71428571428572</ele><time>2026-04-23T15:49:16.963Z</time></trkpt><trkpt lat="45.58884783392796" lon="10.112442201612474"><ele>165.85714285714286</ele><time>2026-04-23T15:49:22.963Z</time></trkpt><trkpt lat="45.58885412014409" lon="10.112349166095246"><ele>166.0</ele><time>2026-04-23T15:49:27.963Z</time></trkpt><trkpt lat="45.58886343107844" lon="10.112253429647197"><ele>166.57142857142856</ele><time>2026-04-23T15:49:32.963Z</time></trkpt><trkpt lat="45.5888705697852" lon="10.112160920218233"><ele>167.14285714285717</ele><time>2026-04-23T15:49:37.963Z</time></trkpt><trkpt lat="45.588881638591104" lon="10.112058959025358"><ele>167.71428571428572</ele><time>2026-04-23T15:49:42.963Z</time></trkpt><trkpt lat="45.588892772442506" lon="10.111962732656075"><ele>168.28571428571428</ele><time>2026-04-23T15:49:47.963Z</time></trkpt><trkpt lat="45.588907553711174" lon="10.11186916590486"><ele>168.85714285714283</ele><time>2026-04-23T15:49:52.963Z</time></trkpt><trkpt lat="45.58892174329133" lon="10.111779451111229"><ele>169.42857142857144</ele><time>2026-04-23T15:49:57.963Z</time></trkpt><trkpt lat="45.58893736431319" lon="10.111685379043932"><ele>170.0</ele><time>2026-04-23T15:50:02.963Z</time></trkpt><trkpt lat="45.58895410482102" lon="10.111593210431"><ele>170.0</ele><time>2026-04-23T15:50:07.963Z</time></trkpt><trkpt lat="45.58897333189405" lon="10.111498602837742"><ele>170.0</ele><time>2026-04-23T15:50:13.963Z</time></trkpt><trkpt lat="45.58897735076451" lon="10.11138580704775"><ele>170.0</ele><time>2026-04-23T15:50:18.96Z</time></trkpt><trkpt lat="45.58898692300068" lon="10.111273614215884"><ele>170.0</ele><time>2026-04-23T15:50:23.96Z</time></trkpt><trkpt lat="45.588993046664136" lon="10.111156209302711"><ele>170.0</ele><time>2026-04-23T15:50:28.96Z</time></trkpt><trkpt lat="45.5889925738272" lon="10.111051307237346"><ele>170.0</ele><time>2026-04-23T15:50:33.96Z</time></trkpt><trkpt lat="45.58898947941946" lon="10.11095867567997"><ele>170.0</ele><time>2026-04-23T15:50:37.96Z</time></trkpt><trkpt lat="45.5889978903619" lon="10.110848645667478"><ele>170.0</ele><time>2026-04-23T15:50:42.96Z</time></trkpt><trkpt lat="45.589003019036625" lon="10.11074463241988"><ele>170.0</ele><time>2026-04-23T15:50:47.96Z</time></trkpt><trkpt lat="45.58898492704473" lon="10.110636996971765"><ele>170.0</ele><time>2026-04-23T15:50:51.96Z</time></trkpt><trkpt lat="45.58900965804808" lon="10.110532598152355"><ele>170.0</ele><time>2026-04-23T15:50:55.96Z</time></trkpt><trkpt lat="45.589054063896356" lon="10.110468196825112"><ele>170.0</ele><time>2026-04-23T15:50:58.96Z</time></trkpt><trkpt lat="45.58911121225574" lon="10.11039833765181"><ele>170.0</ele><time>2026-04-23T15:51:01.96Z</time></trkpt><trkpt lat="45.58917489064542" lon="10.110346852451617"><ele>170.0</ele><time>2026-04-23T15:51:03.96Z</time></trkpt><trkpt lat="45.589243516550404" lon="10.110345219262863"><ele>169.66666666666666</ele><time>2026-04-23T15:51:05.96Z</time></trkpt><trkpt lat="45.589330451802425" lon="10.110342165008905"><ele>169.33333333333331</ele><time>2026-04-23T15:51:08.96Z</time></trkpt><trkpt lat="45.58941793597974" lon="10.110293601308573"><ele>169.0</ele><time>2026-04-23T15:51:11.96Z</time></trkpt><trkpt lat="45.589481270230785" lon="10.11026927607819"><ele>168.66666666666666</ele><time>2026-04-23T15:51:13.96Z</time></trkpt><trkpt lat="45.58954457010394" lon="10.110244840323961"><ele>168.33333333333334</ele><time>2026-04-23T15:51:15.96Z</time></trkpt><trkpt lat="45.5896383617332" lon="10.110235848030799"><ele>168.0</ele><time>2026-04-23T15:51:18.96Z</time></trkpt><trkpt lat="45.58972485815186" lon="10.110238401135433"><ele>168.0</ele><time>2026-04-23T15:51:21.96Z</time></trkpt><trkpt lat="45.58980819942716" lon="10.110261356950664"><ele>168.0</ele><time>2026-04-23T15:51:24.96Z</time></trkpt><trkpt lat="45.5898726486758" lon="10.110251656419482"><ele>168.0</ele><time>2026-04-23T15:51:26.96Z</time></trkpt><trkpt lat="45.58996385495225" lon="10.110241262125776"><ele>168.0</ele><time>2026-04-23T15:51:29.96Z</time></trkpt><trkpt lat="45.59006427596344" lon="10.110244008655222"><ele>168.0</ele><time>2026-04-23T15:51:32.96Z</time></trkpt><trkpt lat="45.59012987451435" lon="10.110212501370984"><ele>168.0</ele><time>2026-04-23T15:51:34.96Z</time></trkpt><trkpt lat="45.59019629205272" lon="10.110211145728623"><ele>168.0</ele><time>2026-04-23T15:51:36.96Z</time></trkpt><trkpt lat="45.590262095611926" lon="10.110184208214115"><ele>168.0</ele><time>2026-04-23T15:51:38.96Z</time></trkpt><trkpt lat="45.59032894919892" lon="10.110171382741095"><ele>168.0</ele><time>2026-04-23T15:51:40.96Z</time></trkpt><trkpt lat="45.59041940355425" lon="10.110156694293028"><ele>168.0</ele><time>2026-04-23T15:51:43.96Z</time></trkpt><trkpt lat="45.590516571762954" lon="10.110121522309457"><ele>168.0</ele><time>2026-04-23T15:51:46.96Z</time></trkpt><trkpt lat="45.590610614704694" lon="10.110125526190687"><ele>168.0</ele><time>2026-04-23T15:51:49.96Z</time></trkpt><trkpt lat="45.590674020992154" lon="10.110113314473972"><ele>168.16666666666666</ele><time>2026-04-23T15:51:51.96Z</time></trkpt><trkpt lat="45.59076637848604" lon="10.110102915901837"><ele>168.33333333333334</ele><time>2026-04-23T15:51:54.96Z</time></trkpt><trkpt lat="45.590828982625965" lon="10.110090433390779"><ele>168.5</ele><time>2026-04-23T15:51:56.961Z</time></trkpt><trkpt lat="45.59089330931248" lon="10.110088486312515"><ele>168.66666666666669</ele><time>2026-04-23T15:51:58.961Z</time></trkpt><trkpt lat="45.590975983992735" lon="10.11009194488608"><ele>168.83333333333334</ele><time>2026-04-23T15:52:01.961Z</time></trkpt><trkpt lat="45.59106237448554" lon="10.11008203300709"><ele>169.0</ele><time>2026-04-23T15:52:04.961Z</time></trkpt><trkpt lat="45.59112679240268" lon="10.11008931568331"><ele>169.16666666666669</ele><time>2026-04-23T15:52:06.961Z</time></trkpt><trkpt lat="45.591195317071424" lon="10.110088331786333"><ele>169.33333333333334</ele><time>2026-04-23T15:52:08.961Z</time></trkpt><trkpt lat="45.591286865088286" lon="10.110098699114694"><ele>169.5</ele><time>2026-04-23T15:52:11.961Z</time></trkpt><trkpt lat="45.591359608856486" lon="10.110103292528105"><ele>169.66666666666666</ele><time>2026-04-23T15:52:13.961Z</time></trkpt><trkpt lat="45.59144619536498" lon="10.110105261205506"><ele>169.83333333333331</ele><time>2026-04-23T15:52:16.961Z</time></trkpt><trkpt lat="45.59151283505457" lon="10.110120736714629"><ele>170.0</ele><time>2026-04-23T15:52:18.961Z</time></trkpt><trkpt lat="45.59157687906957" lon="10.110147333572337"><ele>170.0</ele><time>2026-04-23T15:52:20.957Z</time></trkpt><trkpt lat="45.59167167857244" lon="10.11017633844772"><ele>170.0</ele><time>2026-04-23T15:52:23.957Z</time></trkpt><trkpt lat="45.59174500425843" lon="10.110145060875091"><ele>170.0</ele><time>2026-04-23T15:52:25.957Z</time></trkpt><trkpt lat="45.59182534388978" lon="10.110193986459622"><ele>170.0</ele><time>2026-04-23T15:52:28.957Z</time></trkpt><trkpt lat="45.59189333858504" lon="10.110272545084896"><ele>170.0</ele><time>2026-04-23T15:52:31.956Z</time></trkpt><trkpt lat="45.59194763650666" lon="10.110323095963066"><ele>170.0</ele><time>2026-04-23T15:52:33.957Z</time></trkpt><trkpt lat="45.59202187321165" lon="10.110395436817646"><ele>170.0</ele><time>2026-04-23T15:52:36.957Z</time></trkpt><trkpt lat="45.59207726342487" lon="10.110454712735516"><ele>170.0</ele><time>2026-04-23T15:52:38.957Z</time></trkpt><trkpt lat="45.5921476125109" lon="10.110538720376113"><ele>170.0</ele><time>2026-04-23T15:52:41.957Z</time></trkpt><trkpt lat="45.59220696576556" lon="10.110586104183746"><ele>170.0</ele><time>2026-04-23T15:52:43.957Z</time></trkpt><trkpt lat="45.59227064445347" lon="10.110635739544632"><ele>170.0</ele><time>2026-04-23T15:52:45.957Z</time></trkpt><trkpt lat="45.59232197485491" lon="10.11070456804225"><ele>170.0</ele><time>2026-04-23T15:52:47.957Z</time></trkpt><trkpt lat="45.592385466826165" lon="10.110752914080845"><ele>170.0</ele><time>2026-04-23T15:52:49.957Z</time></trkpt><trkpt lat="45.5924478341158" lon="10.11079503848676"><ele>170.0</ele><time>2026-04-23T15:52:51.957Z</time></trkpt><trkpt lat="45.59252550582244" lon="10.110791572037503"><ele>170.0</ele><time>2026-04-23T15:52:53.957Z</time></trkpt><trkpt lat="45.59274122892926" lon="10.110802599481737"><ele>170.0</ele><time>2026-04-23T15:53:04.957Z</time></trkpt><trkpt lat="45.592818770968556" lon="10.110802952292993"><ele>170.0</ele><time>2026-04-23T15:53:09.957Z</time></trkpt><trkpt lat="45.59288153090496" lon="10.11082593141446"><ele>170.0</ele><time>2026-04-23T15:53:14.957Z</time></trkpt><trkpt lat="45.592942392263126" lon="10.110858866735308"><ele>170.2</ele><time>2026-04-23T15:53:22.957Z</time></trkpt><trkpt lat="45.59309167679294" lon="10.110885410579108"><ele>170.4</ele><time>2026-04-23T15:53:35.957Z</time></trkpt><trkpt lat="45.59315665363137" lon="10.110915844612338"><ele>170.60000000000002</ele><time>2026-04-23T15:53:37.957Z</time></trkpt><trkpt lat="45.59326046472681" lon="10.110905918382548"><ele>170.8</ele><time>2026-04-23T15:53:39.957Z</time></trkpt><trkpt lat="45.59333278973664" lon="10.110916311368728"><ele>171.0</ele><time>2026-04-23T15:53:43.957Z</time></trkpt><trkpt lat="45.593399697258285" lon="10.110917122663441"><ele>171.0</ele><time>2026-04-23T15:53:50.957Z</time></trkpt><trkpt lat="45.593487383826336" lon="10.11091434775155"><ele>171.0</ele><time>2026-04-23T15:53:55.957Z</time></trkpt><trkpt lat="45.59355246647493" lon="10.110913825851073"><ele>171.0</ele><time>2026-04-23T15:53:58.958Z</time></trkpt><trkpt lat="45.59363209837824" lon="10.110908097563351"><ele>171.0</ele><time>2026-04-23T15:54:02.958Z</time></trkpt><trkpt lat="45.59369628443214" lon="10.110898451503676"><ele>171.0</ele><time>2026-04-23T15:54:05.958Z</time></trkpt><trkpt lat="45.59377300587924" lon="10.11087861947035"><ele>171.0</ele><time>2026-04-23T15:54:08.958Z</time></trkpt><trkpt lat="45.593865701181144" lon="10.110870197172895"><ele>171.0</ele><time>2026-04-23T15:54:11.958Z</time></trkpt><trkpt lat="45.593951620087545" lon="10.1108615254129"><ele>171.0</ele><time>2026-04-23T15:54:14.958Z</time></trkpt><trkpt lat="45.59403659691996" lon="10.110858279265523"><ele>171.0</ele><time>2026-04-23T15:54:17.958Z</time></trkpt><trkpt lat="45.594128239795616" lon="10.110820984239055"><ele>171.0</ele><time>2026-04-23T15:54:20.958Z</time></trkpt><trkpt lat="45.59421797274216" lon="10.110760730886652"><ele>171.0</ele><time>2026-04-23T15:54:23.958Z</time></trkpt><trkpt lat="45.59429383604981" lon="10.110703212082512"><ele>171.16666666666666</ele><time>2026-04-23T15:54:26.954Z</time></trkpt><trkpt lat="45.59435959300146" lon="10.110685352661653"><ele>171.33333333333334</ele><time>2026-04-23T15:54:28.955Z</time></trkpt><trkpt lat="45.59440588294743" lon="10.110623867651757"><ele>171.5</ele><time>2026-04-23T15:54:30.955Z</time></trkpt><trkpt lat="45.59447426390155" lon="10.110547935072846"><ele>171.66666666666669</ele><time>2026-04-23T15:54:33.954Z</time></trkpt><trkpt lat="45.594543192253724" lon="10.110466604550247"><ele>171.83333333333334</ele><time>2026-04-23T15:54:36.954Z</time></trkpt><trkpt lat="45.59462836290759" lon="10.110421503056788"><ele>172.0</ele><time>2026-04-23T15:54:39.954Z</time></trkpt><trkpt lat="45.59470821737816" lon="10.110382965378127"><ele>172.0</ele><time>2026-04-23T15:54:42.954Z</time></trkpt><trkpt lat="45.5947710608266" lon="10.110350881199343"><ele>172.0</ele><time>2026-04-23T15:54:44.954Z</time></trkpt><trkpt lat="45.59484624359331" lon="10.110311227528348"><ele>172.0</ele><time>2026-04-23T15:54:47.954Z</time></trkpt><trkpt lat="45.59492611767227" lon="10.110252927641161"><ele>172.0</ele><time>2026-04-23T15:54:50.954Z</time></trkpt><trkpt lat="45.59497679435338" lon="10.110167083407758"><ele>172.0</ele><time>2026-04-23T15:54:53.954Z</time></trkpt><trkpt lat="45.59503089584392" lon="10.110110810826558"><ele>172.0</ele><time>2026-04-23T15:54:56.954Z</time></trkpt><trkpt lat="45.59508667980521" lon="10.11005107377942"><ele>172.0</ele><time>2026-04-23T15:54:59.954Z</time></trkpt><trkpt lat="45.595149679118265" lon="10.110005655266804"><ele>172.0</ele><time>2026-04-23T15:55:01.954Z</time></trkpt><trkpt lat="45.59519921530318" lon="10.109947062972578"><ele>172.0</ele><time>2026-04-23T15:55:03.954Z</time></trkpt><trkpt lat="45.595241037836885" lon="10.109846497818985"><ele>172.0</ele><time>2026-04-23T15:55:06.954Z</time></trkpt><trkpt lat="45.59528830182737" lon="10.109746699530856"><ele>172.0</ele><time>2026-04-23T15:55:09.954Z</time></trkpt><trkpt lat="45.595342597909074" lon="10.109643375117342"><ele>172.0</ele><time>2026-04-23T15:55:12.955Z</time></trkpt><trkpt lat="45.595403945280296" lon="10.109556735262421"><ele>172.42857142857144</ele><time>2026-04-23T15:55:15.955Z</time></trkpt><trkpt lat="45.59544785117526" lon="10.109481792016087"><ele>172.85714285714286</ele><time>2026-04-23T15:55:17.955Z</time></trkpt><trkpt lat="45.595491567421114" lon="10.10941546248362"><ele>173.28571428571428</ele><time>2026-04-23T15:55:19.955Z</time></trkpt><trkpt lat="45.595541104175425" lon="10.109348144981858"><ele>173.71428571428572</ele><time>2026-04-23T15:55:21.955Z</time></trkpt><trkpt lat="45.595580096374455" lon="10.109255944402685"><ele>174.14285714285714</ele><time>2026-04-23T15:55:23.955Z</time></trkpt><trkpt lat="45.59561141839443" lon="10.109169328966372"><ele>174.57142857142858</ele><time>2026-04-23T15:55:25.955Z</time></trkpt><trkpt lat="45.59565714468911" lon="10.109083965079188"><ele>175.0</ele><time>2026-04-23T15:55:28.955Z</time></trkpt><trkpt lat="45.595681956673474" lon="10.109000518484004"><ele>175.16666666666669</ele><time>2026-04-23T15:55:30.955Z</time></trkpt><trkpt lat="45.595758023748324" lon="10.108945472420773"><ele>175.33333333333334</ele><time>2026-04-23T15:55:33.955Z</time></trkpt><trkpt lat="45.59582984521849" lon="10.108904492873592"><ele>175.5</ele><time>2026-04-23T15:55:36.955Z</time></trkpt><trkpt lat="45.59590418696899" lon="10.108864456069627"><ele>175.66666666666666</ele><time>2026-04-23T15:55:39.955Z</time></trkpt><trkpt lat="45.59598271029023" lon="10.108830749564078"><ele>175.83333333333331</ele><time>2026-04-23T15:55:42.955Z</time></trkpt><trkpt lat="45.596069305974886" lon="10.10879121453066"><ele>176.0</ele><time>2026-04-23T15:55:45.955Z</time></trkpt><trkpt lat="45.596144470111625" lon="10.108764768553629"><ele>175.71428571428572</ele><time>2026-04-23T15:55:48.955Z</time></trkpt><trkpt lat="45.59623006334834" lon="10.108733096529049"><ele>175.42857142857142</ele><time>2026-04-23T15:55:51.955Z</time></trkpt><trkpt lat="45.59629652411466" lon="10.10873154965922"><ele>175.14285714285714</ele><time>2026-04-23T15:55:53.955Z</time></trkpt><trkpt lat="45.596359776078174" lon="10.108721726900106"><ele>174.85714285714286</ele><time>2026-04-23T15:55:55.955Z</time></trkpt><trkpt lat="45.59643428726388" lon="10.108734060201005"><ele>174.57142857142858</ele><time>2026-04-23T15:56:00.955Z</time></trkpt><trkpt lat="45.59650254350192" lon="10.10872428755662"><ele>174.28571428571428</ele><time>2026-04-23T15:56:02.955Z</time></trkpt><trkpt lat="45.596576358318636" lon="10.108677794285063"><ele>174.0</ele><time>2026-04-23T15:56:04.955Z</time></trkpt><trkpt lat="45.59664534242865" lon="10.108664909615642"><ele>174.0</ele><time>2026-04-23T15:56:06.955Z</time></trkpt><trkpt lat="45.59673546116292" lon="10.108636735008385"><ele>174.0</ele><time>2026-04-23T15:56:09.955Z</time></trkpt><trkpt lat="45.596826653842555" lon="10.108598911939238"><ele>174.0</ele><time>2026-04-23T15:56:12.955Z</time></trkpt><trkpt lat="45.59691073595941" lon="10.108551412159896"><ele>174.0</ele><time>2026-04-23T15:56:15.955Z</time></trkpt><trkpt lat="45.596970603356" lon="10.108522313093735"><ele>174.0</ele><time>2026-04-23T15:56:17.955Z</time></trkpt><trkpt lat="45.59703660850515" lon="10.10845579669868"><ele>174.0</ele><time>2026-04-23T15:56:20.955Z</time></trkpt><trkpt lat="45.59708502189414" lon="10.108397970498688"><ele>174.16666666666666</ele><time>2026-04-23T15:56:22.955Z</time></trkpt><trkpt lat="45.5971609765049" lon="10.10833282523271"><ele>174.33333333333334</ele><time>2026-04-23T15:56:25.955Z</time></trkpt><trkpt lat="45.59724218721914" lon="10.108295507912787"><ele>174.5</ele><time>2026-04-23T15:56:28.955Z</time></trkpt><trkpt lat="45.597323453193866" lon="10.108295972962319"><ele>174.66666666666669</ele><time>2026-04-23T15:56:31.955Z</time></trkpt><trkpt lat="45.5973798604225" lon="10.108209449179833"><ele>174.83333333333334</ele><time>2026-04-23T15:56:34.951Z</time></trkpt><trkpt lat="45.597405775407935" lon="10.108095851154319"><ele>175.0</ele><time>2026-04-23T15:56:37.951Z</time></trkpt><trkpt lat="45.59743613388548" lon="10.107981267455306"><ele>175.0</ele><time>2026-04-23T15:56:40.951Z</time></trkpt><trkpt lat="45.59746161586741" lon="10.107865910786536"><ele>175.0</ele><time>2026-04-23T15:56:43.951Z</time></trkpt><trkpt lat="45.59749253233198" lon="10.107754480379572"><ele>175.0</ele><time>2026-04-23T15:56:46.951Z</time></trkpt><trkpt lat="45.59750861162013" lon="10.107667191231254"><ele>175.0</ele><time>2026-04-23T15:56:48.951Z</time></trkpt><trkpt lat="45.59753509304713" lon="10.107547280170225"><ele>175.0</ele><time>2026-04-23T15:56:51.951Z</time></trkpt><trkpt lat="45.59756063515235" lon="10.10745977915398"><ele>175.0</ele><time>2026-04-23T15:56:53.951Z</time></trkpt><trkpt lat="45.597602062214605" lon="10.1073587228127"><ele>175.0</ele><time>2026-04-23T15:56:56.951Z</time></trkpt><trkpt lat="45.597635531785464" lon="10.10725291786638"><ele>175.0</ele><time>2026-04-23T15:56:59.951Z</time></trkpt><trkpt lat="45.59767674480691" lon="10.107148456929062"><ele>175.0</ele><time>2026-04-23T15:57:02.951Z</time></trkpt><trkpt lat="45.59771165647197" lon="10.107038526610836"><ele>175.0</ele><time>2026-04-23T15:57:05.951Z</time></trkpt><trkpt lat="45.59774538679829" lon="10.106928232582938"><ele>175.0</ele><time>2026-04-23T15:57:08.951Z</time></trkpt><trkpt lat="45.597776160815215" lon="10.106825801629784"><ele>175.0</ele><time>2026-04-23T15:57:11.951Z</time></trkpt><trkpt lat="45.597812606449125" lon="10.106715905421584"><ele>175.5</ele><time>2026-04-23T15:57:14.951Z</time></trkpt><trkpt lat="45.59785428356946" lon="10.106622744779513"><ele>176.0</ele><time>2026-04-23T15:57:17.951Z</time></trkpt><trkpt lat="45.59788125462094" lon="10.106507844383216"><ele>176.5</ele><time>2026-04-23T15:57:20.951Z</time></trkpt><trkpt lat="45.597902074888275" lon="10.106379811348688"><ele>177.0</ele><time>2026-04-23T15:57:23.951Z</time></trkpt><trkpt lat="45.59794505159819" lon="10.106287088667091"><ele>177.5</ele><time>2026-04-23T15:57:26.951Z</time></trkpt><trkpt lat="45.598008111435675" lon="10.106270397138204"><ele>178.0</ele><time>2026-04-23T15:57:28.951Z</time></trkpt><trkpt lat="45.59808520743191" lon="10.106312255047436"><ele>178.16666666666669</ele><time>2026-04-23T15:57:31.951Z</time></trkpt><trkpt lat="45.59814854926865" lon="10.10634450795615"><ele>178.33333333333334</ele><time>2026-04-23T15:57:34.951Z</time></trkpt><trkpt lat="45.59822678105951" lon="10.106335641209247"><ele>178.5</ele><time>2026-04-23T15:57:37.951Z</time></trkpt><trkpt lat="45.598303369920394" lon="10.106366436038792"><ele>178.66666666666666</ele><time>2026-04-23T15:57:40.951Z</time></trkpt><trkpt lat="45.59837737307112" lon="10.106403692598894"><ele>178.83333333333331</ele><time>2026-04-23T15:57:43.951Z</time></trkpt><trkpt lat="45.598466570424456" lon="10.10644344250526"><ele>179.0</ele><time>2026-04-23T15:57:46.951Z</time></trkpt><trkpt lat="45.5985504547183" lon="10.106458320927313"><ele>179.0</ele><time>2026-04-23T15:57:49.951Z</time></trkpt><trkpt lat="45.5986185017006" lon="10.10647727749218"><ele>179.0</ele><time>2026-04-23T15:57:51.951Z</time></trkpt><trkpt lat="45.59869767073759" lon="10.106533917699299"><ele>179.0</ele><time>2026-04-23T15:57:54.951Z</time></trkpt><trkpt lat="45.59876979281973" lon="10.106597088078887"><ele>179.0</ele><time>2026-04-23T15:57:57.951Z</time></trkpt><trkpt lat="45.59884849968227" lon="10.106648263773517"><ele>179.0</ele><time>2026-04-23T15:58:00.951Z</time></trkpt><trkpt lat="45.59890974799379" lon="10.106671501391471"><ele>179.0</ele><time>2026-04-23T15:58:02.951Z</time></trkpt><trkpt lat="45.59898975483147" lon="10.106713352652877"><ele>178.83333333333331</ele><time>2026-04-23T15:58:05.951Z</time></trkpt><trkpt lat="45.59905994842174" lon="10.106774478836517"><ele>178.66666666666666</ele><time>2026-04-23T15:58:08.951Z</time></trkpt><trkpt lat="45.59913459941267" lon="10.10683029973384"><ele>178.5</ele><time>2026-04-23T15:58:11.951Z</time></trkpt><trkpt lat="45.59920130912917" lon="10.106909922314447"><ele>178.33333333333334</ele><time>2026-04-23T15:58:14.951Z</time></trkpt><trkpt lat="45.5992750731614" lon="10.10696834623114"><ele>178.16666666666669</ele><time>2026-04-23T15:58:17.951Z</time></trkpt><trkpt lat="45.599346498009616" lon="10.107047908117291"><ele>178.0</ele><time>2026-04-23T15:58:20.951Z</time></trkpt><trkpt lat="45.599416804257565" lon="10.107110577855753"><ele>178.0</ele><time>2026-04-23T15:58:23.951Z</time></trkpt><trkpt lat="45.599501076249844" lon="10.10715777042351"><ele>178.0</ele><time>2026-04-23T15:58:26.951Z</time></trkpt><trkpt lat="45.59956649051398" lon="10.107254012942649"><ele>178.0</ele><time>2026-04-23T15:58:29.951Z</time></trkpt><trkpt lat="45.599618983822175" lon="10.107338235076336"><ele>178.0</ele><time>2026-04-23T15:58:32.951Z</time></trkpt><trkpt lat="45.599681991220564" lon="10.107359632501502"><ele>178.0</ele><time>2026-04-23T15:58:34.951Z</time></trkpt><trkpt lat="45.59976182842939" lon="10.107422108031166"><ele>178.0</ele><time>2026-04-23T15:58:37.951Z</time></trkpt><trkpt lat="45.59982832604945" lon="10.107478873855293"><ele>178.5</ele><time>2026-04-23T15:58:40.948Z</time></trkpt><trkpt lat="45.59988246782997" lon="10.107528714635976"><ele>179.0</ele><time>2026-04-23T15:58:42.948Z</time></trkpt><trkpt lat="45.5999635126602" lon="10.107581243789408"><ele>179.5</ele><time>2026-04-23T15:58:45.948Z</time></trkpt><trkpt lat="45.60003411055993" lon="10.107638079684579"><ele>180.0</ele><time>2026-04-23T15:58:48.948Z</time></trkpt><trkpt lat="45.60011428518112" lon="10.107667973021638"><ele>180.5</ele><time>2026-04-23T15:58:51.948Z</time></trkpt><trkpt lat="45.600167342901294" lon="10.10776195981617"><ele>181.0</ele><time>2026-04-23T15:58:54.948Z</time></trkpt><trkpt lat="45.60023758639991" lon="10.107808915685467"><ele>181.0</ele><time>2026-04-23T15:58:57.948Z</time></trkpt><trkpt lat="45.60030060454024" lon="10.107838141452886"><ele>181.0</ele><time>2026-04-23T15:58:59.948Z</time></trkpt><trkpt lat="45.600395487728534" lon="10.107848202570239"><ele>181.0</ele><time>2026-04-23T15:59:01.948Z</time></trkpt><trkpt lat="45.600472654122335" lon="10.107902129177782"><ele>181.0</ele><time>2026-04-23T15:59:04.948Z</time></trkpt><trkpt lat="45.60054864547184" lon="10.107967938754111"><ele>181.0</ele><time>2026-04-23T15:59:07.949Z</time></trkpt><trkpt lat="45.600630214803864" lon="10.108012173414151"><ele>181.0</ele><time>2026-04-23T15:59:10.949Z</time></trkpt><trkpt lat="45.60070799037705" lon="10.108064336283427"><ele>180.66666666666669</ele><time>2026-04-23T15:59:13.949Z</time></trkpt><trkpt lat="45.60078953233988" lon="10.108087371731008"><ele>180.33333333333334</ele><time>2026-04-23T15:59:16.949Z</time></trkpt><trkpt lat="45.600879096571795" lon="10.108127315829064"><ele>180.0</ele><time>2026-04-23T15:59:19.949Z</time></trkpt><trkpt lat="45.60094121130532" lon="10.1081555960671"><ele>179.66666666666666</ele><time>2026-04-23T15:59:21.949Z</time></trkpt><trkpt lat="45.60102392650217" lon="10.108204225728624"><ele>179.33333333333331</ele><time>2026-04-23T15:59:24.949Z</time></trkpt><trkpt lat="45.60110453541405" lon="10.108236846787483"><ele>179.0</ele><time>2026-04-23T15:59:27.949Z</time></trkpt><trkpt lat="45.60118069748868" lon="10.10830993861354"><ele>179.0</ele><time>2026-04-23T15:59:30.949Z</time></trkpt><trkpt lat="45.60121701260171" lon="10.108384647686707"><ele>179.0</ele><time>2026-04-23T15:59:32.949Z</time></trkpt><trkpt lat="45.60119760069182" lon="10.108509863725622"><ele>179.0</ele><time>2026-04-23T15:59:35.949Z</time></trkpt><trkpt lat="45.60120902373695" lon="10.108640356755823"><ele>179.0</ele><time>2026-04-23T15:59:38.949Z</time></trkpt><trkpt lat="45.601184198486955" lon="10.108759211780553"><ele>179.0</ele><time>2026-04-23T15:59:41.949Z</time></trkpt><trkpt lat="45.60117213951694" lon="10.108870768108973"><ele>179.0</ele><time>2026-04-23T15:59:44.949Z</time></trkpt><trkpt lat="45.601162255331865" lon="10.108982459083935"><ele>178.5</ele><time>2026-04-23T15:59:47.949Z</time></trkpt><trkpt lat="45.60115295516057" lon="10.109098090084295"><ele>178.0</ele><time>2026-04-23T15:59:50.949Z</time></trkpt><trkpt lat="45.60113798974938" lon="10.109190421020385"><ele>177.5</ele><time>2026-04-23T15:59:52.949Z</time></trkpt><trkpt lat="45.6011229906275" lon="10.109282488354372"><ele>177.0</ele><time>2026-04-23T15:59:54.949Z</time></trkpt><trkpt lat="45.60108589166059" lon="10.10938025910286"><ele>176.5</ele><time>2026-04-23T15:59:57.949Z</time></trkpt><trkpt lat="45.60107727266663" lon="10.109491242390465"><ele>176.0</ele><time>2026-04-23T16:00:00.949Z</time></trkpt><trkpt lat="45.601058610158816" lon="10.109610599221092"><ele>176.0</ele><time>2026-04-23T16:00:03.949Z</time></trkpt><trkpt lat="45.60103842063058" lon="10.109728385634012"><ele>176.0</ele><time>2026-04-23T16:00:06.949Z</time></trkpt><trkpt lat="45.601017613959165" lon="10.109842337817081"><ele>176.0</ele><time>2026-04-23T16:00:09.949Z</time></trkpt><trkpt lat="45.60099736332322" lon="10.10996140739687"><ele>176.0</ele><time>2026-04-23T16:00:12.949Z</time></trkpt><trkpt lat="45.60098769633485" lon="10.110070341328585"><ele>176.0</ele><time>2026-04-23T16:00:16.949Z</time></trkpt><trkpt lat="45.60097151904849" lon="10.110163432575277"><ele>176.0</ele><time>2026-04-23T16:00:20.949Z</time></trkpt><trkpt lat="45.60095209248228" lon="10.110260205855104"><ele>176.14285714285714</ele><time>2026-04-23T16:00:27.949Z</time></trkpt><trkpt lat="45.60098996299372" lon="10.110342046400389"><ele>176.28571428571428</ele><time>2026-04-23T16:00:32.949Z</time></trkpt><trkpt lat="45.60106363581266" lon="10.110379391096412"><ele>176.42857142857144</ele><time>2026-04-23T16:00:37.949Z</time></trkpt><trkpt lat="45.601128445429" lon="10.11042173556805"><ele>176.57142857142856</ele><time>2026-04-23T16:00:43.949Z</time></trkpt><trkpt lat="45.60118985988563" lon="10.110475741919272"><ele>176.7142857142857</ele><time>2026-04-23T16:00:49.946Z</time></trkpt><trkpt lat="45.60123962945092" lon="10.110539600936534"><ele>176.85714285714286</ele><time>2026-04-23T16:00:53.945Z</time></trkpt><trkpt lat="45.60127854077099" lon="10.110613384071204"><ele>177.0</ele><time>2026-04-23T16:00:56.946Z</time></trkpt><trkpt lat="45.60134288679051" lon="10.110680181706247"><ele>177.57142857142858</ele><time>2026-04-23T16:01:00.945Z</time></trkpt><trkpt lat="45.601405870973565" lon="10.110730747895678"><ele>178.14285714285714</ele><time>2026-04-23T16:01:05.945Z</time></trkpt><trkpt lat="45.60146499574646" lon="10.110774412873438"><ele>178.71428571428572</ele><time>2026-04-23T16:01:09.945Z</time></trkpt><trkpt lat="45.60152997606844" lon="10.110819027434545"><ele>179.28571428571428</ele><time>2026-04-23T16:01:14.945Z</time></trkpt><trkpt lat="45.60158737722384" lon="10.110865578144455"><ele>179.85714285714283</ele><time>2026-04-23T16:01:18.945Z</time></trkpt><trkpt lat="45.60164367516155" lon="10.110907584253333"><ele>180.42857142857142</ele><time>2026-04-23T16:01:23.945Z</time></trkpt><trkpt lat="45.601704238479535" lon="10.110968844024745"><ele>181.0</ele><time>2026-04-23T16:01:28.945Z</time></trkpt><trkpt lat="45.60175522259047" lon="10.111043967766319"><ele>181.28571428571428</ele><time>2026-04-23T16:01:34.946Z</time></trkpt><trkpt lat="45.601801701968604" lon="10.111127609846315"><ele>181.57142857142856</ele><time>2026-04-23T16:01:39.946Z</time></trkpt><trkpt lat="45.60185282945599" lon="10.111192670375887"><ele>181.85714285714286</ele><time>2026-04-23T16:01:44.946Z</time></trkpt><trkpt lat="45.601911220105016" lon="10.111237415168548"><ele>182.14285714285714</ele><time>2026-04-23T16:01:48.946Z</time></trkpt><trkpt lat="45.60197325840124" lon="10.11127153116753"><ele>182.42857142857144</ele><time>2026-04-23T16:01:52.946Z</time></trkpt><trkpt lat="45.60198777405428" lon="10.11136354873816"><ele>182.71428571428572</ele><time>2026-04-23T16:01:58.946Z</time></trkpt><trkpt lat="45.601994164081525" lon="10.111458452397567"><ele>183.0</ele><time>2026-04-23T16:02:04.946Z</time></trkpt><trkpt lat="45.60193427048864" lon="10.111489605818843"><ele>183.0</ele><time>2026-04-23T16:02:12.946Z</time></trkpt><trkpt lat="45.601853654264055" lon="10.111490935615972"><ele>183.0</ele><time>2026-04-23T16:02:16.946Z</time></trkpt><trkpt lat="45.601789155753195" lon="10.111481934434227"><ele>183.0</ele><time>2026-04-23T16:02:20.946Z</time></trkpt><trkpt lat="45.60171210734837" lon="10.111475342022155"><ele>183.0</ele><time>2026-04-23T16:02:23.946Z</time></trkpt><trkpt lat="45.60164644195736" lon="10.111427265368091"><ele>183.0</ele><time>2026-04-23T16:02:25.946Z</time></trkpt><trkpt lat="45.60158633663501" lon="10.111347781201856"><ele>183.0</ele><time>2026-04-23T16:02:27.946Z</time></trkpt><trkpt lat="45.6015432428508" lon="10.111245044949538"><ele>183.0</ele><time>2026-04-23T16:02:29.946Z</time></trkpt><trkpt lat="45.60150452547108" lon="10.111156177352443"><ele>183.0</ele><time>2026-04-23T16:02:31.946Z</time></trkpt><trkpt lat="45.6014555470685" lon="10.11106311527175"><ele>183.0</ele><time>2026-04-23T16:02:33.946Z</time></trkpt><trkpt lat="45.60137630360201" lon="10.11098957287011"><ele>183.0</ele><time>2026-04-23T16:02:35.946Z</time></trkpt><trkpt lat="45.601307593742014" lon="10.110884372349343"><ele>183.0</ele><time>2026-04-23T16:02:37.946Z</time></trkpt><trkpt lat="45.601248083970034" lon="10.11080475174998"><ele>183.0</ele><time>2026-04-23T16:02:39.946Z</time></trkpt><trkpt lat="45.60119477032558" lon="10.11072687594931"><ele>182.14285714285714</ele><time>2026-04-23T16:02:41.946Z</time></trkpt><trkpt lat="45.601127845137334" lon="10.110672650228983"><ele>181.28571428571428</ele><time>2026-04-23T16:02:43.946Z</time></trkpt><trkpt lat="45.60106734317392" lon="10.110646200728128"><ele>180.42857142857144</ele><time>2026-04-23T16:02:45.946Z</time></trkpt><trkpt lat="45.60100787848794" lon="10.110613052959216"><ele>179.57142857142856</ele><time>2026-04-23T16:02:47.946Z</time></trkpt><trkpt lat="45.60091580566667" lon="10.110590238397423"><ele>178.7142857142857</ele><time>2026-04-23T16:02:50.942Z</time></trkpt><trkpt lat="45.6008478298539" lon="10.110576070183551"><ele>177.85714285714286</ele><time>2026-04-23T16:02:52.943Z</time></trkpt><trkpt lat="45.60078294004136" lon="10.110562488644689"><ele>177.0</ele><time>2026-04-23T16:02:54.942Z</time></trkpt><trkpt lat="45.600693908080025" lon="10.110550074316846"><ele>177.0</ele><time>2026-04-23T16:02:57.942Z</time></trkpt><trkpt lat="45.600609025919425" lon="10.110546511272558"><ele>177.0</ele><time>2026-04-23T16:03:00.945Z</time></trkpt><trkpt lat="45.60052174115425" lon="10.11055000801765"><ele>177.0</ele><time>2026-04-23T16:03:03.947Z</time></trkpt><trkpt lat="45.600452876669564" lon="10.11055968855201"><ele>177.0</ele><time>2026-04-23T16:03:05.948Z</time></trkpt><trkpt lat="45.600386226379676" lon="10.110576339670576"><ele>177.0</ele><time>2026-04-23T16:03:07.949Z</time></trkpt><trkpt lat="45.60032389927787" lon="10.11060888522075"><ele>177.0</ele><time>2026-04-23T16:03:09.95Z</time></trkpt><trkpt lat="45.60025120351234" lon="10.110608505041402"><ele>177.0</ele><time>2026-04-23T16:03:11.951Z</time></trkpt><trkpt lat="45.60018377509848" lon="10.11061691964312"><ele>177.14285714285714</ele><time>2026-04-23T16:03:13.952Z</time></trkpt><trkpt lat="45.600121140665784" lon="10.110646726493693"><ele>177.28571428571428</ele><time>2026-04-23T16:03:15.952Z</time></trkpt><trkpt lat="45.60005463973316" lon="10.11068283355252"><ele>177.42857142857142</ele><time>2026-04-23T16:03:17.953Z</time></trkpt><trkpt lat="45.600000894227776" lon="10.110731578619799"><ele>177.57142857142856</ele><time>2026-04-23T16:03:19.953Z</time></trkpt><trkpt lat="45.59993395766985" lon="10.110807137496387"><ele>177.71428571428572</ele><time>2026-04-23T16:03:22.954Z</time></trkpt><trkpt lat="45.59989245555958" lon="10.110884651506165"><ele>177.85714285714283</ele><time>2026-04-23T16:03:24.954Z</time></trkpt><trkpt lat="45.59982940574008" lon="10.110976173306405"><ele>178.0</ele><time>2026-04-23T16:03:27.955Z</time></trkpt><trkpt lat="45.59977342424902" lon="10.111081870869008"><ele>178.0</ele><time>2026-04-23T16:03:30.955Z</time></trkpt><trkpt lat="45.599716556504276" lon="10.111188812554483"><ele>178.0</ele><time>2026-04-23T16:03:33.955Z</time></trkpt><trkpt lat="45.59967494798091" lon="10.111268594293445"><ele>178.0</ele><time>2026-04-23T16:03:35.956Z</time></trkpt><trkpt lat="45.59961024393517" lon="10.11134682567767"><ele>178.0</ele><time>2026-04-23T16:03:38.956Z</time></trkpt><trkpt lat="45.599552964172375" lon="10.11139207166028"><ele>178.0</ele><time>2026-04-23T16:03:40.956Z</time></trkpt><trkpt lat="45.599486550236946" lon="10.11145612343105"><ele>178.0</ele><time>2026-04-23T16:03:43.956Z</time></trkpt><trkpt lat="45.59939794681267" lon="10.111461332377043"><ele>177.5</ele><time>2026-04-23T16:03:46.956Z</time></trkpt><trkpt lat="45.59930966109793" lon="10.111481209877722"><ele>177.0</ele><time>2026-04-23T16:03:49.957Z</time></trkpt><trkpt lat="45.599217268787854" lon="10.11150079040698"><ele>176.5</ele><time>2026-04-23T16:03:52.957Z</time></trkpt><trkpt lat="45.599127143224614" lon="10.111509160695059"><ele>176.0</ele><time>2026-04-23T16:03:55.957Z</time></trkpt><trkpt lat="45.599046776692916" lon="10.111500474065513"><ele>175.5</ele><time>2026-04-23T16:03:58.957Z</time></trkpt><trkpt lat="45.598978644970664" lon="10.111497769552999"><ele>175.0</ele><time>2026-04-23T16:04:00.957Z</time></trkpt><trkpt lat="45.598915517607104" lon="10.111477811680489"><ele>175.0</ele><time>2026-04-23T16:04:02.957Z</time></trkpt><trkpt lat="45.59885357871211" lon="10.111457039586776"><ele>175.0</ele><time>2026-04-23T16:04:04.957Z</time></trkpt><trkpt lat="45.598786636688686" lon="10.111442584820423"><ele>175.0</ele><time>2026-04-23T16:04:07.957Z</time></trkpt><trkpt lat="45.59871109836952" lon="10.111420033210992"><ele>175.0</ele><time>2026-04-23T16:04:11.957Z</time></trkpt><trkpt lat="45.59864794728661" lon="10.111385940525992"><ele>175.0</ele><time>2026-04-23T16:04:17.957Z</time></trkpt><trkpt lat="45.598587376599866" lon="10.111347858850678"><ele>175.0</ele><time>2026-04-23T16:04:23.957Z</time></trkpt><trkpt lat="45.59852427429283" lon="10.111297077070626"><ele>175.0</ele><time>2026-04-23T16:04:30.957Z</time></trkpt><trkpt lat="45.59846442809016" lon="10.11124755168398"><ele>174.85714285714286</ele><time>2026-04-23T16:04:35.958Z</time></trkpt><trkpt lat="45.598402597094406" lon="10.111179226792189"><ele>174.71428571428572</ele><time>2026-04-23T16:04:41.958Z</time></trkpt><trkpt lat="45.59835143812373" lon="10.111115545207111"><ele>174.57142857142856</ele><time>2026-04-23T16:04:47.958Z</time></trkpt><trkpt lat="45.59829518406989" lon="10.111059996632425"><ele>174.42857142857144</ele><time>2026-04-23T16:04:54.958Z</time></trkpt><trkpt lat="45.59823863756375" lon="10.11101402501429"><ele>174.28571428571428</ele><time>2026-04-23T16:04:59.954Z</time></trkpt><trkpt lat="45.59816742841897" lon="10.111005131252316"><ele>174.14285714285714</ele><time>2026-04-23T16:05:06.955Z</time></trkpt><trkpt lat="45.59810440479499" lon="10.110986321466338"><ele>174.0</ele><time>2026-04-23T16:05:10.954Z</time></trkpt><trkpt lat="45.59803949779498" lon="10.110962826246327"><ele>174.0</ele><time>2026-04-23T16:05:13.954Z</time></trkpt><trkpt lat="45.59795513229122" lon="10.110945441990417"><ele>174.0</ele><time>2026-04-23T16:05:18.954Z</time></trkpt><trkpt lat="45.59789806452977" lon="10.110906479809865"><ele>174.0</ele><time>2026-04-23T16:05:21.954Z</time></trkpt><trkpt lat="45.59782880446908" lon="10.110834630459065"><ele>174.0</ele><time>2026-04-23T16:05:24.954Z</time></trkpt><trkpt lat="45.59777115663693" lon="10.110771057453285"><ele>174.0</ele><time>2026-04-23T16:05:27.954Z</time></trkpt><trkpt lat="45.59770858323893" lon="10.110736655896114"><ele>174.0</ele><time>2026-04-23T16:05:30.954Z</time></trkpt><trkpt lat="45.59765228708737" lon="10.110782617569706"><ele>174.0</ele><time>2026-04-23T16:05:34.954Z</time></trkpt><trkpt lat="45.59763995274859" lon="10.110888902354418"><ele>174.42857142857142</ele><time>2026-04-23T16:05:37.954Z</time></trkpt><trkpt lat="45.59762342512405" lon="10.110977640141144"><ele>174.85714285714286</ele><time>2026-04-23T16:05:40.954Z</time></trkpt><trkpt lat="45.59758304159794" lon="10.111051788814112"><ele>175.28571428571428</ele><time>2026-04-23T16:05:43.954Z</time></trkpt><trkpt lat="45.59753401977967" lon="10.111120156318709"><ele>175.71428571428572</ele><time>2026-04-23T16:05:46.954Z</time></trkpt><trkpt lat="45.59748979887769" lon="10.111217149031152"><ele>176.14285714285714</ele><time>2026-04-23T16:05:50.954Z</time></trkpt><trkpt lat="45.59743046242206" lon="10.111266228080277"><ele>176.57142857142858</ele><time>2026-04-23T16:05:53.954Z</time></trkpt><trkpt lat="45.59735723573304" lon="10.111339253620033"><ele>177.0</ele><time>2026-04-23T16:05:57.954Z</time></trkpt><trkpt lat="45.597324962324954" lon="10.111431394013849"><ele>177.0</ele><time>2026-04-23T16:06:00.954Z</time></trkpt><trkpt lat="45.59729140246041" lon="10.111533911877773"><ele>177.0</ele><time>2026-04-23T16:06:03.954Z</time></trkpt><trkpt lat="45.59725745364158" lon="10.111624645757164"><ele>177.0</ele><time>2026-04-23T16:06:06.955Z</time></trkpt><trkpt lat="45.59723624613634" lon="10.11171270719965"><ele>177.0</ele><time>2026-04-23T16:06:09.955Z</time></trkpt><trkpt lat="45.59720793994358" lon="10.111799970971491"><ele>177.0</ele><time>2026-04-23T16:06:12.955Z</time></trkpt><trkpt lat="45.59717011866306" lon="10.111876159895422"><ele>177.0</ele><time>2026-04-23T16:06:15.955Z</time></trkpt><trkpt lat="45.59712779295478" lon="10.111958136442675"><ele>177.0</ele><time>2026-04-23T16:06:18.955Z</time></trkpt><trkpt lat="45.5970852800459" lon="10.112047244747997"><ele>176.66666666666666</ele><time>2026-04-23T16:06:21.955Z</time></trkpt><trkpt lat="45.59704351832151" lon="10.112124655383955"><ele>176.33333333333334</ele><time>2026-04-23T16:06:24.955Z</time></trkpt><trkpt lat="45.59700035960728" lon="10.11223036735456"><ele>176.0</ele><time>2026-04-23T16:06:27.955Z</time></trkpt><trkpt lat="45.59697311616474" lon="10.112336910216827"><ele>175.66666666666669</ele><time>2026-04-23T16:06:30.955Z</time></trkpt><trkpt lat="45.59694995968567" lon="10.112446795377148"><ele>175.33333333333334</ele><time>2026-04-23T16:06:33.955Z</time></trkpt><trkpt lat="45.59692635791133" lon="10.11254874583689"><ele>175.0</ele><time>2026-04-23T16:06:36.955Z</time></trkpt><trkpt lat="45.596904952792336" lon="10.112657914386856"><ele>174.66666666666669</ele><time>2026-04-23T16:06:39.955Z</time></trkpt><trkpt lat="45.59688211535191" lon="10.112773465214689"><ele>174.33333333333334</ele><time>2026-04-23T16:06:42.955Z</time></trkpt><trkpt lat="45.59685867886008" lon="10.112876044869898"><ele>174.0</ele><time>2026-04-23T16:06:45.955Z</time></trkpt><trkpt lat="45.59684958121967" lon="10.112981200446312"><ele>173.66666666666666</ele><time>2026-04-23T16:06:48.955Z</time></trkpt><trkpt lat="45.596836655698205" lon="10.113093058788591"><ele>173.33333333333331</ele><time>2026-04-23T16:06:51.955Z</time></trkpt><trkpt lat="45.596820351587205" lon="10.113196591702524"><ele>173.0</ele><time>2026-04-23T16:06:54.955Z</time></trkpt><trkpt lat="45.59681101431781" lon="10.113297738626358"><ele>173.0</ele><time>2026-04-23T16:06:57.955Z</time></trkpt><trkpt lat="45.59679989846358" lon="10.113402905577388"><ele>173.0</ele><time>2026-04-23T16:07:00.955Z</time></trkpt><trkpt lat="45.596789185720006" lon="10.113519191131529"><ele>173.0</ele><time>2026-04-23T16:07:03.952Z</time></trkpt><trkpt lat="45.59678667187902" lon="10.113631697292744"><ele>173.0</ele><time>2026-04-23T16:07:06.952Z</time></trkpt><trkpt lat="45.59679227930633" lon="10.113734803033198"><ele>173.0</ele><time>2026-04-23T16:07:09.952Z</time></trkpt><trkpt lat="45.59681121141803" lon="10.113844382066079"><ele>173.0</ele><time>2026-04-23T16:07:12.952Z</time></trkpt><trkpt lat="45.59682263661938" lon="10.113951785922433"><ele>173.0</ele><time>2026-04-23T16:07:15.953Z</time></trkpt><trkpt lat="45.5968336249575" lon="10.114055519307353"><ele>173.0</ele><time>2026-04-23T16:07:18.953Z</time></trkpt><trkpt lat="45.59684313693482" lon="10.114150772577888"><ele>173.0</ele><time>2026-04-23T16:07:21.953Z</time></trkpt><trkpt lat="45.5968554826122" lon="10.114254966434975"><ele>173.0</ele><time>2026-04-23T16:07:24.953Z</time></trkpt><trkpt lat="45.5968682399437" lon="10.1143602874599"><ele>173.0</ele><time>2026-04-23T16:07:27.953Z</time></trkpt><trkpt lat="45.59687871623411" lon="10.114452941926553"><ele>173.0</ele><time>2026-04-23T16:07:30.953Z</time></trkpt><trkpt lat="45.5968941424534" lon="10.114566859612362"><ele>173.0</ele><time>2026-04-23T16:07:34.953Z</time></trkpt><trkpt lat="45.59690542829285" lon="10.11465568478692"><ele>172.85714285714286</ele><time>2026-04-23T16:07:37.953Z</time></trkpt><trkpt lat="45.59692097650216" lon="10.114745439312559"><ele>172.71428571428572</ele><time>2026-04-23T16:07:40.953Z</time></trkpt><trkpt lat="45.59692817786481" lon="10.114835316299441"><ele>172.57142857142858</ele><time>2026-04-23T16:07:43.953Z</time></trkpt><trkpt lat="45.596950664355546" lon="10.114952893414657"><ele>172.42857142857144</ele><time>2026-04-23T16:07:47.953Z</time></trkpt><trkpt lat="45.59695849234567" lon="10.115043955154784"><ele>172.28571428571428</ele><time>2026-04-23T16:07:50.953Z</time></trkpt><trkpt lat="45.59696216427625" lon="10.115138941075385"><ele>172.14285714285717</ele><time>2026-04-23T16:07:53.953Z</time></trkpt><trkpt lat="45.59697799554902" lon="10.115246278718637"><ele>172.0</ele><time>2026-04-23T16:07:57.953Z</time></trkpt><trkpt lat="45.59699131919506" lon="10.115335534527945"><ele>172.0</ele><time>2026-04-23T16:08:00.953Z</time></trkpt><trkpt lat="45.596999224826426" lon="10.11545541641181"><ele>172.0</ele><time>2026-04-23T16:08:03.953Z</time></trkpt><trkpt lat="45.597012003608086" lon="10.115570446759168"><ele>172.0</ele><time>2026-04-23T16:08:06.953Z</time></trkpt><trkpt lat="45.597022196470455" lon="10.11569622064641"><ele>172.0</ele><time>2026-04-23T16:08:09.953Z</time></trkpt><trkpt lat="45.59705096406934" lon="10.115815142901715"><ele>172.0</ele><time>2026-04-23T16:08:12.953Z</time></trkpt><trkpt lat="45.597058931278184" lon="10.115935284662688"><ele>172.0</ele><time>2026-04-23T16:08:15.953Z</time></trkpt><trkpt lat="45.59707465831064" lon="10.116051527109134"><ele>172.00000000000003</ele><time>2026-04-23T16:08:18.953Z</time></trkpt><trkpt lat="45.597086769204736" lon="10.116167901973492"><ele>172.0</ele><time>2026-04-23T16:08:21.953Z</time></trkpt><trkpt lat="45.59709839710999" lon="10.116270717139157"><ele>172.0</ele><time>2026-04-23T16:08:24.953Z</time></trkpt><trkpt lat="45.59710697262662" lon="10.11636716551529"><ele>172.0</ele><time>2026-04-23T16:08:27.953Z</time></trkpt><trkpt lat="45.597113037974246" lon="10.116479400383382"><ele>172.0</ele><time>2026-04-23T16:08:30.953Z</time></trkpt><trkpt lat="45.59712236126263" lon="10.116577855878973"><ele>172.00000000000003</ele><time>2026-04-23T16:08:33.953Z</time></trkpt><trkpt lat="45.59713201516056" lon="10.116668948785263"><ele>172.0</ele><time>2026-04-23T16:08:36.953Z</time></trkpt><trkpt lat="45.59713147208844" lon="10.116778416147138"><ele>171.85714285714286</ele><time>2026-04-23T16:08:39.953Z</time></trkpt><trkpt lat="45.59712768223239" lon="10.116874494223877"><ele>171.71428571428572</ele><time>2026-04-23T16:08:42.954Z</time></trkpt><trkpt lat="45.59712737224298" lon="10.11698641821541"><ele>171.57142857142856</ele><time>2026-04-23T16:08:45.954Z</time></trkpt><trkpt lat="45.59711698533829" lon="10.117084637140392"><ele>171.42857142857144</ele><time>2026-04-23T16:08:48.954Z</time></trkpt><trkpt lat="45.59709997452355" lon="10.117182469034807"><ele>171.28571428571428</ele><time>2026-04-23T16:08:51.954Z</time></trkpt><trkpt lat="45.59709328499356" lon="10.117291469938282"><ele>171.14285714285714</ele><time>2026-04-23T16:08:54.954Z</time></trkpt><trkpt lat="45.597081442243585" lon="10.117399502649395"><ele>171.0</ele><time>2026-04-23T16:08:57.954Z</time></trkpt><trkpt lat="45.59709565779468" lon="10.117496248834744"><ele>170.83333333333334</ele><time>2026-04-23T16:09:00.954Z</time></trkpt><trkpt lat="45.59708773512432" lon="10.117599460544993"><ele>170.66666666666666</ele><time>2026-04-23T16:09:03.954Z</time></trkpt><trkpt lat="45.59707861141654" lon="10.11769737361534"><ele>170.5</ele><time>2026-04-23T16:09:06.954Z</time></trkpt><trkpt lat="45.59707716007792" lon="10.117810716375317"><ele>170.33333333333331</ele><time>2026-04-23T16:09:09.95Z</time></trkpt><trkpt lat="45.597059495977106" lon="10.117916379364951"><ele>170.16666666666666</ele><time>2026-04-23T16:09:12.95Z</time></trkpt><trkpt lat="45.59704473114765" lon="10.118035373884657"><ele>170.0</ele><time>2026-04-23T16:09:15.95Z</time></trkpt><trkpt lat="45.597039751895686" lon="10.11813646613153"><ele>169.85714285714286</ele><time>2026-04-23T16:09:18.95Z</time></trkpt><trkpt lat="45.59702902530308" lon="10.11824015986289"><ele>169.7142857142857</ele><time>2026-04-23T16:09:21.95Z</time></trkpt><trkpt lat="45.59701140441254" lon="10.118334108534036"><ele>169.57142857142856</ele><time>2026-04-23T16:09:24.95Z</time></trkpt><trkpt lat="45.59698439044365" lon="10.118428485201603"><ele>169.42857142857144</ele><time>2026-04-23T16:09:27.95Z</time></trkpt><trkpt lat="45.59697859312624" lon="10.118536714754153"><ele>169.28571428571428</ele><time>2026-04-23T16:09:30.95Z</time></trkpt><trkpt lat="45.59696568124703" lon="10.118646837837574"><ele>169.14285714285714</ele><time>2026-04-23T16:09:33.95Z</time></trkpt><trkpt lat="45.596951746607594" lon="10.118735901924675"><ele>169.0</ele><time>2026-04-23T16:09:36.95Z</time></trkpt><trkpt lat="45.59695466413164" lon="10.118845583509623"><ele>169.0</ele><time>2026-04-23T16:09:39.95Z</time></trkpt><trkpt lat="45.59695087214085" lon="10.118945586249653"><ele>169.0</ele><time>2026-04-23T16:09:42.95Z</time></trkpt><trkpt lat="45.59694192410308" lon="10.119056042411614"><ele>169.0</ele><time>2026-04-23T16:09:45.95Z</time></trkpt><trkpt lat="45.59693043447811" lon="10.119168525629599"><ele>169.0</ele><time>2026-04-23T16:09:48.95Z</time></trkpt><trkpt lat="45.59692193008727" lon="10.119259707350672"><ele>169.0</ele><time>2026-04-23T16:09:51.95Z</time></trkpt><trkpt lat="45.596910253187794" lon="10.119369221432459"><ele>169.0</ele><time>2026-04-23T16:09:54.951Z</time></trkpt><trkpt lat="45.59690519175282" lon="10.119467440325558"><ele>169.0</ele><time>2026-04-23T16:09:57.951Z</time></trkpt><trkpt lat="45.59690019966106" lon="10.119571063069108"><ele>169.0</ele><time>2026-04-23T16:10:00.951Z</time></trkpt><trkpt lat="45.596892534505855" lon="10.119674145447844"><ele>169.0</ele><time>2026-04-23T16:10:04.951Z</time></trkpt><trkpt lat="45.596892251373426" lon="10.11980584417475"><ele>169.0</ele><time>2026-04-23T16:10:09.951Z</time></trkpt><trkpt lat="45.596894993296814" lon="10.119920957570367"><ele>169.0</ele><time>2026-04-23T16:10:12.951Z</time></trkpt><trkpt lat="45.59689365697782" lon="10.120019851909898"><ele>169.0</ele><time>2026-04-23T16:10:15.951Z</time></trkpt><trkpt lat="45.59689341053598" lon="10.120122232173282"><ele>169.0</ele><time>2026-04-23T16:10:18.951Z</time></trkpt><trkpt lat="45.59687901379534" lon="10.12022823412948"><ele>168.57142857142858</ele><time>2026-04-23T16:10:21.951Z</time></trkpt><trkpt lat="45.59686646314354" lon="10.12034716737017"><ele>168.14285714285714</ele><time>2026-04-23T16:10:25.951Z</time></trkpt><trkpt lat="45.59685435578867" lon="10.12044205045775"><ele>167.71428571428572</ele><time>2026-04-23T16:10:28.951Z</time></trkpt><trkpt lat="45.59684469861214" lon="10.120552105112555"><ele>167.28571428571428</ele><time>2026-04-23T16:10:31.951Z</time></trkpt><trkpt lat="45.59684176833811" lon="10.120649548624982"><ele>166.85714285714286</ele><time>2026-04-23T16:10:34.951Z</time></trkpt><trkpt lat="45.59683395480162" lon="10.12074831162584"><ele>166.42857142857142</ele><time>2026-04-23T16:10:37.951Z</time></trkpt><trkpt lat="45.596832473948076" lon="10.120859843659169"><ele>166.0</ele><time>2026-04-23T16:10:40.951Z</time></trkpt><trkpt lat="45.596826299866684" lon="10.120962205006238"><ele>165.83333333333334</ele><time>2026-04-23T16:10:43.951Z</time></trkpt><trkpt lat="45.5968230801038" lon="10.12108326972536"><ele>165.66666666666669</ele><time>2026-04-23T16:10:46.951Z</time></trkpt><trkpt lat="45.5968097391975" lon="10.121203648493065"><ele>165.5</ele><time>2026-04-23T16:10:49.951Z</time></trkpt><trkpt lat="45.596795541148566" lon="10.121326146024"><ele>165.33333333333334</ele><time>2026-04-23T16:10:52.951Z</time></trkpt><trkpt lat="45.5967789278261" lon="10.121441583130856"><ele>165.16666666666666</ele><time>2026-04-23T16:10:55.951Z</time></trkpt><trkpt lat="45.59676063634278" lon="10.121535561778028"><ele>165.0</ele><time>2026-04-23T16:10:58.951Z</time></trkpt><trkpt lat="45.596744143974014" lon="10.121634107015955"><ele>165.00000000000003</ele><time>2026-04-23T16:11:01.951Z</time></trkpt><trkpt lat="45.596725398728466" lon="10.121725325856504"><ele>165.0</ele><time>2026-04-23T16:11:04.951Z</time></trkpt><trkpt lat="45.59670216647963" lon="10.121810414889953"><ele>165.0</ele><time>2026-04-23T16:11:07.951Z</time></trkpt><trkpt lat="45.59668237714827" lon="10.121914695332714"><ele>165.0</ele><time>2026-04-23T16:11:10.951Z</time></trkpt><trkpt lat="45.596667459539916" lon="10.122008561034665"><ele>165.0</ele><time>2026-04-23T16:11:13.951Z</time></trkpt><trkpt lat="45.59664232213835" lon="10.122134824326327"><ele>165.00000000000003</ele><time>2026-04-23T16:11:17.948Z</time></trkpt><trkpt lat="45.596642614506905" lon="10.122249301976199"><ele>165.0</ele><time>2026-04-23T16:11:20.948Z</time></trkpt><trkpt lat="45.59662012941649" lon="10.122355570801004"><ele>165.16666666666666</ele><time>2026-04-23T16:11:23.948Z</time></trkpt><trkpt lat="45.59660190343123" lon="10.12247188603504"><ele>165.33333333333334</ele><time>2026-04-23T16:11:26.947Z</time></trkpt><trkpt lat="45.59657936014092" lon="10.12258945440823"><ele>165.5</ele><time>2026-04-23T16:11:29.948Z</time></trkpt><trkpt lat="45.59658232740354" lon="10.122702141745833"><ele>165.66666666666669</ele><time>2026-04-23T16:11:32.948Z</time></trkpt><trkpt lat="45.59658587032046" lon="10.122813742352541"><ele>165.83333333333334</ele><time>2026-04-23T16:11:35.948Z</time></trkpt><trkpt lat="45.596585459815365" lon="10.122929269940506"><ele>166.0</ele><time>2026-04-23T16:11:38.948Z</time></trkpt><trkpt lat="45.59658434768428" lon="10.123059826464504"><ele>166.0</ele><time>2026-04-23T16:11:41.948Z</time></trkpt><trkpt lat="45.59659876492522" lon="10.123161242190168"><ele>166.0</ele><time>2026-04-23T16:11:44.948Z</time></trkpt><trkpt lat="45.59660020751044" lon="10.123269569383348"><ele>166.0</ele><time>2026-04-23T16:11:47.948Z</time></trkpt><trkpt lat="45.59660107431331" lon="10.123366482179579"><ele>166.0</ele><time>2026-04-23T16:11:49.948Z</time></trkpt><trkpt lat="45.596596092235764" lon="10.123468748500503"><ele>166.0</ele><time>2026-04-23T16:11:52.948Z</time></trkpt><trkpt lat="45.59660220448772" lon="10.123585994764252"><ele>166.0</ele><time>2026-04-23T16:11:56.948Z</time></trkpt><trkpt lat="45.59660031233864" lon="10.123676812467238"><ele>166.0</ele><time>2026-04-23T16:11:59.948Z</time></trkpt><trkpt lat="45.59659676909896" lon="10.123769200114127"><ele>166.33333333333334</ele><time>2026-04-23T16:12:02.948Z</time></trkpt><trkpt lat="45.59659269611769" lon="10.123863849184225"><ele>166.66666666666669</ele><time>2026-04-23T16:12:05.948Z</time></trkpt><trkpt lat="45.596600967867595" lon="10.12398649414733"><ele>167.0</ele><time>2026-04-23T16:12:09.948Z</time></trkpt><trkpt lat="45.596597718725114" lon="10.124092972587448"><ele>167.33333333333334</ele><time>2026-04-23T16:12:13.948Z</time></trkpt><trkpt lat="45.5965861464036" lon="10.12420328493327"><ele>167.66666666666666</ele><time>2026-04-23T16:12:16.948Z</time></trkpt><trkpt lat="45.596551039213026" lon="10.12429918878414"><ele>168.0</ele><time>2026-04-23T16:12:19.949Z</time></trkpt><trkpt lat="45.59655421576987" lon="10.124398637310044"><ele>168.0</ele><time>2026-04-23T16:12:21.949Z</time></trkpt><trkpt lat="45.59659949051389" lon="10.124521447657605"><ele>168.0</ele><time>2026-04-23T16:12:24.949Z</time></trkpt><trkpt lat="45.59663083413066" lon="10.124638562700385"><ele>168.0</ele><time>2026-04-23T16:12:27.949Z</time></trkpt><trkpt lat="45.59663466066595" lon="10.124754240928304"><ele>168.0</ele><time>2026-04-23T16:12:30.949Z</time></trkpt><trkpt lat="45.59660828173468" lon="10.124859069905979"><ele>168.0</ele><time>2026-04-23T16:12:33.949Z</time></trkpt><trkpt lat="45.59656577572794" lon="10.124946299811846"><ele>168.0</ele><time>2026-04-23T16:12:36.949Z</time></trkpt><trkpt lat="45.59655026988076" lon="10.12506911441821"><ele>168.0</ele><time>2026-04-23T16:12:39.949Z</time></trkpt><trkpt lat="45.59655274974422" lon="10.125191632615406"><ele>168.0</ele><time>2026-04-23T16:12:42.949Z</time></trkpt><trkpt lat="45.59656216152" lon="10.125307681389105"><ele>168.0</ele><time>2026-04-23T16:12:45.949Z</time></trkpt><trkpt lat="45.59656609930173" lon="10.125404574868009"><ele>168.0</ele><time>2026-04-23T16:12:48.949Z</time></trkpt><trkpt lat="45.596556552242156" lon="10.12551616171858"><ele>168.0</ele><time>2026-04-23T16:12:51.949Z</time></trkpt><trkpt lat="45.59655427495917" lon="10.125620991656854"><ele>168.0</ele><time>2026-04-23T16:12:54.949Z</time></trkpt><trkpt lat="45.5965592066025" lon="10.125733219954961"><ele>168.0</ele><time>2026-04-23T16:12:57.949Z</time></trkpt><trkpt lat="45.5965563371225" lon="10.125845354250787"><ele>168.0</ele><time>2026-04-23T16:13:00.949Z</time></trkpt><trkpt lat="45.59654849312186" lon="10.125959366067862"><ele>168.0</ele><time>2026-04-23T16:13:03.949Z</time></trkpt><trkpt lat="45.59653790997835" lon="10.12606619919937"><ele>168.0</ele><time>2026-04-23T16:13:06.949Z</time></trkpt><trkpt lat="45.59653759389228" lon="10.126180125359221"><ele>168.0</ele><time>2026-04-23T16:13:09.949Z</time></trkpt><trkpt lat="45.596536021799224" lon="10.12628546884272"><ele>168.0</ele><time>2026-04-23T16:13:12.949Z</time></trkpt><trkpt lat="45.59654705276152" lon="10.126386316448592"><ele>168.0</ele><time>2026-04-23T16:13:15.949Z</time></trkpt><trkpt lat="45.59653510527137" lon="10.12648492274311"><ele>168.0</ele><time>2026-04-23T16:13:18.949Z</time></trkpt><trkpt lat="45.59653269435366" lon="10.126597816497545"><ele>168.0</ele><time>2026-04-23T16:13:21.946Z</time></trkpt><trkpt lat="45.59652836181434" lon="10.126721257174951"><ele>168.0</ele><time>2026-04-23T16:13:24.945Z</time></trkpt><trkpt lat="45.596527922880455" lon="10.126835495743146"><ele>168.0</ele><time>2026-04-23T16:13:27.946Z</time></trkpt><trkpt lat="45.59651446104592" lon="10.126955591093735"><ele>168.0</ele><time>2026-04-23T16:13:30.946Z</time></trkpt><trkpt lat="45.59650531223398" lon="10.127066599399816"><ele>167.5</ele><time>2026-04-23T16:13:33.945Z</time></trkpt><trkpt lat="45.59649999196484" lon="10.127186445912546"><ele>167.0</ele><time>2026-04-23T16:13:36.945Z</time></trkpt><trkpt lat="45.5964981780049" lon="10.127290214210415"><ele>166.5</ele><time>2026-04-23T16:13:39.945Z</time></trkpt><trkpt lat="45.596502961086664" lon="10.127395800419368"><ele>166.0</ele><time>2026-04-23T16:13:42.946Z</time></trkpt><trkpt lat="45.59651745939086" lon="10.127504624208692"><ele>165.5</ele><time>2026-04-23T16:13:45.946Z</time></trkpt><trkpt lat="45.59652776351577" lon="10.127615477635576"><ele>165.0</ele><time>2026-04-23T16:13:48.946Z</time></trkpt><trkpt lat="45.59653573557913" lon="10.127711837706928"><ele>164.66666666666666</ele><time>2026-04-23T16:13:51.946Z</time></trkpt><trkpt lat="45.596544215948136" lon="10.127826729383058"><ele>164.33333333333334</ele><time>2026-04-23T16:13:55.946Z</time></trkpt><trkpt lat="45.59655645033187" lon="10.127948947436211"><ele>164.0</ele><time>2026-04-23T16:13:59.946Z</time></trkpt><trkpt lat="45.59656841959708" lon="10.128053092773001"><ele>163.66666666666669</ele><time>2026-04-23T16:14:02.946Z</time></trkpt><trkpt lat="45.59657927039764" lon="10.12815803121586"><ele>163.33333333333334</ele><time>2026-04-23T16:14:05.946Z</time></trkpt><trkpt lat="45.59659354010338" lon="10.12825847472334"><ele>163.0</ele><time>2026-04-23T16:14:08.946Z</time></trkpt><trkpt lat="45.5966092643381" lon="10.128367533387637"><ele>163.0</ele><time>2026-04-23T16:14:11.946Z</time></trkpt><trkpt lat="45.596626683276746" lon="10.128465754382994"><ele>163.0</ele><time>2026-04-23T16:14:14.946Z</time></trkpt><trkpt lat="45.596638999599634" lon="10.128573157684903"><ele>163.0</ele><time>2026-04-23T16:14:17.946Z</time></trkpt><trkpt lat="45.59665752909561" lon="10.128666813064662"><ele>163.0</ele><time>2026-04-23T16:14:20.946Z</time></trkpt><trkpt lat="45.596666714837475" lon="10.12876304293817"><ele>163.0</ele><time>2026-04-23T16:14:23.946Z</time></trkpt><trkpt lat="45.59668066022561" lon="10.12886621222469"><ele>163.0</ele><time>2026-04-23T16:14:26.946Z</time></trkpt><trkpt lat="45.5967010584021" lon="10.128971156075602"><ele>163.0</ele><time>2026-04-23T16:14:29.946Z</time></trkpt><trkpt lat="45.596715142863566" lon="10.12906558507729"><ele>163.0</ele><time>2026-04-23T16:14:32.946Z</time></trkpt><trkpt lat="45.5967288413269" lon="10.129161079679598"><ele>163.0</ele><time>2026-04-23T16:14:35.946Z</time></trkpt><trkpt lat="45.596747033644185" lon="10.12927152506635"><ele>163.0</ele><time>2026-04-23T16:14:38.946Z</time></trkpt><trkpt lat="45.59675486985143" lon="10.129368610396467"><ele>163.0</ele><time>2026-04-23T16:14:41.946Z</time></trkpt><trkpt lat="45.59676139612267" lon="10.129471985625687"><ele>163.0</ele><time>2026-04-23T16:14:44.946Z</time></trkpt><trkpt lat="45.59675661714068" lon="10.129569111374924"><ele>163.0</ele><time>2026-04-23T16:14:47.946Z</time></trkpt><trkpt lat="45.59676264071498" lon="10.129685110272614"><ele>163.0</ele><time>2026-04-23T16:14:51.946Z</time></trkpt><trkpt lat="45.5967867923211" lon="10.129770726006793"><ele>163.0</ele><time>2026-04-23T16:14:54.946Z</time></trkpt><trkpt lat="45.59681574931554" lon="10.129869992586045"><ele>163.0</ele><time>2026-04-23T16:14:58.946Z</time></trkpt><trkpt lat="45.59681821206278" lon="10.129974513523658"><ele>163.0</ele><time>2026-04-23T16:15:02.946Z</time></trkpt><trkpt lat="45.59681414081223" lon="10.130078115229159"><ele>163.0</ele><time>2026-04-23T16:15:05.946Z</time></trkpt><trkpt lat="45.59680961370621" lon="10.130186201823406"><ele>163.0</ele><time>2026-04-23T16:15:08.947Z</time></trkpt><trkpt lat="45.59681346259392" lon="10.130289548573508"><ele>163.0</ele><time>2026-04-23T16:15:11.947Z</time></trkpt><trkpt lat="45.59681850316523" lon="10.130399755875438"><ele>163.0</ele><time>2026-04-23T16:15:14.947Z</time></trkpt><trkpt lat="45.596819434170804" lon="10.13051087368231"><ele>163.0</ele><time>2026-04-23T16:15:17.947Z</time></trkpt><trkpt lat="45.59683101305784" lon="10.1306168004441"><ele>163.0</ele><time>2026-04-23T16:15:20.947Z</time></trkpt><trkpt lat="45.59683274421354" lon="10.13072205366673"><ele>163.0</ele><time>2026-04-23T16:15:23.947Z</time></trkpt><trkpt lat="45.59682894727846" lon="10.130814941472952"><ele>163.0</ele><time>2026-04-23T16:15:27.943Z</time></trkpt><trkpt lat="45.59682341220662" lon="10.130927805845738"><ele>163.0</ele><time>2026-04-23T16:15:31.943Z</time></trkpt><trkpt lat="45.59681144561039" lon="10.131023703518768"><ele>163.0</ele><time>2026-04-23T16:15:34.943Z</time></trkpt><trkpt lat="45.596784037591064" lon="10.131137354365803"><ele>163.0</ele><time>2026-04-23T16:15:37.943Z</time></trkpt><trkpt lat="45.59674812045739" lon="10.13124567118744"><ele>163.16666666666669</ele><time>2026-04-23T16:15:40.944Z</time></trkpt><trkpt lat="45.59671808961838" lon="10.13135354688375"><ele>163.33333333333334</ele><time>2026-04-23T16:15:43.944Z</time></trkpt><trkpt lat="45.5966798264395" lon="10.131467545253729"><ele>163.5</ele><time>2026-04-23T16:15:47.944Z</time></trkpt><trkpt lat="45.596661813157596" lon="10.131556789597376"><ele>163.66666666666666</ele><time>2026-04-23T16:15:50.944Z</time></trkpt><trkpt lat="45.59665747654446" lon="10.131667314316621"><ele>163.83333333333331</ele><time>2026-04-23T16:15:53.944Z</time></trkpt><trkpt lat="45.5966110605085" lon="10.131729731331841"><ele>164.0</ele><time>2026-04-23T16:15:55.944Z</time></trkpt><trkpt lat="45.596569925360505" lon="10.13183869252199"><ele>164.5</ele><time>2026-04-23T16:15:58.944Z</time></trkpt><trkpt lat="45.59654426842065" lon="10.131933411921722"><ele>165.0</ele><time>2026-04-23T16:16:01.944Z</time></trkpt><trkpt lat="45.596499398342424" lon="10.132030035215475"><ele>165.5</ele><time>2026-04-23T16:16:04.944Z</time></trkpt><trkpt lat="45.59644783649214" lon="10.132109762340942"><ele>166.0</ele><time>2026-04-23T16:16:07.944Z</time></trkpt><trkpt lat="45.596384577523416" lon="10.132161428877202"><ele>166.5</ele><time>2026-04-23T16:16:11.944Z</time></trkpt><trkpt lat="45.59631059577631" lon="10.132114303963084"><ele>167.0</ele><time>2026-04-23T16:16:16.944Z</time></trkpt><trkpt lat="45.59624217911857" lon="10.1320775553351"><ele>167.0</ele><time>2026-04-23T16:16:19.944Z</time></trkpt><trkpt lat="45.596173018915415" lon="10.132015165208848"><ele>167.0</ele><time>2026-04-23T16:16:22.944Z</time></trkpt><trkpt lat="45.59611598908135" lon="10.131963318848818"><ele>167.0</ele><time>2026-04-23T16:16:25.944Z</time></trkpt><trkpt lat="45.59604265723958" lon="10.131912372166958"><ele>167.0</ele><time>2026-04-23T16:16:28.944Z</time></trkpt><trkpt lat="45.59597677410596" lon="10.131854676925046"><ele>167.0</ele><time>2026-04-23T16:16:31.944Z</time></trkpt><trkpt lat="45.595908912837594" lon="10.13180041588537"><ele>167.0</ele><time>2026-04-23T16:16:34.944Z</time></trkpt><trkpt lat="45.595845968135514" lon="10.131738393501584"><ele>166.71428571428572</ele><time>2026-04-23T16:16:37.944Z</time></trkpt><trkpt lat="45.59577992690509" lon="10.13166407300268"><ele>166.42857142857144</ele><time>2026-04-23T16:16:40.944Z</time></trkpt><trkpt lat="45.59572968252307" lon="10.131609855634785"><ele>166.14285714285717</ele><time>2026-04-23T16:16:43.944Z</time></trkpt><trkpt lat="45.59566101343474" lon="10.131571991448702"><ele>165.85714285714286</ele><time>2026-04-23T16:16:46.944Z</time></trkpt><trkpt lat="45.59558272758806" lon="10.13159690602046"><ele>165.57142857142858</ele><time>2026-04-23T16:16:50.944Z</time></trkpt><trkpt lat="45.595511387585574" lon="10.131609998610225"><ele>165.2857142857143</ele><time>2026-04-23T16:16:53.944Z</time></trkpt><trkpt lat="45.59544102900839" lon="10.131600489117503"><ele>165.0</ele><time>2026-04-23T16:16:56.944Z</time></trkpt><trkpt lat="45.595363542837745" lon="10.131589717924177"><ele>164.2857142857143</ele><time>2026-04-23T16:16:59.944Z</time></trkpt><trkpt lat="45.59528311470223" lon="10.131586378332882"><ele>163.57142857142858</ele><time>2026-04-23T16:17:02.944Z</time></trkpt><trkpt lat="45.59520048134405" lon="10.131584357564867"><ele>162.85714285714286</ele><time>2026-04-23T16:17:05.944Z</time></trkpt><trkpt lat="45.595120075133224" lon="10.13158943901018"><ele>162.14285714285717</ele><time>2026-04-23T16:17:08.945Z</time></trkpt><trkpt lat="45.5950492649117" lon="10.131621074857748"><ele>161.42857142857144</ele><time>2026-04-23T16:17:11.945Z</time></trkpt><trkpt lat="45.59499955237183" lon="10.131678574602878"><ele>160.71428571428572</ele><time>2026-04-23T16:17:14.945Z</time></trkpt><trkpt lat="45.59498134483568" lon="10.131767878311587"><ele>160.0</ele><time>2026-04-23T16:17:17.945Z</time></trkpt><trkpt lat="45.59496325351922" lon="10.131872126762762"><ele>160.0</ele><time>2026-04-23T16:17:21.945Z</time></trkpt><trkpt lat="45.594952737973024" lon="10.131992359153557"><ele>160.0</ele><time>2026-04-23T16:17:25.945Z</time></trkpt><trkpt lat="45.594935159461535" lon="10.132108015078531"><ele>160.0</ele><time>2026-04-23T16:17:29.945Z</time></trkpt><trkpt lat="45.5949081367968" lon="10.13221755425646"><ele>160.0</ele><time>2026-04-23T16:17:32.941Z</time></trkpt><trkpt lat="45.59490160475613" lon="10.132333797479394"><ele>160.0</ele><time>2026-04-23T16:17:35.941Z</time></trkpt><trkpt lat="45.59487969599684" lon="10.132433152270329"><ele>160.0</ele><time>2026-04-23T16:17:38.941Z</time></trkpt><trkpt lat="45.59486614951053" lon="10.132548704139005"><ele>160.16666666666669</ele><time>2026-04-23T16:17:41.941Z</time></trkpt><trkpt lat="45.59485612964681" lon="10.13264739599247"><ele>160.33333333333334</ele><time>2026-04-23T16:17:44.941Z</time></trkpt><trkpt lat="45.594835091758036" lon="10.132751190666552"><ele>160.5</ele><time>2026-04-23T16:17:47.941Z</time></trkpt><trkpt lat="45.594818790284634" lon="10.132853443959041"><ele>160.66666666666666</ele><time>2026-04-23T16:17:50.941Z</time></trkpt><trkpt lat="45.594799721649366" lon="10.132955654281535"><ele>160.83333333333331</ele><time>2026-04-23T16:17:53.941Z</time></trkpt><trkpt lat="45.59476434804638" lon="10.133072381632042"><ele>161.0</ele><time>2026-04-23T16:17:56.941Z</time></trkpt><trkpt lat="45.59474416426606" lon="10.133179094725318"><ele>161.42857142857142</ele><time>2026-04-23T16:17:59.941Z</time></trkpt><trkpt lat="45.59471687557962" lon="10.133261811242889"><ele>161.85714285714286</ele><time>2026-04-23T16:18:02.941Z</time></trkpt><trkpt lat="45.59470472265114" lon="10.133360864159735"><ele>162.28571428571428</ele><time>2026-04-23T16:18:05.941Z</time></trkpt><trkpt lat="45.59469333027466" lon="10.133461915390335"><ele>162.71428571428572</ele><time>2026-04-23T16:18:08.941Z</time></trkpt><trkpt lat="45.59468414389623" lon="10.1335769160876"><ele>163.14285714285714</ele><time>2026-04-23T16:18:11.941Z</time></trkpt><trkpt lat="45.594673771618126" lon="10.133673348334693"><ele>163.57142857142856</ele><time>2026-04-23T16:18:14.941Z</time></trkpt><trkpt lat="45.59465647675769" lon="10.133782547791707"><ele>164.0</ele><time>2026-04-23T16:18:17.941Z</time></trkpt><trkpt lat="45.59463648685207" lon="10.133882331453677"><ele>164.0</ele><time>2026-04-23T16:18:20.941Z</time></trkpt><trkpt lat="45.594613583798484" lon="10.133988257483493"><ele>164.0</ele><time>2026-04-23T16:18:23.941Z</time></trkpt><trkpt lat="45.594596159961256" lon="10.13409398962883"><ele>164.0</ele><time>2026-04-23T16:18:26.941Z</time></trkpt><trkpt lat="45.59456940300414" lon="10.1341976263301"><ele>164.0</ele><time>2026-04-23T16:18:29.941Z</time></trkpt><trkpt lat="45.594553852090286" lon="10.13431187582954"><ele>164.0</ele><time>2026-04-23T16:18:32.941Z</time></trkpt><trkpt lat="45.594547228087684" lon="10.134410458963732"><ele>164.0</ele><time>2026-04-23T16:18:35.941Z</time></trkpt><trkpt lat="45.59453812815443" lon="10.13452719040026"><ele>164.0</ele><time>2026-04-23T16:18:38.941Z</time></trkpt><trkpt lat="45.5945690121174" lon="10.134633647533736"><ele>164.0</ele><time>2026-04-23T16:18:41.941Z</time></trkpt><trkpt lat="45.59462241239089" lon="10.134689048342164"><ele>164.0</ele><time>2026-04-23T16:18:44.941Z</time></trkpt><trkpt lat="45.59469375239038" lon="10.134731468865958"><ele>164.0</ele><time>2026-04-23T16:18:48.941Z</time></trkpt><trkpt lat="45.59461753043077" lon="10.134722668801468"><ele>164.0</ele><time>2026-04-23T16:18:56.941Z</time></trkpt><trkpt lat="45.59455909066126" lon="10.134673494054415"><ele>164.0</ele><time>2026-04-23T16:19:02.941Z</time></trkpt><trkpt lat="45.594509111409906" lon="10.134593327649098"><ele>164.0</ele><time>2026-04-23T16:19:09.942Z</time></trkpt><trkpt lat="45.594509111409906" lon="10.134593327649098"><ele>164.0</ele><time>2026-04-23T16:19:09.942Z</time></trkpt></trkseg></trk></gpx>